<?xml version="1.0" encoding="UTF-8" standalone="no" ?>
<gpx xmlns="http://www.topografix.com/GPX/1/1" xmlns:xsi="http://www.w3.org/2001/XMLSchema-instance" xsi:schemaLocation="http://www.topografix.com/GPX/1/1 http://www.topografix.com/GPX/1/1/gpx.xsd" version="1.1" creator="VisuGPX - https://www.visugpx.com">
  <metadata>
    <name>Traversée des Pyrénées 3/8</name>
    <desc><![CDATA[Partie 3/8 de la traversée des Pyrénées à ski.]]></desc>
  </metadata>
  <wpt lat="42.70045" lon="1.09901">
    <ele>1267.5</ele>
    <name><![CDATA[Alos de Isil]]></name>
    <type><![CDATA[user]]></type>
  </wpt>
  <wpt lat="42.66834" lon="1.00357">
    <ele>2334.7</ele>
    <name><![CDATA[Col Estany Pudo]]></name>
    <type><![CDATA[user]]></type>
  </wpt>
  <wpt lat="42.69903" lon="1.00893">
    <ele>2497.3671875</ele>
    <name><![CDATA[Coll Rosari]]></name>
    <type><![CDATA[user]]></type>
  </wpt>
  <wpt lat="42.70381" lon="1.16567">
    <ele>2542.86328125</ele>
    <name><![CDATA[Collada Mont Roig]]></name>
    <type><![CDATA[user]]></type>
  </wpt>
  <wpt lat="42.71179" lon="1.42851">
    <ele>1187.453125</ele>
    <name><![CDATA[L'Artigue]]></name>
    <type><![CDATA[user]]></type>
  </wpt>
  <wpt lat="42.71197" lon="1.27776">
    <ele>2852.0136</ele>
    <name><![CDATA[Pic de Certescan]]></name>
    <type><![CDATA[user]]></type>
  </wpt>
  <wpt lat="42.7012" lon="1.17614">
    <ele>2752.9536</ele>
    <name><![CDATA[Pic de la Gallina]]></name>
    <type><![CDATA[user]]></type>
  </wpt>
  <wpt lat="42.66386" lon="0.97978">
    <ele>2063.25390625</ele>
    <name><![CDATA[Port de la Bonaigua]]></name>
    <type><![CDATA[user]]></type>
  </wpt>
  <wpt lat="42.70308" lon="1.35079">
    <ele>2474.3</ele>
    <name><![CDATA[Port de Lartigue]]></name>
    <type><![CDATA[user]]></type>
  </wpt>
  <wpt lat="42.69695" lon="1.04158">
    <ele>2192.5</ele>
    <name><![CDATA[Ref Airoto]]></name>
    <type><![CDATA[user]]></type>
  </wpt>
  <wpt lat="42.70388" lon="1.3065">
    <ele>2232.6</ele>
    <name><![CDATA[Ref de Certescan]]></name>
    <type><![CDATA[user]]></type>
  </wpt>
  <wpt lat="42.70608" lon="1.18865">
    <ele>2295.4</ele>
    <name><![CDATA[Ref de Mont roig]]></name>
    <type><![CDATA[user]]></type>
  </wpt>
  <trk>
    <name><![CDATA[TPS3_J1 20 FEV 2017 07:47]]></name>
    <trkseg>
      <trkpt lat="42.71022" lon="1.4249">
        <ele>1064.32</ele>
        <time>2017-02-20T06:47:50Z</time>
      </trkpt>
      <trkpt lat="42.7102" lon="1.42489">
        <ele>1140.74</ele>
        <time>2017-02-20T06:48:26Z</time>
      </trkpt>
      <trkpt lat="42.71018" lon="1.42485">
        <ele>1187.37</ele>
        <time>2017-02-20T06:48:50Z</time>
      </trkpt>
      <trkpt lat="42.70983" lon="1.42367">
        <ele>1178.23</ele>
        <time>2017-02-20T06:54:42Z</time>
      </trkpt>
      <trkpt lat="42.70962" lon="1.42335">
        <ele>1178.23</ele>
        <time>2017-02-20T06:55:29Z</time>
      </trkpt>
      <trkpt lat="42.70953" lon="1.422">
        <ele>1177.27</ele>
        <time>2017-02-20T06:57:36Z</time>
      </trkpt>
      <trkpt lat="42.70943" lon="1.42145">
        <ele>1185.92</ele>
        <time>2017-02-20T06:59:34Z</time>
      </trkpt>
      <trkpt lat="42.70935" lon="1.4214">
        <ele>1180.16</ele>
        <time>2017-02-20T06:59:58Z</time>
      </trkpt>
      <trkpt lat="42.7094" lon="1.42128">
        <ele>1181.12</ele>
        <time>2017-02-20T07:00:17Z</time>
      </trkpt>
      <trkpt lat="42.7092" lon="1.42095">
        <ele>1214.76</ele>
        <time>2017-02-20T07:02:41Z</time>
      </trkpt>
      <trkpt lat="42.70921" lon="1.42095">
        <ele>1193.13</ele>
        <time>2017-02-20T07:03:08Z</time>
      </trkpt>
      <trkpt lat="42.70919" lon="1.42095">
        <ele>1203.71</ele>
        <time>2017-02-20T07:03:37Z</time>
      </trkpt>
      <trkpt lat="42.70919" lon="1.42095">
        <ele>1193.13</ele>
        <time>2017-02-20T07:03:38Z</time>
      </trkpt>
      <trkpt lat="42.7092" lon="1.42095">
        <ele>1198.42</ele>
        <time>2017-02-20T07:03:50Z</time>
      </trkpt>
      <trkpt lat="42.70921" lon="1.42094">
        <ele>1193.13</ele>
        <time>2017-02-20T07:03:51Z</time>
      </trkpt>
      <trkpt lat="42.70928" lon="1.42093">
        <ele>1192.65</ele>
        <time>2017-02-20T07:04:12Z</time>
      </trkpt>
      <trkpt lat="42.70934" lon="1.42091">
        <ele>1191.21</ele>
        <time>2017-02-20T07:04:31Z</time>
      </trkpt>
      <trkpt lat="42.70934" lon="1.42089">
        <ele>1192.17</ele>
        <time>2017-02-20T07:05:52Z</time>
      </trkpt>
      <trkpt lat="42.70979" lon="1.42126">
        <ele>1196.5</ele>
        <time>2017-02-20T07:07:56Z</time>
      </trkpt>
      <trkpt lat="42.70994" lon="1.42224">
        <ele>1201.3</ele>
        <time>2017-02-20T07:09:32Z</time>
      </trkpt>
      <trkpt lat="42.70989" lon="1.42235">
        <ele>1200.82</ele>
        <time>2017-02-20T07:09:37Z</time>
      </trkpt>
      <trkpt lat="42.7101" lon="1.42252">
        <ele>1201.3</ele>
        <time>2017-02-20T07:10:28Z</time>
      </trkpt>
      <trkpt lat="42.7101" lon="1.42287">
        <ele>1203.71</ele>
        <time>2017-02-20T07:11:25Z</time>
      </trkpt>
      <trkpt lat="42.71009" lon="1.42298">
        <ele>1204.67</ele>
        <time>2017-02-20T07:11:36Z</time>
      </trkpt>
      <trkpt lat="42.71024" lon="1.42314">
        <ele>1208.03</ele>
        <time>2017-02-20T07:12:10Z</time>
      </trkpt>
      <trkpt lat="42.71009" lon="1.4228">
        <ele>1213.32</ele>
        <time>2017-02-20T07:13:41Z</time>
      </trkpt>
      <trkpt lat="42.71013" lon="1.42248">
        <ele>1223.42</ele>
        <time>2017-02-20T07:15:02Z</time>
      </trkpt>
      <trkpt lat="42.71015" lon="1.42224">
        <ele>1227.74</ele>
        <time>2017-02-20T07:15:45Z</time>
      </trkpt>
      <trkpt lat="42.71027" lon="1.4216">
        <ele>1250.81</ele>
        <time>2017-02-20T07:19:21Z</time>
      </trkpt>
      <trkpt lat="42.71073" lon="1.41911">
        <ele>1307.05</ele>
        <time>2017-02-20T07:27:38Z</time>
      </trkpt>
      <trkpt lat="42.71097" lon="1.41859">
        <ele>1326.76</ele>
        <time>2017-02-20T07:30:37Z</time>
      </trkpt>
      <trkpt lat="42.71102" lon="1.41848">
        <ele>1329.64</ele>
        <time>2017-02-20T07:30:56Z</time>
      </trkpt>
      <trkpt lat="42.71119" lon="1.4178">
        <ele>1343.58</ele>
        <time>2017-02-20T07:33:01Z</time>
      </trkpt>
      <trkpt lat="42.71145" lon="1.41702">
        <ele>1356.08</ele>
        <time>2017-02-20T07:35:26Z</time>
      </trkpt>
      <trkpt lat="42.71155" lon="1.41606">
        <ele>1363.77</ele>
        <time>2017-02-20T07:37:40Z</time>
      </trkpt>
      <trkpt lat="42.71161" lon="1.416">
        <ele>1363.29</ele>
        <time>2017-02-20T07:37:58Z</time>
      </trkpt>
      <trkpt lat="42.71147" lon="1.41509">
        <ele>1375.3</ele>
        <time>2017-02-20T07:40:04Z</time>
      </trkpt>
      <trkpt lat="42.7117" lon="1.41408">
        <ele>1383.96</ele>
        <time>2017-02-20T07:42:15Z</time>
      </trkpt>
      <trkpt lat="42.71173" lon="1.4137">
        <ele>1385.4</ele>
        <time>2017-02-20T07:42:53Z</time>
      </trkpt>
      <trkpt lat="42.71204" lon="1.41258">
        <ele>1387.8</ele>
        <time>2017-02-20T07:44:44Z</time>
      </trkpt>
      <trkpt lat="42.71227" lon="1.41232">
        <ele>1391.65</ele>
        <time>2017-02-20T07:45:39Z</time>
      </trkpt>
      <trkpt lat="42.71245" lon="1.41213">
        <ele>1391.17</ele>
        <time>2017-02-20T07:46:29Z</time>
      </trkpt>
      <trkpt lat="42.71249" lon="1.41202">
        <ele>1392.13</ele>
        <time>2017-02-20T07:47:03Z</time>
      </trkpt>
      <trkpt lat="42.71247" lon="1.41165">
        <ele>1400.3</ele>
        <time>2017-02-20T07:48:22Z</time>
      </trkpt>
      <trkpt lat="42.71239" lon="1.41157">
        <ele>1400.3</ele>
        <time>2017-02-20T07:48:41Z</time>
      </trkpt>
      <trkpt lat="42.71243" lon="1.41072">
        <ele>1403.18</ele>
        <time>2017-02-20T07:50:29Z</time>
      </trkpt>
      <trkpt lat="42.7125" lon="1.41035">
        <ele>1401.74</ele>
        <time>2017-02-20T07:51:27Z</time>
      </trkpt>
      <trkpt lat="42.71257" lon="1.41002">
        <ele>1403.18</ele>
        <time>2017-02-20T07:51:53Z</time>
      </trkpt>
      <trkpt lat="42.71241" lon="1.40959">
        <ele>1409.91</ele>
        <time>2017-02-20T07:53:32Z</time>
      </trkpt>
      <trkpt lat="42.71232" lon="1.40923">
        <ele>1409.91</ele>
        <time>2017-02-20T07:54:00Z</time>
      </trkpt>
      <trkpt lat="42.71209" lon="1.40869">
        <ele>1414.24</ele>
        <time>2017-02-20T07:55:12Z</time>
      </trkpt>
      <trkpt lat="42.71169" lon="1.40772">
        <ele>1414.24</ele>
        <time>2017-02-20T07:57:24Z</time>
      </trkpt>
      <trkpt lat="42.71141" lon="1.40735">
        <ele>1410.87</ele>
        <time>2017-02-20T07:58:23Z</time>
      </trkpt>
      <trkpt lat="42.71135" lon="1.40706">
        <ele>1412.79</ele>
        <time>2017-02-20T07:59:03Z</time>
      </trkpt>
      <trkpt lat="42.71121" lon="1.40672">
        <ele>1410.87</ele>
        <time>2017-02-20T07:59:38Z</time>
      </trkpt>
      <trkpt lat="42.71115" lon="1.40611">
        <ele>1415.2</ele>
        <time>2017-02-20T08:00:55Z</time>
      </trkpt>
      <trkpt lat="42.71117" lon="1.40556">
        <ele>1413.28</ele>
        <time>2017-02-20T08:01:44Z</time>
      </trkpt>
      <trkpt lat="42.71111" lon="1.40542">
        <ele>1410.39</ele>
        <time>2017-02-20T08:02:08Z</time>
      </trkpt>
      <trkpt lat="42.71114" lon="1.4051">
        <ele>1409.43</ele>
        <time>2017-02-20T08:02:37Z</time>
      </trkpt>
      <trkpt lat="42.71121" lon="1.40473">
        <ele>1407.03</ele>
        <time>2017-02-20T08:03:12Z</time>
      </trkpt>
      <trkpt lat="42.71126" lon="1.40466">
        <ele>1405.1</ele>
        <time>2017-02-20T08:03:38Z</time>
      </trkpt>
      <trkpt lat="42.7113" lon="1.40449">
        <ele>1402.22</ele>
        <time>2017-02-20T08:03:55Z</time>
      </trkpt>
      <trkpt lat="42.71156" lon="1.4043">
        <ele>1401.26</ele>
        <time>2017-02-20T08:04:11Z</time>
      </trkpt>
      <trkpt lat="42.71176" lon="1.40363">
        <ele>1391.65</ele>
        <time>2017-02-20T08:06:12Z</time>
      </trkpt>
      <trkpt lat="42.71217" lon="1.40297">
        <ele>1394.05</ele>
        <time>2017-02-20T08:11:10Z</time>
      </trkpt>
      <trkpt lat="42.71226" lon="1.40277">
        <ele>1388.76</ele>
        <time>2017-02-20T08:12:31Z</time>
      </trkpt>
      <trkpt lat="42.71273" lon="1.40234">
        <ele>1399.82</ele>
        <time>2017-02-20T08:14:41Z</time>
      </trkpt>
      <trkpt lat="42.71268" lon="1.4021">
        <ele>1407.51</ele>
        <time>2017-02-20T08:15:52Z</time>
      </trkpt>
      <trkpt lat="42.71327" lon="1.40168">
        <ele>1423.85</ele>
        <time>2017-02-20T08:18:31Z</time>
      </trkpt>
      <trkpt lat="42.71328" lon="1.40167">
        <ele>1425.77</ele>
        <time>2017-02-20T08:18:50Z</time>
      </trkpt>
      <trkpt lat="42.71335" lon="1.40154">
        <ele>1427.7</ele>
        <time>2017-02-20T08:19:07Z</time>
      </trkpt>
      <trkpt lat="42.71343" lon="1.40141">
        <ele>1431.54</ele>
        <time>2017-02-20T08:19:42Z</time>
      </trkpt>
      <trkpt lat="42.71402" lon="1.40073">
        <ele>1451.25</ele>
        <time>2017-02-20T08:22:53Z</time>
      </trkpt>
      <trkpt lat="42.71456" lon="1.40015">
        <ele>1469.03</ele>
        <time>2017-02-20T08:25:50Z</time>
      </trkpt>
      <trkpt lat="42.71477" lon="1.39977">
        <ele>1476.72</ele>
        <time>2017-02-20T08:27:21Z</time>
      </trkpt>
      <trkpt lat="42.71499" lon="1.39891">
        <ele>1486.34</ele>
        <time>2017-02-20T08:29:02Z</time>
      </trkpt>
      <trkpt lat="42.71499" lon="1.39891">
        <ele>1489.7</ele>
        <time>2017-02-20T08:29:33Z</time>
      </trkpt>
      <trkpt lat="42.71503" lon="1.39886">
        <ele>1490.18</ele>
        <time>2017-02-20T08:29:54Z</time>
      </trkpt>
      <trkpt lat="42.71512" lon="1.39877">
        <ele>1492.58</ele>
        <time>2017-02-20T08:30:33Z</time>
      </trkpt>
      <trkpt lat="42.71518" lon="1.39874">
        <ele>1494.51</ele>
        <time>2017-02-20T08:30:51Z</time>
      </trkpt>
      <trkpt lat="42.7154" lon="1.39865">
        <ele>1498.35</ele>
        <time>2017-02-20T08:31:25Z</time>
      </trkpt>
      <trkpt lat="42.7157" lon="1.39851">
        <ele>1500.76</ele>
        <time>2017-02-20T08:31:45Z</time>
      </trkpt>
      <trkpt lat="42.71545" lon="1.39832">
        <ele>1507.97</ele>
        <time>2017-02-20T08:32:52Z</time>
      </trkpt>
      <trkpt lat="42.71557" lon="1.39823">
        <ele>1514.21</ele>
        <time>2017-02-20T08:33:47Z</time>
      </trkpt>
      <trkpt lat="42.71574" lon="1.39825">
        <ele>1516.14</ele>
        <time>2017-02-20T08:34:24Z</time>
      </trkpt>
      <trkpt lat="42.71559" lon="1.39803">
        <ele>1521.9</ele>
        <time>2017-02-20T08:35:08Z</time>
      </trkpt>
      <trkpt lat="42.71569" lon="1.39797">
        <ele>1525.27</ele>
        <time>2017-02-20T08:35:39Z</time>
      </trkpt>
      <trkpt lat="42.71533" lon="1.39778">
        <ele>1538.73</ele>
        <time>2017-02-20T08:38:12Z</time>
      </trkpt>
      <trkpt lat="42.71539" lon="1.39771">
        <ele>1543.53</ele>
        <time>2017-02-20T08:38:47Z</time>
      </trkpt>
      <trkpt lat="42.71547" lon="1.39764">
        <ele>1545.94</ele>
        <time>2017-02-20T08:39:02Z</time>
      </trkpt>
      <trkpt lat="42.71552" lon="1.39762">
        <ele>1545.94</ele>
        <time>2017-02-20T08:39:17Z</time>
      </trkpt>
      <trkpt lat="42.71546" lon="1.39748">
        <ele>1556.03</ele>
        <time>2017-02-20T08:42:00Z</time>
      </trkpt>
      <trkpt lat="42.71539" lon="1.39737">
        <ele>1560.36</ele>
        <time>2017-02-20T08:42:39Z</time>
      </trkpt>
      <trkpt lat="42.71564" lon="1.39728">
        <ele>1569.49</ele>
        <time>2017-02-20T08:44:04Z</time>
      </trkpt>
      <trkpt lat="42.71551" lon="1.39713">
        <ele>1577.66</ele>
        <time>2017-02-20T08:45:21Z</time>
      </trkpt>
      <trkpt lat="42.7158" lon="1.397">
        <ele>1589.2</ele>
        <time>2017-02-20T08:46:44Z</time>
      </trkpt>
      <trkpt lat="42.7158" lon="1.39699">
        <ele>1589.2</ele>
        <time>2017-02-20T08:47:10Z</time>
      </trkpt>
      <trkpt lat="42.71529" lon="1.39669">
        <ele>1605.06</ele>
        <time>2017-02-20T08:49:31Z</time>
      </trkpt>
      <trkpt lat="42.71525" lon="1.39639">
        <ele>1615.15</ele>
        <time>2017-02-20T08:50:54Z</time>
      </trkpt>
      <trkpt lat="42.71524" lon="1.39631">
        <ele>1616.59</ele>
        <time>2017-02-20T08:51:09Z</time>
      </trkpt>
      <trkpt lat="42.71521" lon="1.3961">
        <ele>1622.36</ele>
        <time>2017-02-20T08:52:03Z</time>
      </trkpt>
      <trkpt lat="42.71513" lon="1.39561">
        <ele>1634.86</ele>
        <time>2017-02-20T08:59:33Z</time>
      </trkpt>
      <trkpt lat="42.71509" lon="1.39543">
        <ele>1639.19</ele>
        <time>2017-02-20T09:00:36Z</time>
      </trkpt>
      <trkpt lat="42.71497" lon="1.39443">
        <ele>1654.57</ele>
        <time>2017-02-20T09:03:15Z</time>
      </trkpt>
      <trkpt lat="42.71479" lon="1.39433">
        <ele>1660.81</ele>
        <time>2017-02-20T09:04:24Z</time>
      </trkpt>
      <trkpt lat="42.71464" lon="1.39411">
        <ele>1667.54</ele>
        <time>2017-02-20T09:05:18Z</time>
      </trkpt>
      <trkpt lat="42.71458" lon="1.39403">
        <ele>1669.95</ele>
        <time>2017-02-20T09:05:36Z</time>
      </trkpt>
      <trkpt lat="42.71457" lon="1.39401">
        <ele>1664.66</ele>
        <time>2017-02-20T09:05:41Z</time>
      </trkpt>
      <trkpt lat="42.71455" lon="1.39399">
        <ele>1674.75</ele>
        <time>2017-02-20T09:05:44Z</time>
      </trkpt>
      <trkpt lat="42.71454" lon="1.39399">
        <ele>1655.05</ele>
        <time>2017-02-20T09:05:46Z</time>
      </trkpt>
      <trkpt lat="42.71454" lon="1.39399">
        <ele>1673.79</ele>
        <time>2017-02-20T09:05:47Z</time>
      </trkpt>
      <trkpt lat="42.71453" lon="1.39399">
        <ele>1672.35</ele>
        <time>2017-02-20T09:05:50Z</time>
      </trkpt>
      <trkpt lat="42.71453" lon="1.39399">
        <ele>1664.18</ele>
        <time>2017-02-20T09:05:51Z</time>
      </trkpt>
      <trkpt lat="42.71452" lon="1.39399">
        <ele>1671.87</ele>
        <time>2017-02-20T09:05:52Z</time>
      </trkpt>
      <trkpt lat="42.7145" lon="1.39396">
        <ele>1671.39</ele>
        <time>2017-02-20T09:05:58Z</time>
      </trkpt>
      <trkpt lat="42.71442" lon="1.39385">
        <ele>1672.83</ele>
        <time>2017-02-20T09:06:18Z</time>
      </trkpt>
      <trkpt lat="42.71423" lon="1.39336">
        <ele>1673.31</ele>
        <time>2017-02-20T09:07:13Z</time>
      </trkpt>
      <trkpt lat="42.71387" lon="1.39234">
        <ele>1684.37</ele>
        <time>2017-02-20T09:09:17Z</time>
      </trkpt>
      <trkpt lat="42.71348" lon="1.39157">
        <ele>1686.29</ele>
        <time>2017-02-20T09:10:47Z</time>
      </trkpt>
      <trkpt lat="42.71386" lon="1.38954">
        <ele>1694.46</ele>
        <time>2017-02-20T09:14:13Z</time>
      </trkpt>
      <trkpt lat="42.71363" lon="1.38877">
        <ele>1698.31</ele>
        <time>2017-02-20T09:15:38Z</time>
      </trkpt>
      <trkpt lat="42.71361" lon="1.38851">
        <ele>1697.34</ele>
        <time>2017-02-20T09:15:55Z</time>
      </trkpt>
      <trkpt lat="42.7137" lon="1.38712">
        <ele>1705.04</ele>
        <time>2017-02-20T09:18:28Z</time>
      </trkpt>
      <trkpt lat="42.71303" lon="1.38396">
        <ele>1746.37</ele>
        <time>2017-02-20T09:25:13Z</time>
      </trkpt>
      <trkpt lat="42.71271" lon="1.38376">
        <ele>1755.99</ele>
        <time>2017-02-20T09:26:29Z</time>
      </trkpt>
      <trkpt lat="42.71266" lon="1.38353">
        <ele>1760.79</ele>
        <time>2017-02-20T09:27:07Z</time>
      </trkpt>
      <trkpt lat="42.71266" lon="1.38351">
        <ele>1764.16</ele>
        <time>2017-02-20T09:27:24Z</time>
      </trkpt>
      <trkpt lat="42.71266" lon="1.38346">
        <ele>1766.08</ele>
        <time>2017-02-20T09:27:43Z</time>
      </trkpt>
      <trkpt lat="42.7127" lon="1.38337">
        <ele>1768.48</ele>
        <time>2017-02-20T09:27:59Z</time>
      </trkpt>
      <trkpt lat="42.71268" lon="1.38324">
        <ele>1768.48</ele>
        <time>2017-02-20T09:28:14Z</time>
      </trkpt>
      <trkpt lat="42.71264" lon="1.38303">
        <ele>1778.1</ele>
        <time>2017-02-20T09:29:39Z</time>
      </trkpt>
      <trkpt lat="42.71265" lon="1.38293">
        <ele>1780.02</ele>
        <time>2017-02-20T09:29:58Z</time>
      </trkpt>
      <trkpt lat="42.71239" lon="1.38218">
        <ele>1791.07</ele>
        <time>2017-02-20T09:31:33Z</time>
      </trkpt>
      <trkpt lat="42.71238" lon="1.38211">
        <ele>1789.15</ele>
        <time>2017-02-20T09:32:01Z</time>
      </trkpt>
      <trkpt lat="42.71236" lon="1.38209">
        <ele>1789.63</ele>
        <time>2017-02-20T09:32:05Z</time>
      </trkpt>
      <trkpt lat="42.71138" lon="1.38008">
        <ele>1816.55</ele>
        <time>2017-02-20T09:37:26Z</time>
      </trkpt>
      <trkpt lat="42.71124" lon="1.37989">
        <ele>1817.51</ele>
        <time>2017-02-20T09:38:01Z</time>
      </trkpt>
      <trkpt lat="42.71098" lon="1.37954">
        <ele>1824.72</ele>
        <time>2017-02-20T09:39:04Z</time>
      </trkpt>
      <trkpt lat="42.71103" lon="1.37947">
        <ele>1827.6</ele>
        <time>2017-02-20T09:39:21Z</time>
      </trkpt>
      <trkpt lat="42.71079" lon="1.37872">
        <ele>1841.06</ele>
        <time>2017-02-20T09:41:47Z</time>
      </trkpt>
      <trkpt lat="42.71015" lon="1.37776">
        <ele>1866.06</ele>
        <time>2017-02-20T09:45:15Z</time>
      </trkpt>
      <trkpt lat="42.70987" lon="1.37676">
        <ele>1880.48</ele>
        <time>2017-02-20T09:47:44Z</time>
      </trkpt>
      <trkpt lat="42.70977" lon="1.37631">
        <ele>1882.88</ele>
        <time>2017-02-20T09:48:38Z</time>
      </trkpt>
      <trkpt lat="42.70968" lon="1.3753">
        <ele>1886.24</ele>
        <time>2017-02-20T09:50:00Z</time>
      </trkpt>
      <trkpt lat="42.70927" lon="1.37429">
        <ele>1893.45</ele>
        <time>2017-02-20T09:51:48Z</time>
      </trkpt>
      <trkpt lat="42.70919" lon="1.37335">
        <ele>1910.76</ele>
        <time>2017-02-20T09:54:06Z</time>
      </trkpt>
      <trkpt lat="42.70933" lon="1.37317">
        <ele>1919.89</ele>
        <time>2017-02-20T09:55:10Z</time>
      </trkpt>
      <trkpt lat="42.70935" lon="1.37317">
        <ele>1919.89</ele>
        <time>2017-02-20T09:55:14Z</time>
      </trkpt>
      <trkpt lat="42.70906" lon="1.37189">
        <ele>1940.08</ele>
        <time>2017-02-20T09:58:19Z</time>
      </trkpt>
      <trkpt lat="42.70868" lon="1.37138">
        <ele>1954.02</ele>
        <time>2017-02-20T10:00:26Z</time>
      </trkpt>
      <trkpt lat="42.7088" lon="1.37112">
        <ele>1961.71</ele>
        <time>2017-02-20T10:01:31Z</time>
      </trkpt>
      <trkpt lat="42.7083" lon="1.3708">
        <ele>1978.53</ele>
        <time>2017-02-20T10:03:39Z</time>
      </trkpt>
      <trkpt lat="42.70824" lon="1.37049">
        <ele>1989.1</ele>
        <time>2017-02-20T10:05:04Z</time>
      </trkpt>
      <trkpt lat="42.70817" lon="1.37022">
        <ele>2002.08</ele>
        <time>2017-02-20T10:07:51Z</time>
      </trkpt>
      <trkpt lat="42.70812" lon="1.37015">
        <ele>1995.35</ele>
        <time>2017-02-20T10:12:38Z</time>
      </trkpt>
      <trkpt lat="42.70789" lon="1.36965">
        <ele>2003.04</ele>
        <time>2017-02-20T10:14:00Z</time>
      </trkpt>
      <trkpt lat="42.70736" lon="1.36847">
        <ele>2034.77</ele>
        <time>2017-02-20T10:18:09Z</time>
      </trkpt>
      <trkpt lat="42.70711" lon="1.36794">
        <ele>2045.82</ele>
        <time>2017-02-20T10:19:41Z</time>
      </trkpt>
      <trkpt lat="42.70673" lon="1.36751">
        <ele>2056.88</ele>
        <time>2017-02-20T10:21:21Z</time>
      </trkpt>
      <trkpt lat="42.70632" lon="1.36663">
        <ele>2071.3</ele>
        <time>2017-02-20T10:23:36Z</time>
      </trkpt>
      <trkpt lat="42.70605" lon="1.36597">
        <ele>2074.66</ele>
        <time>2017-02-20T10:24:36Z</time>
      </trkpt>
      <trkpt lat="42.70581" lon="1.36583">
        <ele>2087.64</ele>
        <time>2017-02-20T10:25:24Z</time>
      </trkpt>
      <trkpt lat="42.70581" lon="1.36583">
        <ele>2066.49</ele>
        <time>2017-02-20T10:25:34Z</time>
      </trkpt>
      <trkpt lat="42.70581" lon="1.36583">
        <ele>2081.87</ele>
        <time>2017-02-20T10:25:35Z</time>
      </trkpt>
      <trkpt lat="42.70557" lon="1.36518">
        <ele>2082.35</ele>
        <time>2017-02-20T10:27:14Z</time>
      </trkpt>
      <trkpt lat="42.70454" lon="1.36325">
        <ele>2103.5</ele>
        <time>2017-02-20T10:32:11Z</time>
      </trkpt>
      <trkpt lat="42.70439" lon="1.36314">
        <ele>2104.46</ele>
        <time>2017-02-20T10:32:30Z</time>
      </trkpt>
      <trkpt lat="42.70427" lon="1.36208">
        <ele>2125.61</ele>
        <time>2017-02-20T10:35:57Z</time>
      </trkpt>
      <trkpt lat="42.70421" lon="1.36135">
        <ele>2133.3</ele>
        <time>2017-02-20T10:37:04Z</time>
      </trkpt>
      <trkpt lat="42.70428" lon="1.36132">
        <ele>2136.67</ele>
        <time>2017-02-20T10:37:37Z</time>
      </trkpt>
      <trkpt lat="42.70415" lon="1.36121">
        <ele>2144.84</ele>
        <time>2017-02-20T10:38:53Z</time>
      </trkpt>
      <trkpt lat="42.70411" lon="1.3611">
        <ele>2151.57</ele>
        <time>2017-02-20T10:40:04Z</time>
      </trkpt>
      <trkpt lat="42.70415" lon="1.36108">
        <ele>2153.97</ele>
        <time>2017-02-20T10:41:07Z</time>
      </trkpt>
      <trkpt lat="42.70413" lon="1.36105">
        <ele>2155.89</ele>
        <time>2017-02-20T10:41:22Z</time>
      </trkpt>
      <trkpt lat="42.70418" lon="1.36094">
        <ele>2158.78</ele>
        <time>2017-02-20T10:41:52Z</time>
      </trkpt>
      <trkpt lat="42.70397" lon="1.36031">
        <ele>2182.33</ele>
        <time>2017-02-20T10:44:51Z</time>
      </trkpt>
      <trkpt lat="42.70341" lon="1.3583">
        <ele>2215.98</ele>
        <time>2017-02-20T10:51:12Z</time>
      </trkpt>
      <trkpt lat="42.70324" lon="1.35783">
        <ele>2235.68</ele>
        <time>2017-02-20T10:54:02Z</time>
      </trkpt>
      <trkpt lat="42.70282" lon="1.35744">
        <ele>2237.13</ele>
        <time>2017-02-20T10:54:14Z</time>
      </trkpt>
      <trkpt lat="42.70295" lon="1.35738">
        <ele>2239.05</ele>
        <time>2017-02-20T10:54:30Z</time>
      </trkpt>
      <trkpt lat="42.70287" lon="1.35719">
        <ele>2244.82</ele>
        <time>2017-02-20T10:55:30Z</time>
      </trkpt>
      <trkpt lat="42.70289" lon="1.35707">
        <ele>2248.66</ele>
        <time>2017-02-20T10:56:08Z</time>
      </trkpt>
      <trkpt lat="42.70286" lon="1.35699">
        <ele>2253.47</ele>
        <time>2017-02-20T10:56:48Z</time>
      </trkpt>
      <trkpt lat="42.70272" lon="1.35687">
        <ele>2256.35</ele>
        <time>2017-02-20T10:57:12Z</time>
      </trkpt>
      <trkpt lat="42.70277" lon="1.35667">
        <ele>2261.64</ele>
        <time>2017-02-20T10:58:00Z</time>
      </trkpt>
      <trkpt lat="42.70291" lon="1.35665">
        <ele>2266.45</ele>
        <time>2017-02-20T10:58:48Z</time>
      </trkpt>
      <trkpt lat="42.70303" lon="1.35656">
        <ele>2275.1</ele>
        <time>2017-02-20T11:00:07Z</time>
      </trkpt>
      <trkpt lat="42.70295" lon="1.35585">
        <ele>2291.92</ele>
        <time>2017-02-20T11:03:07Z</time>
      </trkpt>
      <trkpt lat="42.70305" lon="1.35569">
        <ele>2295.28</ele>
        <time>2017-02-20T11:03:53Z</time>
      </trkpt>
      <trkpt lat="42.70316" lon="1.35528">
        <ele>2302.49</ele>
        <time>2017-02-20T11:05:39Z</time>
      </trkpt>
      <trkpt lat="42.70306" lon="1.35475">
        <ele>2311.63</ele>
        <time>2017-02-20T11:07:24Z</time>
      </trkpt>
      <trkpt lat="42.70335" lon="1.35472">
        <ele>2317.4</ele>
        <time>2017-02-20T11:08:23Z</time>
      </trkpt>
      <trkpt lat="42.7033" lon="1.35459">
        <ele>2320.76</ele>
        <time>2017-02-20T11:08:48Z</time>
      </trkpt>
      <trkpt lat="42.70333" lon="1.35448">
        <ele>2322.68</ele>
        <time>2017-02-20T11:09:09Z</time>
      </trkpt>
      <trkpt lat="42.70347" lon="1.35448">
        <ele>2325.57</ele>
        <time>2017-02-20T11:09:42Z</time>
      </trkpt>
      <trkpt lat="42.70359" lon="1.35409">
        <ele>2339.99</ele>
        <time>2017-02-20T11:11:48Z</time>
      </trkpt>
      <trkpt lat="42.70363" lon="1.35405">
        <ele>2342.87</ele>
        <time>2017-02-20T11:12:16Z</time>
      </trkpt>
      <trkpt lat="42.7036" lon="1.35397">
        <ele>2343.83</ele>
        <time>2017-02-20T11:12:33Z</time>
      </trkpt>
      <trkpt lat="42.70369" lon="1.35392">
        <ele>2347.2</ele>
        <time>2017-02-20T11:13:04Z</time>
      </trkpt>
      <trkpt lat="42.70367" lon="1.35369">
        <ele>2352</ele>
        <time>2017-02-20T11:13:47Z</time>
      </trkpt>
      <trkpt lat="42.70351" lon="1.35367">
        <ele>2357.77</ele>
        <time>2017-02-20T11:14:40Z</time>
      </trkpt>
      <trkpt lat="42.70341" lon="1.35363">
        <ele>2361.14</ele>
        <time>2017-02-20T11:15:12Z</time>
      </trkpt>
      <trkpt lat="42.70332" lon="1.35356">
        <ele>2363.06</ele>
        <time>2017-02-20T11:15:40Z</time>
      </trkpt>
      <trkpt lat="42.70327" lon="1.35336">
        <ele>2369.31</ele>
        <time>2017-02-20T11:16:43Z</time>
      </trkpt>
      <trkpt lat="42.70322" lon="1.35327">
        <ele>2372.67</ele>
        <time>2017-02-20T11:17:18Z</time>
      </trkpt>
      <trkpt lat="42.70342" lon="1.35305">
        <ele>2387.09</ele>
        <time>2017-02-20T11:20:23Z</time>
      </trkpt>
      <trkpt lat="42.70332" lon="1.35294">
        <ele>2392.38</ele>
        <time>2017-02-20T11:21:26Z</time>
      </trkpt>
      <trkpt lat="42.70338" lon="1.35282">
        <ele>2398.15</ele>
        <time>2017-02-20T11:22:46Z</time>
      </trkpt>
      <trkpt lat="42.70303" lon="1.3525">
        <ele>2411.12</ele>
        <time>2017-02-20T11:25:06Z</time>
      </trkpt>
      <trkpt lat="42.70305" lon="1.35238">
        <ele>2417.37</ele>
        <time>2017-02-20T11:26:26Z</time>
      </trkpt>
      <trkpt lat="42.70298" lon="1.35222">
        <ele>2423.62</ele>
        <time>2017-02-20T11:27:29Z</time>
      </trkpt>
      <trkpt lat="42.70297" lon="1.35216">
        <ele>2427.95</ele>
        <time>2017-02-20T11:28:39Z</time>
      </trkpt>
      <trkpt lat="42.7029" lon="1.35208">
        <ele>2430.35</ele>
        <time>2017-02-20T11:29:08Z</time>
      </trkpt>
      <trkpt lat="42.70297" lon="1.35193">
        <ele>2435.64</ele>
        <time>2017-02-20T11:30:12Z</time>
      </trkpt>
      <trkpt lat="42.70285" lon="1.35183">
        <ele>2440.92</ele>
        <time>2017-02-20T11:31:25Z</time>
      </trkpt>
      <trkpt lat="42.70302" lon="1.35163">
        <ele>2449.1</ele>
        <time>2017-02-20T11:32:48Z</time>
      </trkpt>
      <trkpt lat="42.70284" lon="1.35145">
        <ele>2453.9</ele>
        <time>2017-02-20T11:33:53Z</time>
      </trkpt>
      <trkpt lat="42.70308" lon="1.35134">
        <ele>2462.55</ele>
        <time>2017-02-20T11:35:34Z</time>
      </trkpt>
      <trkpt lat="42.70305" lon="1.35098">
        <ele>2472.65</ele>
        <time>2017-02-20T11:37:33Z</time>
      </trkpt>
      <trkpt lat="42.70315" lon="1.35084">
        <ele>2475.05</ele>
        <time>2017-02-20T11:50:17Z</time>
      </trkpt>
      <trkpt lat="42.70318" lon="1.3507">
        <ele>2471.21</ele>
        <time>2017-02-20T11:53:30Z</time>
      </trkpt>
      <trkpt lat="42.70315" lon="1.3504">
        <ele>2464.48</ele>
        <time>2017-02-20T11:53:41Z</time>
      </trkpt>
      <trkpt lat="42.7031" lon="1.35027">
        <ele>2460.63</ele>
        <time>2017-02-20T11:53:44Z</time>
      </trkpt>
      <trkpt lat="42.70301" lon="1.34986">
        <ele>2450.06</ele>
        <time>2017-02-20T11:53:52Z</time>
      </trkpt>
      <trkpt lat="42.70298" lon="1.34974">
        <ele>2447.17</ele>
        <time>2017-02-20T11:53:54Z</time>
      </trkpt>
      <trkpt lat="42.70308" lon="1.34954">
        <ele>2457.75</ele>
        <time>2017-02-20T11:54:23Z</time>
      </trkpt>
      <trkpt lat="42.70339" lon="1.34895">
        <ele>2419.3</ele>
        <time>2017-02-20T11:55:41Z</time>
      </trkpt>
      <trkpt lat="42.70385" lon="1.34873">
        <ele>2401.51</ele>
        <time>2017-02-20T11:55:59Z</time>
      </trkpt>
      <trkpt lat="42.70398" lon="1.34862">
        <ele>2393.82</ele>
        <time>2017-02-20T11:56:03Z</time>
      </trkpt>
      <trkpt lat="42.70408" lon="1.34866">
        <ele>2393.82</ele>
        <time>2017-02-20T11:56:05Z</time>
      </trkpt>
      <trkpt lat="42.70426" lon="1.3484">
        <ele>2386.61</ele>
        <time>2017-02-20T11:56:14Z</time>
      </trkpt>
      <trkpt lat="42.70407" lon="1.34818">
        <ele>2382.28</ele>
        <time>2017-02-20T11:56:32Z</time>
      </trkpt>
      <trkpt lat="42.70407" lon="1.34817">
        <ele>2372.19</ele>
        <time>2017-02-20T11:56:41Z</time>
      </trkpt>
      <trkpt lat="42.70407" lon="1.34817">
        <ele>2382.76</ele>
        <time>2017-02-20T11:56:42Z</time>
      </trkpt>
      <trkpt lat="42.70407" lon="1.34817">
        <ele>2381.8</ele>
        <time>2017-02-20T11:56:49Z</time>
      </trkpt>
      <trkpt lat="42.70408" lon="1.34801">
        <ele>2377.48</ele>
        <time>2017-02-20T11:56:53Z</time>
      </trkpt>
      <trkpt lat="42.70405" lon="1.34787">
        <ele>2373.15</ele>
        <time>2017-02-20T11:56:56Z</time>
      </trkpt>
      <trkpt lat="42.70406" lon="1.34768">
        <ele>2365.94</ele>
        <time>2017-02-20T11:57:00Z</time>
      </trkpt>
      <trkpt lat="42.70408" lon="1.34736">
        <ele>2352</ele>
        <time>2017-02-20T11:57:06Z</time>
      </trkpt>
      <trkpt lat="42.7042" lon="1.34712">
        <ele>2341.43</ele>
        <time>2017-02-20T11:57:13Z</time>
      </trkpt>
      <trkpt lat="42.70444" lon="1.34715">
        <ele>2338.06</ele>
        <time>2017-02-20T11:57:48Z</time>
      </trkpt>
      <trkpt lat="42.7046" lon="1.34697">
        <ele>2326.53</ele>
        <time>2017-02-20T11:57:56Z</time>
      </trkpt>
      <trkpt lat="42.70455" lon="1.34678">
        <ele>2321.72</ele>
        <time>2017-02-20T11:58:01Z</time>
      </trkpt>
      <trkpt lat="42.70471" lon="1.3467">
        <ele>2315.95</ele>
        <time>2017-02-20T11:58:06Z</time>
      </trkpt>
      <trkpt lat="42.70468" lon="1.3465">
        <ele>2312.11</ele>
        <time>2017-02-20T11:58:10Z</time>
      </trkpt>
      <trkpt lat="42.70484" lon="1.34628">
        <ele>2303.46</ele>
        <time>2017-02-20T11:58:18Z</time>
      </trkpt>
      <trkpt lat="42.70476" lon="1.34606">
        <ele>2298.17</ele>
        <time>2017-02-20T11:58:23Z</time>
      </trkpt>
      <trkpt lat="42.7049" lon="1.34592">
        <ele>2290.48</ele>
        <time>2017-02-20T11:58:30Z</time>
      </trkpt>
      <trkpt lat="42.70483" lon="1.34585">
        <ele>2289.04</ele>
        <time>2017-02-20T11:58:42Z</time>
      </trkpt>
      <trkpt lat="42.70491" lon="1.34534">
        <ele>2276.54</ele>
        <time>2017-02-20T11:58:53Z</time>
      </trkpt>
      <trkpt lat="42.70488" lon="1.34516">
        <ele>2272.21</ele>
        <time>2017-02-20T11:59:00Z</time>
      </trkpt>
      <trkpt lat="42.70496" lon="1.34499">
        <ele>2266.45</ele>
        <time>2017-02-20T11:59:40Z</time>
      </trkpt>
      <trkpt lat="42.70506" lon="1.34505">
        <ele>2264.04</ele>
        <time>2017-02-20T11:59:58Z</time>
      </trkpt>
      <trkpt lat="42.70509" lon="1.34493">
        <ele>2258.27</ele>
        <time>2017-02-20T12:00:03Z</time>
      </trkpt>
      <trkpt lat="42.70521" lon="1.34489">
        <ele>2253.47</ele>
        <time>2017-02-20T12:00:09Z</time>
      </trkpt>
      <trkpt lat="42.70523" lon="1.34475">
        <ele>2244.33</ele>
        <time>2017-02-20T12:00:28Z</time>
      </trkpt>
      <trkpt lat="42.70529" lon="1.34476">
        <ele>2243.85</ele>
        <time>2017-02-20T12:00:31Z</time>
      </trkpt>
      <trkpt lat="42.7053" lon="1.34468">
        <ele>2239.53</ele>
        <time>2017-02-20T12:00:39Z</time>
      </trkpt>
      <trkpt lat="42.70547" lon="1.34465">
        <ele>2227.51</ele>
        <time>2017-02-20T12:00:54Z</time>
      </trkpt>
      <trkpt lat="42.70567" lon="1.3445">
        <ele>2209.73</ele>
        <time>2017-02-20T12:01:23Z</time>
      </trkpt>
      <trkpt lat="42.7058" lon="1.34452">
        <ele>2209.25</ele>
        <time>2017-02-20T12:01:30Z</time>
      </trkpt>
      <trkpt lat="42.70574" lon="1.34435">
        <ele>2203.48</ele>
        <time>2017-02-20T12:01:45Z</time>
      </trkpt>
      <trkpt lat="42.70583" lon="1.34423">
        <ele>2195.31</ele>
        <time>2017-02-20T12:01:56Z</time>
      </trkpt>
      <trkpt lat="42.70579" lon="1.34411">
        <ele>2190.98</ele>
        <time>2017-02-20T12:01:59Z</time>
      </trkpt>
      <trkpt lat="42.70582" lon="1.34409">
        <ele>2188.1</ele>
        <time>2017-02-20T12:02:00Z</time>
      </trkpt>
      <trkpt lat="42.70585" lon="1.34402">
        <ele>2184.73</ele>
        <time>2017-02-20T12:02:02Z</time>
      </trkpt>
      <trkpt lat="42.70555" lon="1.34346">
        <ele>2172.72</ele>
        <time>2017-02-20T12:02:28Z</time>
      </trkpt>
      <trkpt lat="42.70564" lon="1.34301">
        <ele>2148.68</ele>
        <time>2017-02-20T12:03:02Z</time>
      </trkpt>
      <trkpt lat="42.70556" lon="1.34263">
        <ele>2135.71</ele>
        <time>2017-02-20T12:03:07Z</time>
      </trkpt>
      <trkpt lat="42.70554" lon="1.34249">
        <ele>2129.94</ele>
        <time>2017-02-20T12:03:10Z</time>
      </trkpt>
      <trkpt lat="42.70554" lon="1.34234">
        <ele>2122.73</ele>
        <time>2017-02-20T12:03:12Z</time>
      </trkpt>
      <trkpt lat="42.70559" lon="1.34236">
        <ele>2119.36</ele>
        <time>2017-02-20T12:03:13Z</time>
      </trkpt>
      <trkpt lat="42.70596" lon="1.34248">
        <ele>2142.92</ele>
        <time>2017-02-20T12:03:42Z</time>
      </trkpt>
      <trkpt lat="42.70596" lon="1.34243">
        <ele>2115.52</ele>
        <time>2017-02-20T12:04:16Z</time>
      </trkpt>
      <trkpt lat="42.70576" lon="1.34217">
        <ele>2108.79</ele>
        <time>2017-02-20T12:04:22Z</time>
      </trkpt>
      <trkpt lat="42.70573" lon="1.34188">
        <ele>2098.21</ele>
        <time>2017-02-20T12:04:27Z</time>
      </trkpt>
      <trkpt lat="42.70522" lon="1.3412">
        <ele>2089.08</ele>
        <time>2017-02-20T12:04:42Z</time>
      </trkpt>
      <trkpt lat="42.70522" lon="1.3412">
        <ele>2088.6</ele>
        <time>2017-02-20T12:04:54Z</time>
      </trkpt>
      <trkpt lat="42.70522" lon="1.3412">
        <ele>2093.89</ele>
        <time>2017-02-20T12:04:59Z</time>
      </trkpt>
      <trkpt lat="42.70501" lon="1.34124">
        <ele>2084.76</ele>
        <time>2017-02-20T12:05:25Z</time>
      </trkpt>
      <trkpt lat="42.70501" lon="1.34074">
        <ele>2064.09</ele>
        <time>2017-02-20T12:05:38Z</time>
      </trkpt>
      <trkpt lat="42.7049" lon="1.34073">
        <ele>2062.65</ele>
        <time>2017-02-20T12:05:40Z</time>
      </trkpt>
      <trkpt lat="42.70482" lon="1.3406">
        <ele>2057.84</ele>
        <time>2017-02-20T12:05:43Z</time>
      </trkpt>
      <trkpt lat="42.70475" lon="1.34032">
        <ele>2050.15</ele>
        <time>2017-02-20T12:05:46Z</time>
      </trkpt>
      <trkpt lat="42.70435" lon="1.33959">
        <ele>2052.07</ele>
        <time>2017-02-20T12:06:25Z</time>
      </trkpt>
      <trkpt lat="42.70353" lon="1.33885">
        <ele>2032.84</ele>
        <time>2017-02-20T12:07:37Z</time>
      </trkpt>
      <trkpt lat="42.70353" lon="1.33842">
        <ele>2025.64</ele>
        <time>2017-02-20T12:07:44Z</time>
      </trkpt>
      <trkpt lat="42.70345" lon="1.33836">
        <ele>2025.15</ele>
        <time>2017-02-20T12:07:45Z</time>
      </trkpt>
      <trkpt lat="42.70334" lon="1.33806">
        <ele>2015.54</ele>
        <time>2017-02-20T12:07:51Z</time>
      </trkpt>
      <trkpt lat="42.70321" lon="1.33781">
        <ele>2007.85</ele>
        <time>2017-02-20T12:07:53Z</time>
      </trkpt>
      <trkpt lat="42.703" lon="1.33736">
        <ele>2004.97</ele>
        <time>2017-02-20T12:07:57Z</time>
      </trkpt>
      <trkpt lat="42.70184" lon="1.33675">
        <ele>2028.52</ele>
        <time>2017-02-20T12:12:17Z</time>
      </trkpt>
      <trkpt lat="42.70159" lon="1.33666">
        <ele>2012.18</ele>
        <time>2017-02-20T12:36:40Z</time>
      </trkpt>
      <trkpt lat="42.70046" lon="1.33451">
        <ele>2011.22</ele>
        <time>2017-02-20T12:40:21Z</time>
      </trkpt>
      <trkpt lat="42.70032" lon="1.33413">
        <ele>2009.77</ele>
        <time>2017-02-20T12:40:56Z</time>
      </trkpt>
      <trkpt lat="42.70028" lon="1.33401">
        <ele>2012.18</ele>
        <time>2017-02-20T12:41:13Z</time>
      </trkpt>
      <trkpt lat="42.7004" lon="1.33371">
        <ele>2015.06</ele>
        <time>2017-02-20T12:41:56Z</time>
      </trkpt>
      <trkpt lat="42.7003" lon="1.33283">
        <ele>2020.35</ele>
        <time>2017-02-20T12:43:44Z</time>
      </trkpt>
      <trkpt lat="42.70033" lon="1.33204">
        <ele>2030.92</ele>
        <time>2017-02-20T12:45:52Z</time>
      </trkpt>
      <trkpt lat="42.70032" lon="1.33193">
        <ele>2031.88</ele>
        <time>2017-02-20T12:46:06Z</time>
      </trkpt>
      <trkpt lat="42.70032" lon="1.33119">
        <ele>2034.29</ele>
        <time>2017-02-20T12:47:36Z</time>
      </trkpt>
      <trkpt lat="42.70068" lon="1.33013">
        <ele>2044.86</ele>
        <time>2017-02-20T12:50:22Z</time>
      </trkpt>
      <trkpt lat="42.7009" lon="1.32993">
        <ele>2053.99</ele>
        <time>2017-02-20T12:51:48Z</time>
      </trkpt>
      <trkpt lat="42.70114" lon="1.32962">
        <ele>2058.8</ele>
        <time>2017-02-20T12:52:48Z</time>
      </trkpt>
      <trkpt lat="42.70153" lon="1.32888">
        <ele>2063.61</ele>
        <time>2017-02-20T12:54:32Z</time>
      </trkpt>
      <trkpt lat="42.70205" lon="1.32687">
        <ele>2097.25</ele>
        <time>2017-02-20T13:00:48Z</time>
      </trkpt>
      <trkpt lat="42.70246" lon="1.3255">
        <ele>2112.15</ele>
        <time>2017-02-20T13:04:24Z</time>
      </trkpt>
      <trkpt lat="42.70317" lon="1.32314">
        <ele>2109.75</ele>
        <time>2017-02-20T13:09:38Z</time>
      </trkpt>
      <trkpt lat="42.70321" lon="1.32294">
        <ele>2110.23</ele>
        <time>2017-02-20T13:09:54Z</time>
      </trkpt>
      <trkpt lat="42.70333" lon="1.32226">
        <ele>2110.23</ele>
        <time>2017-02-20T13:11:00Z</time>
      </trkpt>
      <trkpt lat="42.70311" lon="1.32211">
        <ele>2116</ele>
        <time>2017-02-20T13:12:02Z</time>
      </trkpt>
      <trkpt lat="42.70319" lon="1.32183">
        <ele>2124.17</ele>
        <time>2017-02-20T13:13:35Z</time>
      </trkpt>
      <trkpt lat="42.70314" lon="1.32165">
        <ele>2128.02</ele>
        <time>2017-02-20T13:14:17Z</time>
      </trkpt>
      <trkpt lat="42.70283" lon="1.32178">
        <ele>2140.51</ele>
        <time>2017-02-20T13:17:01Z</time>
      </trkpt>
      <trkpt lat="42.70281" lon="1.32135">
        <ele>2147.72</ele>
        <time>2017-02-20T13:18:36Z</time>
      </trkpt>
      <trkpt lat="42.70254" lon="1.32162">
        <ele>2157.34</ele>
        <time>2017-02-20T13:20:58Z</time>
      </trkpt>
      <trkpt lat="42.70252" lon="1.32151">
        <ele>2160.22</ele>
        <time>2017-02-20T13:21:33Z</time>
      </trkpt>
      <trkpt lat="42.70254" lon="1.3211">
        <ele>2165.51</ele>
        <time>2017-02-20T13:22:57Z</time>
      </trkpt>
      <trkpt lat="42.70238" lon="1.32108">
        <ele>2172.72</ele>
        <time>2017-02-20T13:24:22Z</time>
      </trkpt>
      <trkpt lat="42.70238" lon="1.32087">
        <ele>2178</ele>
        <time>2017-02-20T13:25:26Z</time>
      </trkpt>
      <trkpt lat="42.70232" lon="1.32085">
        <ele>2178.97</ele>
        <time>2017-02-20T13:25:45Z</time>
      </trkpt>
      <trkpt lat="42.70206" lon="1.32068">
        <ele>2193.39</ele>
        <time>2017-02-20T13:28:25Z</time>
      </trkpt>
      <trkpt lat="42.70202" lon="1.32054">
        <ele>2196.75</ele>
        <time>2017-02-20T13:29:07Z</time>
      </trkpt>
      <trkpt lat="42.70195" lon="1.32038">
        <ele>2202.52</ele>
        <time>2017-02-20T13:30:20Z</time>
      </trkpt>
      <trkpt lat="42.70179" lon="1.32018">
        <ele>2208.77</ele>
        <time>2017-02-20T13:31:13Z</time>
      </trkpt>
      <trkpt lat="42.70167" lon="1.31971">
        <ele>2213.57</ele>
        <time>2017-02-20T13:32:36Z</time>
      </trkpt>
      <trkpt lat="42.70165" lon="1.31912">
        <ele>2214.05</ele>
        <time>2017-02-20T13:42:20Z</time>
      </trkpt>
      <trkpt lat="42.70182" lon="1.31882">
        <ele>2206.84</ele>
        <time>2017-02-20T13:42:36Z</time>
      </trkpt>
      <trkpt lat="42.70187" lon="1.31868">
        <ele>2200.59</ele>
        <time>2017-02-20T13:43:05Z</time>
      </trkpt>
      <trkpt lat="42.702" lon="1.31838">
        <ele>2173.2</ele>
        <time>2017-02-20T13:46:21Z</time>
      </trkpt>
      <trkpt lat="42.70204" lon="1.3184">
        <ele>2173.2</ele>
        <time>2017-02-20T13:46:41Z</time>
      </trkpt>
      <trkpt lat="42.70206" lon="1.31836">
        <ele>2170.79</ele>
        <time>2017-02-20T13:46:45Z</time>
      </trkpt>
      <trkpt lat="42.70214" lon="1.31817">
        <ele>2159.26</ele>
        <time>2017-02-20T13:47:18Z</time>
      </trkpt>
      <trkpt lat="42.70224" lon="1.31797">
        <ele>2150.61</ele>
        <time>2017-02-20T13:47:25Z</time>
      </trkpt>
      <trkpt lat="42.7024" lon="1.31777">
        <ele>2144.36</ele>
        <time>2017-02-20T13:47:30Z</time>
      </trkpt>
      <trkpt lat="42.70248" lon="1.31752">
        <ele>2141.47</ele>
        <time>2017-02-20T13:47:34Z</time>
      </trkpt>
      <trkpt lat="42.70273" lon="1.31657">
        <ele>2130.42</ele>
        <time>2017-02-20T13:48:15Z</time>
      </trkpt>
      <trkpt lat="42.70276" lon="1.31637">
        <ele>2126.09</ele>
        <time>2017-02-20T13:48:39Z</time>
      </trkpt>
      <trkpt lat="42.70279" lon="1.31584">
        <ele>2115.52</ele>
        <time>2017-02-20T13:48:46Z</time>
      </trkpt>
      <trkpt lat="42.70312" lon="1.31575">
        <ele>2120.81</ele>
        <time>2017-02-20T14:28:11Z</time>
      </trkpt>
      <trkpt lat="42.70313" lon="1.31574">
        <ele>2123.21</ele>
        <time>2017-02-20T14:28:28Z</time>
      </trkpt>
      <trkpt lat="42.70316" lon="1.31559">
        <ele>2126.09</ele>
        <time>2017-02-20T14:29:05Z</time>
      </trkpt>
      <trkpt lat="42.70333" lon="1.31535">
        <ele>2133.3</ele>
        <time>2017-02-20T14:30:07Z</time>
      </trkpt>
      <trkpt lat="42.70346" lon="1.31551">
        <ele>2140.51</ele>
        <time>2017-02-20T14:32:02Z</time>
      </trkpt>
      <trkpt lat="42.70364" lon="1.31518">
        <ele>2149.16</ele>
        <time>2017-02-20T14:33:39Z</time>
      </trkpt>
      <trkpt lat="42.70386" lon="1.31497">
        <ele>2154.45</ele>
        <time>2017-02-20T14:34:53Z</time>
      </trkpt>
      <trkpt lat="42.70404" lon="1.31452">
        <ele>2159.74</ele>
        <time>2017-02-20T14:36:07Z</time>
      </trkpt>
      <trkpt lat="42.70413" lon="1.3135">
        <ele>2174.16</ele>
        <time>2017-02-20T14:38:55Z</time>
      </trkpt>
      <trkpt lat="42.7038" lon="1.31238">
        <ele>2190.02</ele>
        <time>2017-02-20T14:42:13Z</time>
      </trkpt>
      <trkpt lat="42.70377" lon="1.31214">
        <ele>2194.35</ele>
        <time>2017-02-20T14:43:34Z</time>
      </trkpt>
      <trkpt lat="42.70389" lon="1.31102">
        <ele>2195.79</ele>
        <time>2017-02-20T14:45:45Z</time>
      </trkpt>
      <trkpt lat="42.70388" lon="1.30985">
        <ele>2195.31</ele>
        <time>2017-02-20T14:47:58Z</time>
      </trkpt>
      <trkpt lat="42.7039" lon="1.30982">
        <ele>2193.39</ele>
        <time>2017-02-20T14:48:14Z</time>
      </trkpt>
      <trkpt lat="42.7037" lon="1.30873">
        <ele>2199.63</ele>
        <time>2017-02-20T14:56:26Z</time>
      </trkpt>
      <trkpt lat="42.70389" lon="1.30658">
        <ele>2231.84</ele>
        <time>2017-02-20T15:04:10Z</time>
      </trkpt>
      <trkpt lat="42.70386" lon="1.30683">
        <ele>2230.4</ele>
        <time>2017-02-20T15:05:16Z</time>
      </trkpt>
      <trkpt lat="42.70382" lon="1.30638">
        <ele>2231.84</ele>
        <time>2017-02-20T15:06:09Z</time>
      </trkpt>
      <trkpt lat="42.70382" lon="1.30635">
        <ele>2230.88</ele>
        <time>2017-02-20T15:06:11Z</time>
      </trkpt>
    </trkseg>
  </trk>
  <trk>
    <name><![CDATA[TPS3_J2 21 FEV 2017 09:06]]></name>
    <trkseg>
      <trkpt lat="42.70394" lon="1.30676">
        <ele>2181.37</ele>
        <time>2017-02-21T08:06:52Z</time>
      </trkpt>
      <trkpt lat="42.70388" lon="1.30662">
        <ele>2235.68</ele>
        <time>2017-02-21T08:12:53Z</time>
      </trkpt>
      <trkpt lat="42.70383" lon="1.30659">
        <ele>2230.88</ele>
        <time>2017-02-21T08:15:15Z</time>
      </trkpt>
      <trkpt lat="42.70379" lon="1.30636">
        <ele>2228.95</ele>
        <time>2017-02-21T08:18:49Z</time>
      </trkpt>
      <trkpt lat="42.70386" lon="1.30619">
        <ele>2228.47</ele>
        <time>2017-02-21T08:19:07Z</time>
      </trkpt>
      <trkpt lat="42.704" lon="1.30568">
        <ele>2240.49</ele>
        <time>2017-02-21T08:20:17Z</time>
      </trkpt>
      <trkpt lat="42.70403" lon="1.30556">
        <ele>2239.53</ele>
        <time>2017-02-21T08:20:39Z</time>
      </trkpt>
      <trkpt lat="42.70432" lon="1.30499">
        <ele>2244.82</ele>
        <time>2017-02-21T08:21:45Z</time>
      </trkpt>
      <trkpt lat="42.70436" lon="1.30492">
        <ele>2236.64</ele>
        <time>2017-02-21T08:21:51Z</time>
      </trkpt>
      <trkpt lat="42.70436" lon="1.30469">
        <ele>2240.01</ele>
        <time>2017-02-21T08:22:04Z</time>
      </trkpt>
      <trkpt lat="42.70441" lon="1.30434">
        <ele>2227.99</ele>
        <time>2017-02-21T08:22:36Z</time>
      </trkpt>
      <trkpt lat="42.70548" lon="1.30157">
        <ele>2240.97</ele>
        <time>2017-02-21T08:28:21Z</time>
      </trkpt>
      <trkpt lat="42.70574" lon="1.30122">
        <ele>2249.62</ele>
        <time>2017-02-21T08:29:39Z</time>
      </trkpt>
      <trkpt lat="42.70582" lon="1.30075">
        <ele>2261.16</ele>
        <time>2017-02-21T08:31:07Z</time>
      </trkpt>
      <trkpt lat="42.70607" lon="1.30013">
        <ele>2268.37</ele>
        <time>2017-02-21T08:32:46Z</time>
      </trkpt>
      <trkpt lat="42.70612" lon="1.29998">
        <ele>2267.41</ele>
        <time>2017-02-21T08:33:32Z</time>
      </trkpt>
      <trkpt lat="42.70634" lon="1.29827">
        <ele>2272.21</ele>
        <time>2017-02-21T08:36:25Z</time>
      </trkpt>
      <trkpt lat="42.70641" lon="1.29702">
        <ele>2267.89</ele>
        <time>2017-02-21T08:38:02Z</time>
      </trkpt>
      <trkpt lat="42.70654" lon="1.29631">
        <ele>2260.2</ele>
        <time>2017-02-21T08:38:34Z</time>
      </trkpt>
      <trkpt lat="42.70649" lon="1.29554">
        <ele>2270.77</ele>
        <time>2017-02-21T08:40:44Z</time>
      </trkpt>
      <trkpt lat="42.70654" lon="1.2943">
        <ele>2281.35</ele>
        <time>2017-02-21T08:42:45Z</time>
      </trkpt>
      <trkpt lat="42.70608" lon="1.29036">
        <ele>2319.8</ele>
        <time>2017-02-21T08:51:17Z</time>
      </trkpt>
      <trkpt lat="42.70558" lon="1.28952">
        <ele>2337.1</ele>
        <time>2017-02-21T08:54:06Z</time>
      </trkpt>
      <trkpt lat="42.70533" lon="1.2885">
        <ele>2359.21</ele>
        <time>2017-02-21T08:57:36Z</time>
      </trkpt>
      <trkpt lat="42.705" lon="1.28836">
        <ele>2373.15</ele>
        <time>2017-02-21T09:00:35Z</time>
      </trkpt>
      <trkpt lat="42.70454" lon="1.28684">
        <ele>2399.59</ele>
        <time>2017-02-21T09:05:07Z</time>
      </trkpt>
      <trkpt lat="42.7043" lon="1.28653">
        <ele>2406.32</ele>
        <time>2017-02-21T09:06:31Z</time>
      </trkpt>
      <trkpt lat="42.70426" lon="1.28648">
        <ele>2407.28</ele>
        <time>2017-02-21T09:06:46Z</time>
      </trkpt>
      <trkpt lat="42.70427" lon="1.28648">
        <ele>2412.09</ele>
        <time>2017-02-21T09:07:21Z</time>
      </trkpt>
      <trkpt lat="42.70431" lon="1.28649">
        <ele>2411.12</ele>
        <time>2017-02-21T09:07:37Z</time>
      </trkpt>
      <trkpt lat="42.70433" lon="1.28649">
        <ele>2414.49</ele>
        <time>2017-02-21T09:07:57Z</time>
      </trkpt>
      <trkpt lat="42.70437" lon="1.28647">
        <ele>2418.33</ele>
        <time>2017-02-21T09:08:23Z</time>
      </trkpt>
      <trkpt lat="42.7045" lon="1.28644">
        <ele>2419.78</ele>
        <time>2017-02-21T09:08:38Z</time>
      </trkpt>
      <trkpt lat="42.70464" lon="1.28641">
        <ele>2420.26</ele>
        <time>2017-02-21T09:09:01Z</time>
      </trkpt>
      <trkpt lat="42.70446" lon="1.28605">
        <ele>2430.35</ele>
        <time>2017-02-21T09:10:22Z</time>
      </trkpt>
      <trkpt lat="42.70456" lon="1.28602">
        <ele>2439</ele>
        <time>2017-02-21T09:11:11Z</time>
      </trkpt>
      <trkpt lat="42.70456" lon="1.28602">
        <ele>2434.68</ele>
        <time>2017-02-21T09:11:13Z</time>
      </trkpt>
      <trkpt lat="42.70465" lon="1.28589">
        <ele>2440.92</ele>
        <time>2017-02-21T09:12:03Z</time>
      </trkpt>
      <trkpt lat="42.70505" lon="1.28567">
        <ele>2449.1</ele>
        <time>2017-02-21T09:13:32Z</time>
      </trkpt>
      <trkpt lat="42.70509" lon="1.28521">
        <ele>2466.88</ele>
        <time>2017-02-21T09:14:55Z</time>
      </trkpt>
      <trkpt lat="42.70512" lon="1.28494">
        <ele>2463.04</ele>
        <time>2017-02-21T09:15:40Z</time>
      </trkpt>
      <trkpt lat="42.70531" lon="1.28428">
        <ele>2477.45</ele>
        <time>2017-02-21T09:18:08Z</time>
      </trkpt>
      <trkpt lat="42.70526" lon="1.2842">
        <ele>2478.9</ele>
        <time>2017-02-21T09:18:26Z</time>
      </trkpt>
      <trkpt lat="42.70536" lon="1.28423">
        <ele>2485.63</ele>
        <time>2017-02-21T09:19:15Z</time>
      </trkpt>
      <trkpt lat="42.70542" lon="1.28426">
        <ele>2486.11</ele>
        <time>2017-02-21T09:19:29Z</time>
      </trkpt>
      <trkpt lat="42.70549" lon="1.28427">
        <ele>2487.55</ele>
        <time>2017-02-21T09:19:40Z</time>
      </trkpt>
      <trkpt lat="42.7055" lon="1.28386">
        <ele>2497.64</ele>
        <time>2017-02-21T09:20:59Z</time>
      </trkpt>
      <trkpt lat="42.70561" lon="1.2838">
        <ele>2503.89</ele>
        <time>2017-02-21T09:21:58Z</time>
      </trkpt>
      <trkpt lat="42.70555" lon="1.28349">
        <ele>2507.74</ele>
        <time>2017-02-21T09:22:46Z</time>
      </trkpt>
      <trkpt lat="42.70566" lon="1.28349">
        <ele>2513.5</ele>
        <time>2017-02-21T09:23:24Z</time>
      </trkpt>
      <trkpt lat="42.70576" lon="1.2835">
        <ele>2512.54</ele>
        <time>2017-02-21T09:23:42Z</time>
      </trkpt>
      <trkpt lat="42.7056" lon="1.28326">
        <ele>2514.95</ele>
        <time>2017-02-21T09:24:30Z</time>
      </trkpt>
      <trkpt lat="42.7056" lon="1.28326">
        <ele>2517.35</ele>
        <time>2017-02-21T09:24:46Z</time>
      </trkpt>
      <trkpt lat="42.7056" lon="1.28325">
        <ele>2519.27</ele>
        <time>2017-02-21T09:25:03Z</time>
      </trkpt>
      <trkpt lat="42.70563" lon="1.28321">
        <ele>2522.64</ele>
        <time>2017-02-21T09:25:18Z</time>
      </trkpt>
      <trkpt lat="42.70569" lon="1.2832">
        <ele>2524.08</ele>
        <time>2017-02-21T09:25:32Z</time>
      </trkpt>
      <trkpt lat="42.70576" lon="1.28323">
        <ele>2524.08</ele>
        <time>2017-02-21T09:25:49Z</time>
      </trkpt>
      <trkpt lat="42.70576" lon="1.28317">
        <ele>2527.44</ele>
        <time>2017-02-21T09:26:13Z</time>
      </trkpt>
      <trkpt lat="42.70565" lon="1.28297">
        <ele>2530.81</ele>
        <time>2017-02-21T09:27:02Z</time>
      </trkpt>
      <trkpt lat="42.70598" lon="1.2829">
        <ele>2540.9</ele>
        <time>2017-02-21T09:28:31Z</time>
      </trkpt>
      <trkpt lat="42.70568" lon="1.28245">
        <ele>2554.36</ele>
        <time>2017-02-21T09:30:26Z</time>
      </trkpt>
      <trkpt lat="42.7058" lon="1.28229">
        <ele>2561.57</ele>
        <time>2017-02-21T09:31:38Z</time>
      </trkpt>
      <trkpt lat="42.70575" lon="1.28205">
        <ele>2570.22</ele>
        <time>2017-02-21T09:33:07Z</time>
      </trkpt>
      <trkpt lat="42.70587" lon="1.28149">
        <ele>2581.76</ele>
        <time>2017-02-21T09:35:03Z</time>
      </trkpt>
      <trkpt lat="42.70598" lon="1.28119">
        <ele>2584.64</ele>
        <time>2017-02-21T09:36:14Z</time>
      </trkpt>
      <trkpt lat="42.70596" lon="1.28119">
        <ele>2585.6</ele>
        <time>2017-02-21T09:39:00Z</time>
      </trkpt>
      <trkpt lat="42.70589" lon="1.28123">
        <ele>2574.07</ele>
        <time>2017-02-21T10:41:35Z</time>
      </trkpt>
      <trkpt lat="42.70598" lon="1.28117">
        <ele>2590.89</ele>
        <time>2017-02-21T10:51:34Z</time>
      </trkpt>
      <trkpt lat="42.70609" lon="1.28086">
        <ele>2587.04</ele>
        <time>2017-02-21T10:51:46Z</time>
      </trkpt>
      <trkpt lat="42.70627" lon="1.28035">
        <ele>2581.76</ele>
        <time>2017-02-21T10:51:56Z</time>
      </trkpt>
      <trkpt lat="42.7062" lon="1.2801">
        <ele>2575.51</ele>
        <time>2017-02-21T10:52:04Z</time>
      </trkpt>
      <trkpt lat="42.7061" lon="1.27993">
        <ele>2569.26</ele>
        <time>2017-02-21T10:52:13Z</time>
      </trkpt>
      <trkpt lat="42.70606" lon="1.27991">
        <ele>2565.42</ele>
        <time>2017-02-21T10:52:15Z</time>
      </trkpt>
      <trkpt lat="42.70598" lon="1.27988">
        <ele>2562.05</ele>
        <time>2017-02-21T10:52:18Z</time>
      </trkpt>
      <trkpt lat="42.70588" lon="1.27976">
        <ele>2555.32</ele>
        <time>2017-02-21T10:52:22Z</time>
      </trkpt>
      <trkpt lat="42.70585" lon="1.27887">
        <ele>2539.46</ele>
        <time>2017-02-21T10:52:37Z</time>
      </trkpt>
      <trkpt lat="42.70584" lon="1.27853">
        <ele>2533.69</ele>
        <time>2017-02-21T10:52:42Z</time>
      </trkpt>
      <trkpt lat="42.70588" lon="1.27816">
        <ele>2522.64</ele>
        <time>2017-02-21T10:52:46Z</time>
      </trkpt>
      <trkpt lat="42.70602" lon="1.27682">
        <ele>2510.62</ele>
        <time>2017-02-21T10:52:58Z</time>
      </trkpt>
      <trkpt lat="42.70592" lon="1.27618">
        <ele>2512.06</ele>
        <time>2017-02-21T10:53:18Z</time>
      </trkpt>
      <trkpt lat="42.70572" lon="1.27584">
        <ele>2491.39</ele>
        <time>2017-02-21T10:55:30Z</time>
      </trkpt>
      <trkpt lat="42.70602" lon="1.27538">
        <ele>2480.34</ele>
        <time>2017-02-21T10:56:20Z</time>
      </trkpt>
      <trkpt lat="42.706" lon="1.27521">
        <ele>2475.05</ele>
        <time>2017-02-21T10:56:23Z</time>
      </trkpt>
      <trkpt lat="42.7061" lon="1.2751">
        <ele>2471.21</ele>
        <time>2017-02-21T10:56:30Z</time>
      </trkpt>
      <trkpt lat="42.70588" lon="1.27463">
        <ele>2461.11</ele>
        <time>2017-02-21T10:56:53Z</time>
      </trkpt>
      <trkpt lat="42.70591" lon="1.27352">
        <ele>2449.1</ele>
        <time>2017-02-21T10:57:12Z</time>
      </trkpt>
      <trkpt lat="42.70591" lon="1.27335">
        <ele>2445.73</ele>
        <time>2017-02-21T10:57:14Z</time>
      </trkpt>
      <trkpt lat="42.70629" lon="1.27133">
        <ele>2434.2</ele>
        <time>2017-02-21T10:57:50Z</time>
      </trkpt>
      <trkpt lat="42.70627" lon="1.27015">
        <ele>2421.7</ele>
        <time>2017-02-21T10:59:43Z</time>
      </trkpt>
      <trkpt lat="42.70633" lon="1.26995">
        <ele>2411.6</ele>
        <time>2017-02-21T10:59:48Z</time>
      </trkpt>
      <trkpt lat="42.70644" lon="1.26934">
        <ele>2415.93</ele>
        <time>2017-02-21T11:00:04Z</time>
      </trkpt>
      <trkpt lat="42.70672" lon="1.26882">
        <ele>2393.34</ele>
        <time>2017-02-21T11:00:24Z</time>
      </trkpt>
      <trkpt lat="42.70642" lon="1.2662">
        <ele>2385.65</ele>
        <time>2017-02-21T11:01:44Z</time>
      </trkpt>
      <trkpt lat="42.70634" lon="1.26606">
        <ele>2369.31</ele>
        <time>2017-02-21T11:02:32Z</time>
      </trkpt>
      <trkpt lat="42.70639" lon="1.2658">
        <ele>2359.21</ele>
        <time>2017-02-21T11:03:18Z</time>
      </trkpt>
      <trkpt lat="42.70624" lon="1.26518">
        <ele>2348.64</ele>
        <time>2017-02-21T11:03:31Z</time>
      </trkpt>
      <trkpt lat="42.70612" lon="1.26525">
        <ele>2347.2</ele>
        <time>2017-02-21T11:03:35Z</time>
      </trkpt>
      <trkpt lat="42.70603" lon="1.2653">
        <ele>2342.87</ele>
        <time>2017-02-21T11:03:52Z</time>
      </trkpt>
      <trkpt lat="42.70586" lon="1.265">
        <ele>2332.78</ele>
        <time>2017-02-21T11:03:57Z</time>
      </trkpt>
      <trkpt lat="42.70563" lon="1.2646">
        <ele>2329.41</ele>
        <time>2017-02-21T11:04:08Z</time>
      </trkpt>
      <trkpt lat="42.70528" lon="1.26484">
        <ele>2311.15</ele>
        <time>2017-02-21T11:04:15Z</time>
      </trkpt>
      <trkpt lat="42.70469" lon="1.26519">
        <ele>2310.67</ele>
        <time>2017-02-21T11:04:30Z</time>
      </trkpt>
      <trkpt lat="42.70421" lon="1.26494">
        <ele>2301.53</ele>
        <time>2017-02-21T11:04:55Z</time>
      </trkpt>
      <trkpt lat="42.70401" lon="1.26462">
        <ele>2307.3</ele>
        <time>2017-02-21T11:05:41Z</time>
      </trkpt>
      <trkpt lat="42.70357" lon="1.26364">
        <ele>2278.94</ele>
        <time>2017-02-21T11:07:00Z</time>
      </trkpt>
      <trkpt lat="42.70348" lon="1.26354">
        <ele>2272.21</ele>
        <time>2017-02-21T11:07:02Z</time>
      </trkpt>
      <trkpt lat="42.70325" lon="1.26327">
        <ele>2263.08</ele>
        <time>2017-02-21T11:07:08Z</time>
      </trkpt>
      <trkpt lat="42.70294" lon="1.26389">
        <ele>2250.1</ele>
        <time>2017-02-21T11:07:24Z</time>
      </trkpt>
      <trkpt lat="42.70274" lon="1.26381">
        <ele>2239.53</ele>
        <time>2017-02-21T11:07:42Z</time>
      </trkpt>
      <trkpt lat="42.70254" lon="1.26384">
        <ele>2233.76</ele>
        <time>2017-02-21T11:08:12Z</time>
      </trkpt>
      <trkpt lat="42.70309" lon="1.26146">
        <ele>2177.52</ele>
        <time>2017-02-21T11:10:30Z</time>
      </trkpt>
      <trkpt lat="42.70298" lon="1.26109">
        <ele>2178</ele>
        <time>2017-02-21T11:10:37Z</time>
      </trkpt>
      <trkpt lat="42.70286" lon="1.26074">
        <ele>2173.68</ele>
        <time>2017-02-21T11:10:50Z</time>
      </trkpt>
      <trkpt lat="42.70283" lon="1.26033">
        <ele>2169.83</ele>
        <time>2017-02-21T11:10:58Z</time>
      </trkpt>
      <trkpt lat="42.70273" lon="1.25999">
        <ele>2166.47</ele>
        <time>2017-02-21T11:11:04Z</time>
      </trkpt>
      <trkpt lat="42.70245" lon="1.25986">
        <ele>2169.35</ele>
        <time>2017-02-21T11:20:10Z</time>
      </trkpt>
      <trkpt lat="42.70246" lon="1.25985">
        <ele>2174.16</ele>
        <time>2017-02-21T11:21:00Z</time>
      </trkpt>
      <trkpt lat="42.70252" lon="1.25984">
        <ele>2177.52</ele>
        <time>2017-02-21T11:21:34Z</time>
      </trkpt>
      <trkpt lat="42.70254" lon="1.25983">
        <ele>2178.97</ele>
        <time>2017-02-21T11:21:48Z</time>
      </trkpt>
      <trkpt lat="42.70256" lon="1.25976">
        <ele>2179.93</ele>
        <time>2017-02-21T11:22:03Z</time>
      </trkpt>
      <trkpt lat="42.70256" lon="1.25947">
        <ele>2193.87</ele>
        <time>2017-02-21T11:24:35Z</time>
      </trkpt>
      <trkpt lat="42.70251" lon="1.2592">
        <ele>2200.59</ele>
        <time>2017-02-21T11:25:54Z</time>
      </trkpt>
      <trkpt lat="42.70244" lon="1.25895">
        <ele>2207.32</ele>
        <time>2017-02-21T11:27:05Z</time>
      </trkpt>
      <trkpt lat="42.70245" lon="1.25863">
        <ele>2213.09</ele>
        <time>2017-02-21T11:28:06Z</time>
      </trkpt>
      <trkpt lat="42.70243" lon="1.25834">
        <ele>2215.5</ele>
        <time>2017-02-21T11:28:36Z</time>
      </trkpt>
      <trkpt lat="42.70252" lon="1.25637">
        <ele>2249.14</ele>
        <time>2017-02-21T11:34:08Z</time>
      </trkpt>
      <trkpt lat="42.70245" lon="1.25629">
        <ele>2247.22</ele>
        <time>2017-02-21T11:49:32Z</time>
      </trkpt>
      <trkpt lat="42.7025" lon="1.25623">
        <ele>2254.43</ele>
        <time>2017-02-21T12:01:53Z</time>
      </trkpt>
      <trkpt lat="42.70251" lon="1.25629">
        <ele>2246.26</ele>
        <time>2017-02-21T12:02:11Z</time>
      </trkpt>
      <trkpt lat="42.70258" lon="1.25645">
        <ele>2241.93</ele>
        <time>2017-02-21T12:02:16Z</time>
      </trkpt>
      <trkpt lat="42.70274" lon="1.25659">
        <ele>2241.93</ele>
        <time>2017-02-21T12:02:29Z</time>
      </trkpt>
      <trkpt lat="42.70288" lon="1.2562">
        <ele>2235.2</ele>
        <time>2017-02-21T12:02:51Z</time>
      </trkpt>
      <trkpt lat="42.70304" lon="1.2561">
        <ele>2231.36</ele>
        <time>2017-02-21T12:03:00Z</time>
      </trkpt>
      <trkpt lat="42.70395" lon="1.25616">
        <ele>2227.03</ele>
        <time>2017-02-21T12:04:53Z</time>
      </trkpt>
      <trkpt lat="42.70421" lon="1.25612">
        <ele>2222.22</ele>
        <time>2017-02-21T12:05:14Z</time>
      </trkpt>
      <trkpt lat="42.70491" lon="1.25547">
        <ele>2209.25</ele>
        <time>2017-02-21T12:06:02Z</time>
      </trkpt>
      <trkpt lat="42.70514" lon="1.25438">
        <ele>2211.17</ele>
        <time>2017-02-21T12:08:02Z</time>
      </trkpt>
      <trkpt lat="42.7055" lon="1.25392">
        <ele>2216.46</ele>
        <time>2017-02-21T12:09:18Z</time>
      </trkpt>
      <trkpt lat="42.70559" lon="1.25382">
        <ele>2216.94</ele>
        <time>2017-02-21T12:09:37Z</time>
      </trkpt>
      <trkpt lat="42.70567" lon="1.25366">
        <ele>2217.42</ele>
        <time>2017-02-21T12:10:15Z</time>
      </trkpt>
      <trkpt lat="42.70567" lon="1.25368">
        <ele>2218.38</ele>
        <time>2017-02-21T12:10:34Z</time>
      </trkpt>
      <trkpt lat="42.70532" lon="1.25289">
        <ele>2232.8</ele>
        <time>2017-02-21T12:12:57Z</time>
      </trkpt>
      <trkpt lat="42.7056" lon="1.25302">
        <ele>2240.49</ele>
        <time>2017-02-21T12:14:02Z</time>
      </trkpt>
      <trkpt lat="42.70547" lon="1.25273">
        <ele>2247.22</ele>
        <time>2017-02-21T12:15:09Z</time>
      </trkpt>
      <trkpt lat="42.70557" lon="1.25239">
        <ele>2256.83</ele>
        <time>2017-02-21T12:16:26Z</time>
      </trkpt>
      <trkpt lat="42.70559" lon="1.25233">
        <ele>2257.79</ele>
        <time>2017-02-21T12:16:45Z</time>
      </trkpt>
      <trkpt lat="42.70582" lon="1.25189">
        <ele>2263.56</ele>
        <time>2017-02-21T12:18:00Z</time>
      </trkpt>
      <trkpt lat="42.70587" lon="1.25158">
        <ele>2264.04</ele>
        <time>2017-02-21T12:18:30Z</time>
      </trkpt>
      <trkpt lat="42.70583" lon="1.25107">
        <ele>2274.62</ele>
        <time>2017-02-21T12:24:42Z</time>
      </trkpt>
      <trkpt lat="42.70573" lon="1.25101">
        <ele>2259.24</ele>
        <time>2017-02-21T12:28:40Z</time>
      </trkpt>
      <trkpt lat="42.70585" lon="1.25045">
        <ele>2247.22</ele>
        <time>2017-02-21T12:28:58Z</time>
      </trkpt>
      <trkpt lat="42.70576" lon="1.25014">
        <ele>2238.09</ele>
        <time>2017-02-21T12:29:02Z</time>
      </trkpt>
      <trkpt lat="42.70573" lon="1.24949">
        <ele>2234.72</ele>
        <time>2017-02-21T12:30:51Z</time>
      </trkpt>
      <trkpt lat="42.70562" lon="1.24902">
        <ele>2230.4</ele>
        <time>2017-02-21T12:31:39Z</time>
      </trkpt>
      <trkpt lat="42.70576" lon="1.24884">
        <ele>2224.15</ele>
        <time>2017-02-21T12:31:54Z</time>
      </trkpt>
      <trkpt lat="42.70602" lon="1.24875">
        <ele>2224.63</ele>
        <time>2017-02-21T12:32:00Z</time>
      </trkpt>
      <trkpt lat="42.70607" lon="1.24848">
        <ele>2220.3</ele>
        <time>2017-02-21T12:32:08Z</time>
      </trkpt>
      <trkpt lat="42.70595" lon="1.2483">
        <ele>2215.01</ele>
        <time>2017-02-21T12:32:15Z</time>
      </trkpt>
      <trkpt lat="42.70607" lon="1.24817">
        <ele>2213.57</ele>
        <time>2017-02-21T12:32:19Z</time>
      </trkpt>
      <trkpt lat="42.70603" lon="1.24748">
        <ele>2200.11</ele>
        <time>2017-02-21T12:33:22Z</time>
      </trkpt>
      <trkpt lat="42.70604" lon="1.24729">
        <ele>2196.27</ele>
        <time>2017-02-21T12:33:27Z</time>
      </trkpt>
      <trkpt lat="42.70599" lon="1.24698">
        <ele>2189.06</ele>
        <time>2017-02-21T12:33:37Z</time>
      </trkpt>
      <trkpt lat="42.70617" lon="1.24677">
        <ele>2183.77</ele>
        <time>2017-02-21T12:33:46Z</time>
      </trkpt>
      <trkpt lat="42.70621" lon="1.24638">
        <ele>2172.72</ele>
        <time>2017-02-21T12:33:59Z</time>
      </trkpt>
      <trkpt lat="42.70636" lon="1.24627">
        <ele>2170.31</ele>
        <time>2017-02-21T12:34:03Z</time>
      </trkpt>
      <trkpt lat="42.70647" lon="1.24602">
        <ele>2163.58</ele>
        <time>2017-02-21T12:34:08Z</time>
      </trkpt>
      <trkpt lat="42.70667" lon="1.24565">
        <ele>2156.86</ele>
        <time>2017-02-21T12:34:14Z</time>
      </trkpt>
      <trkpt lat="42.70639" lon="1.24499">
        <ele>2158.3</ele>
        <time>2017-02-21T12:34:35Z</time>
      </trkpt>
      <trkpt lat="42.70638" lon="1.24498">
        <ele>2153.97</ele>
        <time>2017-02-21T12:34:53Z</time>
      </trkpt>
      <trkpt lat="42.70628" lon="1.24487">
        <ele>2150.13</ele>
        <time>2017-02-21T12:34:58Z</time>
      </trkpt>
      <trkpt lat="42.70618" lon="1.24411">
        <ele>2140.03</ele>
        <time>2017-02-21T12:35:16Z</time>
      </trkpt>
      <trkpt lat="42.70619" lon="1.24373">
        <ele>2132.34</ele>
        <time>2017-02-21T12:35:23Z</time>
      </trkpt>
      <trkpt lat="42.70623" lon="1.24365">
        <ele>2137.15</ele>
        <time>2017-02-21T12:35:38Z</time>
      </trkpt>
      <trkpt lat="42.70636" lon="1.24349">
        <ele>2128.98</ele>
        <time>2017-02-21T12:35:57Z</time>
      </trkpt>
      <trkpt lat="42.70686" lon="1.24297">
        <ele>2123.69</ele>
        <time>2017-02-21T12:36:14Z</time>
      </trkpt>
      <trkpt lat="42.7068" lon="1.24252">
        <ele>2106.39</ele>
        <time>2017-02-21T12:36:56Z</time>
      </trkpt>
      <trkpt lat="42.70669" lon="1.24249">
        <ele>2102.06</ele>
        <time>2017-02-21T12:37:00Z</time>
      </trkpt>
      <trkpt lat="42.70632" lon="1.24226">
        <ele>2085.24</ele>
        <time>2017-02-21T12:37:59Z</time>
      </trkpt>
      <trkpt lat="42.70631" lon="1.24215">
        <ele>2079.47</ele>
        <time>2017-02-21T12:38:02Z</time>
      </trkpt>
      <trkpt lat="42.70662" lon="1.24171">
        <ele>2064.57</ele>
        <time>2017-02-21T12:38:26Z</time>
      </trkpt>
      <trkpt lat="42.70658" lon="1.24138">
        <ele>2049.67</ele>
        <time>2017-02-21T12:39:06Z</time>
      </trkpt>
      <trkpt lat="42.7062" lon="1.24143">
        <ele>2037.65</ele>
        <time>2017-02-21T12:39:18Z</time>
      </trkpt>
      <trkpt lat="42.70615" lon="1.24133">
        <ele>2033.33</ele>
        <time>2017-02-21T12:39:21Z</time>
      </trkpt>
      <trkpt lat="42.70618" lon="1.24123">
        <ele>2028.52</ele>
        <time>2017-02-21T12:39:23Z</time>
      </trkpt>
      <trkpt lat="42.70616" lon="1.24117">
        <ele>2023.23</ele>
        <time>2017-02-21T12:39:25Z</time>
      </trkpt>
      <trkpt lat="42.70603" lon="1.24119">
        <ele>2021.31</ele>
        <time>2017-02-21T12:39:28Z</time>
      </trkpt>
      <trkpt lat="42.70589" lon="1.24096">
        <ele>2009.29</ele>
        <time>2017-02-21T12:39:35Z</time>
      </trkpt>
      <trkpt lat="42.70586" lon="1.24052">
        <ele>1990.55</ele>
        <time>2017-02-21T12:39:56Z</time>
      </trkpt>
      <trkpt lat="42.70605" lon="1.24007">
        <ele>1966.51</ele>
        <time>2017-02-21T12:40:35Z</time>
      </trkpt>
      <trkpt lat="42.70644" lon="1.23987">
        <ele>1956.9</ele>
        <time>2017-02-21T12:41:05Z</time>
      </trkpt>
      <trkpt lat="42.70638" lon="1.2398">
        <ele>1953.06</ele>
        <time>2017-02-21T12:41:09Z</time>
      </trkpt>
      <trkpt lat="42.70639" lon="1.23974">
        <ele>1947.29</ele>
        <time>2017-02-21T12:41:11Z</time>
      </trkpt>
      <trkpt lat="42.7066" lon="1.23962">
        <ele>1943.44</ele>
        <time>2017-02-21T12:41:17Z</time>
      </trkpt>
      <trkpt lat="42.70669" lon="1.23955">
        <ele>1937.67</ele>
        <time>2017-02-21T12:41:19Z</time>
      </trkpt>
      <trkpt lat="42.70699" lon="1.23933">
        <ele>1936.71</ele>
        <time>2017-02-21T12:41:37Z</time>
      </trkpt>
      <trkpt lat="42.70705" lon="1.2391">
        <ele>1927.58</ele>
        <time>2017-02-21T12:41:59Z</time>
      </trkpt>
      <trkpt lat="42.70701" lon="1.23895">
        <ele>1924.7</ele>
        <time>2017-02-21T12:42:03Z</time>
      </trkpt>
      <trkpt lat="42.70694" lon="1.23887">
        <ele>1919.89</ele>
        <time>2017-02-21T12:42:05Z</time>
      </trkpt>
      <trkpt lat="42.70693" lon="1.23876">
        <ele>1917.97</ele>
        <time>2017-02-21T12:42:07Z</time>
      </trkpt>
      <trkpt lat="42.7069" lon="1.23872">
        <ele>1914.12</ele>
        <time>2017-02-21T12:42:08Z</time>
      </trkpt>
      <trkpt lat="42.70674" lon="1.23842">
        <ele>1901.63</ele>
        <time>2017-02-21T12:42:13Z</time>
      </trkpt>
      <trkpt lat="42.70659" lon="1.23811">
        <ele>1891.53</ele>
        <time>2017-02-21T12:42:18Z</time>
      </trkpt>
      <trkpt lat="42.7061" lon="1.23765">
        <ele>1873.27</ele>
        <time>2017-02-21T12:42:34Z</time>
      </trkpt>
      <trkpt lat="42.70583" lon="1.23735">
        <ele>1861.25</ele>
        <time>2017-02-21T12:42:43Z</time>
      </trkpt>
      <trkpt lat="42.70591" lon="1.23734">
        <ele>1858.37</ele>
        <time>2017-02-21T12:51:32Z</time>
      </trkpt>
      <trkpt lat="42.70577" lon="1.23739">
        <ele>1856.92</ele>
        <time>2017-02-21T12:52:20Z</time>
      </trkpt>
      <trkpt lat="42.70569" lon="1.23728">
        <ele>1853.08</ele>
        <time>2017-02-21T12:52:25Z</time>
      </trkpt>
      <trkpt lat="42.70541" lon="1.23723">
        <ele>1844.43</ele>
        <time>2017-02-21T12:52:33Z</time>
      </trkpt>
      <trkpt lat="42.70496" lon="1.2372">
        <ele>1836.74</ele>
        <time>2017-02-21T12:52:44Z</time>
      </trkpt>
      <trkpt lat="42.70457" lon="1.23649">
        <ele>1831.93</ele>
        <time>2017-02-21T12:53:04Z</time>
      </trkpt>
      <trkpt lat="42.70373" lon="1.23635">
        <ele>1808.38</ele>
        <time>2017-02-21T12:53:24Z</time>
      </trkpt>
      <trkpt lat="42.70337" lon="1.23596">
        <ele>1806.94</ele>
        <time>2017-02-21T12:53:43Z</time>
      </trkpt>
      <trkpt lat="42.70332" lon="1.23573">
        <ele>1807.42</ele>
        <time>2017-02-21T12:53:58Z</time>
      </trkpt>
      <trkpt lat="42.70317" lon="1.23576">
        <ele>1800.21</ele>
        <time>2017-02-21T12:54:12Z</time>
      </trkpt>
      <trkpt lat="42.7028" lon="1.23516">
        <ele>1773.29</ele>
        <time>2017-02-21T12:54:45Z</time>
      </trkpt>
      <trkpt lat="42.70246" lon="1.23494">
        <ele>1765.12</ele>
        <time>2017-02-21T12:55:01Z</time>
      </trkpt>
      <trkpt lat="42.7021" lon="1.23496">
        <ele>1759.83</ele>
        <time>2017-02-21T12:55:15Z</time>
      </trkpt>
      <trkpt lat="42.70134" lon="1.23487">
        <ele>1773.77</ele>
        <time>2017-02-21T12:57:34Z</time>
      </trkpt>
      <trkpt lat="42.70129" lon="1.2347">
        <ele>1756.95</ele>
        <time>2017-02-21T12:59:54Z</time>
      </trkpt>
      <trkpt lat="42.70129" lon="1.23474">
        <ele>1755.5</ele>
        <time>2017-02-21T13:00:15Z</time>
      </trkpt>
      <trkpt lat="42.70132" lon="1.23507">
        <ele>1752.14</ele>
        <time>2017-02-21T13:01:40Z</time>
      </trkpt>
      <trkpt lat="42.7011" lon="1.23515">
        <ele>1745.89</ele>
        <time>2017-02-21T13:01:52Z</time>
      </trkpt>
      <trkpt lat="42.70081" lon="1.23437">
        <ele>1728.59</ele>
        <time>2017-02-21T13:02:10Z</time>
      </trkpt>
      <trkpt lat="42.70054" lon="1.23397">
        <ele>1721.38</ele>
        <time>2017-02-21T13:02:20Z</time>
      </trkpt>
      <trkpt lat="42.70025" lon="1.23375">
        <ele>1711.28</ele>
        <time>2017-02-21T13:02:28Z</time>
      </trkpt>
      <trkpt lat="42.70008" lon="1.23339">
        <ele>1706</ele>
        <time>2017-02-21T13:02:33Z</time>
      </trkpt>
      <trkpt lat="42.69956" lon="1.23274">
        <ele>1702.63</ele>
        <time>2017-02-21T13:02:57Z</time>
      </trkpt>
      <trkpt lat="42.69952" lon="1.23265">
        <ele>1700.23</ele>
        <time>2017-02-21T13:07:29Z</time>
      </trkpt>
      <trkpt lat="42.69953" lon="1.23266">
        <ele>1705.04</ele>
        <time>2017-02-21T13:14:32Z</time>
      </trkpt>
      <trkpt lat="42.69953" lon="1.23266">
        <ele>1700.71</ele>
        <time>2017-02-21T13:14:33Z</time>
      </trkpt>
      <trkpt lat="42.69955" lon="1.23254">
        <ele>1701.19</ele>
        <time>2017-02-21T13:15:05Z</time>
      </trkpt>
      <trkpt lat="42.69951" lon="1.23222">
        <ele>1701.19</ele>
        <time>2017-02-21T13:15:55Z</time>
      </trkpt>
      <trkpt lat="42.69949" lon="1.23163">
        <ele>1705.52</ele>
        <time>2017-02-21T13:17:16Z</time>
      </trkpt>
      <trkpt lat="42.69943" lon="1.23112">
        <ele>1706.96</ele>
        <time>2017-02-21T13:18:08Z</time>
      </trkpt>
      <trkpt lat="42.6996" lon="1.22977">
        <ele>1720.9</ele>
        <time>2017-02-21T13:21:01Z</time>
      </trkpt>
      <trkpt lat="42.69996" lon="1.22913">
        <ele>1729.07</ele>
        <time>2017-02-21T13:22:45Z</time>
      </trkpt>
      <trkpt lat="42.69989" lon="1.22894">
        <ele>1732.43</ele>
        <time>2017-02-21T13:23:14Z</time>
      </trkpt>
      <trkpt lat="42.69991" lon="1.22842">
        <ele>1735.8</ele>
        <time>2017-02-21T13:24:15Z</time>
      </trkpt>
      <trkpt lat="42.69991" lon="1.22841">
        <ele>1728.59</ele>
        <time>2017-02-21T13:24:20Z</time>
      </trkpt>
      <trkpt lat="42.69991" lon="1.22841">
        <ele>1736.76</ele>
        <time>2017-02-21T13:24:21Z</time>
      </trkpt>
      <trkpt lat="42.69991" lon="1.22841">
        <ele>1735.8</ele>
        <time>2017-02-21T13:24:46Z</time>
      </trkpt>
      <trkpt lat="42.69994" lon="1.22844">
        <ele>1735.8</ele>
        <time>2017-02-21T13:25:10Z</time>
      </trkpt>
      <trkpt lat="42.70003" lon="1.22842">
        <ele>1736.76</ele>
        <time>2017-02-21T13:25:28Z</time>
      </trkpt>
      <trkpt lat="42.70031" lon="1.22828">
        <ele>1751.66</ele>
        <time>2017-02-21T13:26:54Z</time>
      </trkpt>
      <trkpt lat="42.70034" lon="1.22826">
        <ele>1740.6</ele>
        <time>2017-02-21T13:28:54Z</time>
      </trkpt>
      <trkpt lat="42.7004" lon="1.22802">
        <ele>1743.97</ele>
        <time>2017-02-21T13:32:44Z</time>
      </trkpt>
      <trkpt lat="42.70057" lon="1.22797">
        <ele>1747.81</ele>
        <time>2017-02-21T13:33:16Z</time>
      </trkpt>
      <trkpt lat="42.70072" lon="1.22719">
        <ele>1771.37</ele>
        <time>2017-02-21T13:36:40Z</time>
      </trkpt>
      <trkpt lat="42.70074" lon="1.22711">
        <ele>1773.77</ele>
        <time>2017-02-21T13:36:57Z</time>
      </trkpt>
      <trkpt lat="42.70075" lon="1.22682">
        <ele>1779.54</ele>
        <time>2017-02-21T13:37:50Z</time>
      </trkpt>
      <trkpt lat="42.70125" lon="1.22548">
        <ele>1789.63</ele>
        <time>2017-02-21T13:41:30Z</time>
      </trkpt>
      <trkpt lat="42.70129" lon="1.22519">
        <ele>1788.19</ele>
        <time>2017-02-21T13:41:58Z</time>
      </trkpt>
      <trkpt lat="42.70152" lon="1.22459">
        <ele>1793.96</ele>
        <time>2017-02-21T13:43:15Z</time>
      </trkpt>
      <trkpt lat="42.70167" lon="1.22438">
        <ele>1799.73</ele>
        <time>2017-02-21T13:44:04Z</time>
      </trkpt>
      <trkpt lat="42.70175" lon="1.22421">
        <ele>1801.17</ele>
        <time>2017-02-21T13:44:27Z</time>
      </trkpt>
      <trkpt lat="42.70189" lon="1.22336">
        <ele>1806.45</ele>
        <time>2017-02-21T13:46:14Z</time>
      </trkpt>
      <trkpt lat="42.70215" lon="1.22317">
        <ele>1831.93</ele>
        <time>2017-02-21T13:50:05Z</time>
      </trkpt>
      <trkpt lat="42.70227" lon="1.22311">
        <ele>1828.56</ele>
        <time>2017-02-21T13:50:34Z</time>
      </trkpt>
      <trkpt lat="42.70251" lon="1.22276">
        <ele>1831.45</ele>
        <time>2017-02-21T13:51:21Z</time>
      </trkpt>
      <trkpt lat="42.70261" lon="1.22185">
        <ele>1837.7</ele>
        <time>2017-02-21T13:53:35Z</time>
      </trkpt>
      <trkpt lat="42.70265" lon="1.2213">
        <ele>1843.47</ele>
        <time>2017-02-21T13:54:48Z</time>
      </trkpt>
      <trkpt lat="42.70257" lon="1.22038">
        <ele>1844.43</ele>
        <time>2017-02-21T13:56:31Z</time>
      </trkpt>
      <trkpt lat="42.70268" lon="1.22002">
        <ele>1849.71</ele>
        <time>2017-02-21T13:57:19Z</time>
      </trkpt>
      <trkpt lat="42.70328" lon="1.21834">
        <ele>1873.27</ele>
        <time>2017-02-21T14:01:18Z</time>
      </trkpt>
      <trkpt lat="42.70333" lon="1.21821">
        <ele>1859.33</ele>
        <time>2017-02-21T14:01:49Z</time>
      </trkpt>
      <trkpt lat="42.70353" lon="1.21798">
        <ele>1867.5</ele>
        <time>2017-02-21T14:03:12Z</time>
      </trkpt>
      <trkpt lat="42.70371" lon="1.21774">
        <ele>1872.3</ele>
        <time>2017-02-21T14:04:19Z</time>
      </trkpt>
      <trkpt lat="42.70375" lon="1.21757">
        <ele>1874.23</ele>
        <time>2017-02-21T14:04:51Z</time>
      </trkpt>
      <trkpt lat="42.70401" lon="1.21707">
        <ele>1877.59</ele>
        <time>2017-02-21T14:06:19Z</time>
      </trkpt>
      <trkpt lat="42.70424" lon="1.21666">
        <ele>1892.97</ele>
        <time>2017-02-21T14:08:20Z</time>
      </trkpt>
      <trkpt lat="42.70434" lon="1.21641">
        <ele>1878.07</ele>
        <time>2017-02-21T14:09:17Z</time>
      </trkpt>
      <trkpt lat="42.70497" lon="1.21349">
        <ele>1870.86</ele>
        <time>2017-02-21T14:14:30Z</time>
      </trkpt>
      <trkpt lat="42.70582" lon="1.2116">
        <ele>1894.9</ele>
        <time>2017-02-21T14:21:04Z</time>
      </trkpt>
      <trkpt lat="42.70603" lon="1.21109">
        <ele>1898.26</ele>
        <time>2017-02-21T14:28:24Z</time>
      </trkpt>
      <trkpt lat="42.70604" lon="1.21093">
        <ele>1902.11</ele>
        <time>2017-02-21T14:28:55Z</time>
      </trkpt>
      <trkpt lat="42.70597" lon="1.21046">
        <ele>1904.99</ele>
        <time>2017-02-21T14:29:49Z</time>
      </trkpt>
      <trkpt lat="42.70576" lon="1.2099">
        <ele>1913.16</ele>
        <time>2017-02-21T14:31:25Z</time>
      </trkpt>
      <trkpt lat="42.70593" lon="1.20886">
        <ele>1924.7</ele>
        <time>2017-02-21T14:34:11Z</time>
      </trkpt>
      <trkpt lat="42.70594" lon="1.20856">
        <ele>1924.22</ele>
        <time>2017-02-21T14:35:15Z</time>
      </trkpt>
      <trkpt lat="42.70629" lon="1.20614">
        <ele>1931.91</ele>
        <time>2017-02-21T14:39:30Z</time>
      </trkpt>
      <trkpt lat="42.70632" lon="1.20584">
        <ele>1920.85</ele>
        <time>2017-02-21T14:40:10Z</time>
      </trkpt>
      <trkpt lat="42.70644" lon="1.20552">
        <ele>1924.22</ele>
        <time>2017-02-21T14:41:01Z</time>
      </trkpt>
      <trkpt lat="42.70636" lon="1.20433">
        <ele>1943.92</ele>
        <time>2017-02-21T14:44:15Z</time>
      </trkpt>
      <trkpt lat="42.70667" lon="1.20332">
        <ele>1964.59</ele>
        <time>2017-02-21T14:47:35Z</time>
      </trkpt>
      <trkpt lat="42.70643" lon="1.20315">
        <ele>1975.65</ele>
        <time>2017-02-21T14:49:05Z</time>
      </trkpt>
      <trkpt lat="42.70654" lon="1.20255">
        <ele>1982.38</ele>
        <time>2017-02-21T14:51:55Z</time>
      </trkpt>
      <trkpt lat="42.70662" lon="1.2016">
        <ele>1992.95</ele>
        <time>2017-02-21T14:54:20Z</time>
      </trkpt>
      <trkpt lat="42.70683" lon="1.20044">
        <ele>2001.6</ele>
        <time>2017-02-21T14:57:02Z</time>
      </trkpt>
      <trkpt lat="42.70676" lon="1.2002">
        <ele>2008.81</ele>
        <time>2017-02-21T14:57:54Z</time>
      </trkpt>
      <trkpt lat="42.70677" lon="1.20001">
        <ele>2013.62</ele>
        <time>2017-02-21T14:58:47Z</time>
      </trkpt>
      <trkpt lat="42.70715" lon="1.19864">
        <ele>2038.13</ele>
        <time>2017-02-21T15:03:29Z</time>
      </trkpt>
      <trkpt lat="42.70716" lon="1.19852">
        <ele>2039.09</ele>
        <time>2017-02-21T15:03:48Z</time>
      </trkpt>
      <trkpt lat="42.70719" lon="1.19805">
        <ele>2045.82</ele>
        <time>2017-02-21T15:05:13Z</time>
      </trkpt>
      <trkpt lat="42.70717" lon="1.19777">
        <ele>2048.71</ele>
        <time>2017-02-21T15:05:48Z</time>
      </trkpt>
      <trkpt lat="42.70709" lon="1.19691">
        <ele>2053.99</ele>
        <time>2017-02-21T15:07:41Z</time>
      </trkpt>
      <trkpt lat="42.70711" lon="1.19563">
        <ele>2076.1</ele>
        <time>2017-02-21T15:11:08Z</time>
      </trkpt>
      <trkpt lat="42.70732" lon="1.19462">
        <ele>2089.56</ele>
        <time>2017-02-21T15:13:57Z</time>
      </trkpt>
      <trkpt lat="42.70732" lon="1.19453">
        <ele>2081.39</ele>
        <time>2017-02-21T15:14:18Z</time>
      </trkpt>
      <trkpt lat="42.70684" lon="1.19314">
        <ele>2100.62</ele>
        <time>2017-02-21T15:21:35Z</time>
      </trkpt>
      <trkpt lat="42.70653" lon="1.19252">
        <ele>2108.31</ele>
        <time>2017-02-21T15:23:21Z</time>
      </trkpt>
      <trkpt lat="42.70657" lon="1.192">
        <ele>2118.88</ele>
        <time>2017-02-21T15:25:18Z</time>
      </trkpt>
      <trkpt lat="42.7065" lon="1.19207">
        <ele>2123.21</ele>
        <time>2017-02-21T15:26:14Z</time>
      </trkpt>
      <trkpt lat="42.70629" lon="1.1924">
        <ele>2130.9</ele>
        <time>2017-02-21T15:27:47Z</time>
      </trkpt>
      <trkpt lat="42.70618" lon="1.19231">
        <ele>2136.19</ele>
        <time>2017-02-21T15:28:35Z</time>
      </trkpt>
      <trkpt lat="42.70587" lon="1.19308">
        <ele>2170.31</ele>
        <time>2017-02-21T15:34:33Z</time>
      </trkpt>
      <trkpt lat="42.70556" lon="1.19351">
        <ele>2181.85</ele>
        <time>2017-02-21T15:37:36Z</time>
      </trkpt>
      <trkpt lat="42.70544" lon="1.19365">
        <ele>2184.25</ele>
        <time>2017-02-21T15:39:28Z</time>
      </trkpt>
      <trkpt lat="42.70549" lon="1.1935">
        <ele>2185.21</ele>
        <time>2017-02-21T15:39:58Z</time>
      </trkpt>
      <trkpt lat="42.70519" lon="1.19262">
        <ele>2193.87</ele>
        <time>2017-02-21T15:43:02Z</time>
      </trkpt>
      <trkpt lat="42.70524" lon="1.19239">
        <ele>2197.71</ele>
        <time>2017-02-21T15:43:48Z</time>
      </trkpt>
      <trkpt lat="42.70526" lon="1.19234">
        <ele>2200.11</ele>
        <time>2017-02-21T15:44:25Z</time>
      </trkpt>
      <trkpt lat="42.70553" lon="1.19034">
        <ele>2246.74</ele>
        <time>2017-02-21T15:53:56Z</time>
      </trkpt>
      <trkpt lat="42.70565" lon="1.18992">
        <ele>2257.79</ele>
        <time>2017-02-21T15:55:48Z</time>
      </trkpt>
      <trkpt lat="42.70582" lon="1.18983">
        <ele>2265.96</ele>
        <time>2017-02-21T15:57:09Z</time>
      </trkpt>
      <trkpt lat="42.70594" lon="1.18942">
        <ele>2276.54</ele>
        <time>2017-02-21T15:58:49Z</time>
      </trkpt>
      <trkpt lat="42.70591" lon="1.1891">
        <ele>2282.31</ele>
        <time>2017-02-21T16:05:28Z</time>
      </trkpt>
    </trkseg>
  </trk>
  <trk>
    <name><![CDATA[TPS3_J3 22 FEV 2017 07:47]]></name>
    <trkseg>
      <trkpt lat="42.70588" lon="1.18918">
        <ele>2253.47</ele>
        <time>2017-02-22T06:47:16Z</time>
      </trkpt>
      <trkpt lat="42.70594" lon="1.18899">
        <ele>2281.35</ele>
        <time>2017-02-22T07:01:40Z</time>
      </trkpt>
      <trkpt lat="42.70589" lon="1.1889">
        <ele>2279.42</ele>
        <time>2017-02-22T07:01:54Z</time>
      </trkpt>
      <trkpt lat="42.70585" lon="1.18869">
        <ele>2274.62</ele>
        <time>2017-02-22T07:02:15Z</time>
      </trkpt>
      <trkpt lat="42.70569" lon="1.18816">
        <ele>2267.41</ele>
        <time>2017-02-22T07:03:48Z</time>
      </trkpt>
      <trkpt lat="42.70517" lon="1.18848">
        <ele>2266.93</ele>
        <time>2017-02-22T07:06:48Z</time>
      </trkpt>
      <trkpt lat="42.70441" lon="1.18851">
        <ele>2277.98</ele>
        <time>2017-02-22T07:09:13Z</time>
      </trkpt>
      <trkpt lat="42.70405" lon="1.18819">
        <ele>2287.59</ele>
        <time>2017-02-22T07:11:12Z</time>
      </trkpt>
      <trkpt lat="42.70344" lon="1.18742">
        <ele>2296.73</ele>
        <time>2017-02-22T07:13:36Z</time>
      </trkpt>
      <trkpt lat="42.70343" lon="1.18723">
        <ele>2300.09</ele>
        <time>2017-02-22T07:14:06Z</time>
      </trkpt>
      <trkpt lat="42.70335" lon="1.18719">
        <ele>2300.57</ele>
        <time>2017-02-22T07:14:31Z</time>
      </trkpt>
      <trkpt lat="42.70281" lon="1.18712">
        <ele>2305.86</ele>
        <time>2017-02-22T07:15:59Z</time>
      </trkpt>
      <trkpt lat="42.7023" lon="1.18608">
        <ele>2320.76</ele>
        <time>2017-02-22T07:18:41Z</time>
      </trkpt>
      <trkpt lat="42.70212" lon="1.18544">
        <ele>2329.89</ele>
        <time>2017-02-22T07:21:32Z</time>
      </trkpt>
      <trkpt lat="42.70178" lon="1.18575">
        <ele>2351.52</ele>
        <time>2017-02-22T07:22:48Z</time>
      </trkpt>
      <trkpt lat="42.70093" lon="1.18596">
        <ele>2335.18</ele>
        <time>2017-02-22T07:24:33Z</time>
      </trkpt>
      <trkpt lat="42.70036" lon="1.18646">
        <ele>2344.31</ele>
        <time>2017-02-22T07:26:23Z</time>
      </trkpt>
      <trkpt lat="42.70024" lon="1.18605">
        <ele>2354.41</ele>
        <time>2017-02-22T07:28:19Z</time>
      </trkpt>
      <trkpt lat="42.69988" lon="1.18603">
        <ele>2361.62</ele>
        <time>2017-02-22T07:29:37Z</time>
      </trkpt>
      <trkpt lat="42.69978" lon="1.18563">
        <ele>2370.75</ele>
        <time>2017-02-22T07:31:08Z</time>
      </trkpt>
      <trkpt lat="42.69973" lon="1.18563">
        <ele>2371.23</ele>
        <time>2017-02-22T07:31:23Z</time>
      </trkpt>
      <trkpt lat="42.69964" lon="1.18563">
        <ele>2374.11</ele>
        <time>2017-02-22T07:31:54Z</time>
      </trkpt>
      <trkpt lat="42.69964" lon="1.18563">
        <ele>2389.01</ele>
        <time>2017-02-22T07:32:02Z</time>
      </trkpt>
      <trkpt lat="42.69948" lon="1.18563">
        <ele>2374.59</ele>
        <time>2017-02-22T07:32:53Z</time>
      </trkpt>
      <trkpt lat="42.69957" lon="1.1855">
        <ele>2371.71</ele>
        <time>2017-02-22T07:33:19Z</time>
      </trkpt>
      <trkpt lat="42.69958" lon="1.18538">
        <ele>2369.79</ele>
        <time>2017-02-22T07:33:26Z</time>
      </trkpt>
      <trkpt lat="42.69958" lon="1.18511">
        <ele>2363.06</ele>
        <time>2017-02-22T07:33:38Z</time>
      </trkpt>
      <trkpt lat="42.6992" lon="1.18502">
        <ele>2363.06</ele>
        <time>2017-02-22T07:34:33Z</time>
      </trkpt>
      <trkpt lat="42.69889" lon="1.18536">
        <ele>2372.19</ele>
        <time>2017-02-22T07:36:00Z</time>
      </trkpt>
      <trkpt lat="42.69877" lon="1.18534">
        <ele>2382.76</ele>
        <time>2017-02-22T07:37:59Z</time>
      </trkpt>
      <trkpt lat="42.69869" lon="1.18528">
        <ele>2386.13</ele>
        <time>2017-02-22T07:38:46Z</time>
      </trkpt>
      <trkpt lat="42.6985" lon="1.18521">
        <ele>2388.05</ele>
        <time>2017-02-22T07:39:12Z</time>
      </trkpt>
      <trkpt lat="42.69838" lon="1.186">
        <ele>2406.32</ele>
        <time>2017-02-22T07:42:11Z</time>
      </trkpt>
      <trkpt lat="42.69856" lon="1.18657">
        <ele>2420.26</ele>
        <time>2017-02-22T07:44:21Z</time>
      </trkpt>
      <trkpt lat="42.69826" lon="1.18656">
        <ele>2428.43</ele>
        <time>2017-02-22T07:45:34Z</time>
      </trkpt>
      <trkpt lat="42.69815" lon="1.18683">
        <ele>2438.04</ele>
        <time>2017-02-22T07:46:55Z</time>
      </trkpt>
      <trkpt lat="42.698" lon="1.18687">
        <ele>2439.96</ele>
        <time>2017-02-22T07:47:30Z</time>
      </trkpt>
      <trkpt lat="42.6976" lon="1.18687">
        <ele>2451.5</ele>
        <time>2017-02-22T07:49:03Z</time>
      </trkpt>
      <trkpt lat="42.69722" lon="1.18684">
        <ele>2459.67</ele>
        <time>2017-02-22T07:50:29Z</time>
      </trkpt>
      <trkpt lat="42.69678" lon="1.1871">
        <ele>2470.73</ele>
        <time>2017-02-22T07:52:39Z</time>
      </trkpt>
      <trkpt lat="42.69678" lon="1.1871">
        <ele>2459.67</ele>
        <time>2017-02-22T07:53:02Z</time>
      </trkpt>
      <trkpt lat="42.69678" lon="1.18709">
        <ele>2483.7</ele>
        <time>2017-02-22T07:53:24Z</time>
      </trkpt>
      <trkpt lat="42.69678" lon="1.18709">
        <ele>2488.03</ele>
        <time>2017-02-22T07:53:31Z</time>
      </trkpt>
      <trkpt lat="42.69654" lon="1.18667">
        <ele>2483.7</ele>
        <time>2017-02-22T07:58:07Z</time>
      </trkpt>
      <trkpt lat="42.69653" lon="1.18665">
        <ele>2475.53</ele>
        <time>2017-02-22T07:58:26Z</time>
      </trkpt>
      <trkpt lat="42.69624" lon="1.18652">
        <ele>2475.53</ele>
        <time>2017-02-22T07:59:03Z</time>
      </trkpt>
      <trkpt lat="42.6967" lon="1.18356">
        <ele>2504.85</ele>
        <time>2017-02-22T08:04:53Z</time>
      </trkpt>
      <trkpt lat="42.69674" lon="1.18248">
        <ele>2480.82</ele>
        <time>2017-02-22T08:07:36Z</time>
      </trkpt>
      <trkpt lat="42.69704" lon="1.1811">
        <ele>2483.22</ele>
        <time>2017-02-22T08:10:25Z</time>
      </trkpt>
      <trkpt lat="42.69695" lon="1.18068">
        <ele>2490.43</ele>
        <time>2017-02-22T08:11:30Z</time>
      </trkpt>
      <trkpt lat="42.69718" lon="1.18067">
        <ele>2497.16</ele>
        <time>2017-02-22T08:12:45Z</time>
      </trkpt>
      <trkpt lat="42.69717" lon="1.18034">
        <ele>2504.37</ele>
        <time>2017-02-22T08:13:48Z</time>
      </trkpt>
      <trkpt lat="42.69727" lon="1.18004">
        <ele>2509.66</ele>
        <time>2017-02-22T08:14:46Z</time>
      </trkpt>
      <trkpt lat="42.69732" lon="1.17975">
        <ele>2517.35</ele>
        <time>2017-02-22T08:16:17Z</time>
      </trkpt>
      <trkpt lat="42.69732" lon="1.1796">
        <ele>2517.35</ele>
        <time>2017-02-22T08:19:52Z</time>
      </trkpt>
      <trkpt lat="42.69739" lon="1.17953">
        <ele>2520.71</ele>
        <time>2017-02-22T08:23:07Z</time>
      </trkpt>
      <trkpt lat="42.6975" lon="1.17941">
        <ele>2522.64</ele>
        <time>2017-02-22T08:24:14Z</time>
      </trkpt>
      <trkpt lat="42.69791" lon="1.17863">
        <ele>2536.58</ele>
        <time>2017-02-22T08:26:36Z</time>
      </trkpt>
      <trkpt lat="42.69791" lon="1.17836">
        <ele>2538.5</ele>
        <time>2017-02-22T08:27:11Z</time>
      </trkpt>
      <trkpt lat="42.69811" lon="1.17795">
        <ele>2542.82</ele>
        <time>2017-02-22T08:28:22Z</time>
      </trkpt>
      <trkpt lat="42.69849" lon="1.17758">
        <ele>2554.36</ele>
        <time>2017-02-22T08:30:30Z</time>
      </trkpt>
      <trkpt lat="42.69913" lon="1.17721">
        <ele>2569.26</ele>
        <time>2017-02-22T08:32:29Z</time>
      </trkpt>
      <trkpt lat="42.6992" lon="1.17701">
        <ele>2575.03</ele>
        <time>2017-02-22T08:33:25Z</time>
      </trkpt>
      <trkpt lat="42.69917" lon="1.17685">
        <ele>2579.35</ele>
        <time>2017-02-22T08:34:11Z</time>
      </trkpt>
      <trkpt lat="42.69908" lon="1.17667">
        <ele>2585.12</ele>
        <time>2017-02-22T08:34:58Z</time>
      </trkpt>
      <trkpt lat="42.69915" lon="1.17656">
        <ele>2587.04</ele>
        <time>2017-02-22T08:37:40Z</time>
      </trkpt>
      <trkpt lat="42.69949" lon="1.17664">
        <ele>2597.14</ele>
        <time>2017-02-22T08:39:20Z</time>
      </trkpt>
      <trkpt lat="42.69947" lon="1.17637">
        <ele>2604.83</ele>
        <time>2017-02-22T08:40:29Z</time>
      </trkpt>
      <trkpt lat="42.69973" lon="1.17637">
        <ele>2613</ele>
        <time>2017-02-22T08:41:54Z</time>
      </trkpt>
      <trkpt lat="42.69971" lon="1.17616">
        <ele>2617.81</ele>
        <time>2017-02-22T08:42:42Z</time>
      </trkpt>
      <trkpt lat="42.69997" lon="1.17646">
        <ele>2629.34</ele>
        <time>2017-02-22T08:44:46Z</time>
      </trkpt>
      <trkpt lat="42.70008" lon="1.17605">
        <ele>2639.92</ele>
        <time>2017-02-22T08:46:52Z</time>
      </trkpt>
      <trkpt lat="42.70019" lon="1.17622">
        <ele>2645.69</ele>
        <time>2017-02-22T08:47:56Z</time>
      </trkpt>
      <trkpt lat="42.70021" lon="1.17614">
        <ele>2647.13</ele>
        <time>2017-02-22T08:48:15Z</time>
      </trkpt>
      <trkpt lat="42.70017" lon="1.17578">
        <ele>2653.38</ele>
        <time>2017-02-22T08:50:53Z</time>
      </trkpt>
      <trkpt lat="42.70017" lon="1.17578">
        <ele>2654.34</ele>
        <time>2017-02-22T08:51:02Z</time>
      </trkpt>
      <trkpt lat="42.70013" lon="1.1757">
        <ele>2653.86</ele>
        <time>2017-02-22T09:04:55Z</time>
      </trkpt>
      <trkpt lat="42.70019" lon="1.17558">
        <ele>2647.13</ele>
        <time>2017-02-22T09:05:42Z</time>
      </trkpt>
      <trkpt lat="42.70034" lon="1.17537">
        <ele>2641.84</ele>
        <time>2017-02-22T09:05:56Z</time>
      </trkpt>
      <trkpt lat="42.70039" lon="1.17525">
        <ele>2637.99</ele>
        <time>2017-02-22T09:06:08Z</time>
      </trkpt>
      <trkpt lat="42.70034" lon="1.17514">
        <ele>2634.15</ele>
        <time>2017-02-22T09:06:22Z</time>
      </trkpt>
      <trkpt lat="42.70043" lon="1.17507">
        <ele>2630.79</ele>
        <time>2017-02-22T09:06:31Z</time>
      </trkpt>
      <trkpt lat="42.70043" lon="1.17506">
        <ele>2628.38</ele>
        <time>2017-02-22T09:06:33Z</time>
      </trkpt>
      <trkpt lat="42.70041" lon="1.17492">
        <ele>2624.06</ele>
        <time>2017-02-22T09:06:44Z</time>
      </trkpt>
      <trkpt lat="42.70041" lon="1.1747">
        <ele>2614.44</ele>
        <time>2017-02-22T09:07:01Z</time>
      </trkpt>
      <trkpt lat="42.70047" lon="1.17468">
        <ele>2612.52</ele>
        <time>2017-02-22T09:07:05Z</time>
      </trkpt>
      <trkpt lat="42.70051" lon="1.17459">
        <ele>2605.31</ele>
        <time>2017-02-22T09:07:14Z</time>
      </trkpt>
      <trkpt lat="42.7006" lon="1.17454">
        <ele>2602.43</ele>
        <time>2017-02-22T09:07:27Z</time>
      </trkpt>
      <trkpt lat="42.70053" lon="1.17444">
        <ele>2598.58</ele>
        <time>2017-02-22T09:07:41Z</time>
      </trkpt>
      <trkpt lat="42.70068" lon="1.17434">
        <ele>2589.45</ele>
        <time>2017-02-22T09:07:57Z</time>
      </trkpt>
      <trkpt lat="42.70065" lon="1.17425">
        <ele>2586.08</ele>
        <time>2017-02-22T09:08:01Z</time>
      </trkpt>
      <trkpt lat="42.70062" lon="1.17422">
        <ele>2585.6</ele>
        <time>2017-02-22T09:08:06Z</time>
      </trkpt>
      <trkpt lat="42.70069" lon="1.17417">
        <ele>2580.8</ele>
        <time>2017-02-22T09:08:11Z</time>
      </trkpt>
      <trkpt lat="42.70067" lon="1.17409">
        <ele>2575.99</ele>
        <time>2017-02-22T09:08:18Z</time>
      </trkpt>
      <trkpt lat="42.70061" lon="1.17403">
        <ele>2575.03</ele>
        <time>2017-02-22T09:08:27Z</time>
      </trkpt>
      <trkpt lat="42.70078" lon="1.17395">
        <ele>2568.3</ele>
        <time>2017-02-22T09:08:36Z</time>
      </trkpt>
      <trkpt lat="42.70078" lon="1.17385">
        <ele>2564.93</ele>
        <time>2017-02-22T09:08:39Z</time>
      </trkpt>
      <trkpt lat="42.70068" lon="1.17366">
        <ele>2561.57</ele>
        <time>2017-02-22T09:08:45Z</time>
      </trkpt>
      <trkpt lat="42.70074" lon="1.17363">
        <ele>2557.73</ele>
        <time>2017-02-22T09:08:49Z</time>
      </trkpt>
      <trkpt lat="42.70082" lon="1.17363">
        <ele>2555.8</ele>
        <time>2017-02-22T09:08:58Z</time>
      </trkpt>
      <trkpt lat="42.70077" lon="1.17348">
        <ele>2552.44</ele>
        <time>2017-02-22T09:09:03Z</time>
      </trkpt>
      <trkpt lat="42.70082" lon="1.17339">
        <ele>2546.19</ele>
        <time>2017-02-22T09:09:06Z</time>
      </trkpt>
      <trkpt lat="42.70092" lon="1.17289">
        <ele>2528.89</ele>
        <time>2017-02-22T09:09:17Z</time>
      </trkpt>
      <trkpt lat="42.70124" lon="1.17292">
        <ele>2520.71</ele>
        <time>2017-02-22T09:10:19Z</time>
      </trkpt>
      <trkpt lat="42.70116" lon="1.17281">
        <ele>2517.83</ele>
        <time>2017-02-22T09:10:26Z</time>
      </trkpt>
      <trkpt lat="42.70108" lon="1.17263">
        <ele>2514.95</ele>
        <time>2017-02-22T09:10:37Z</time>
      </trkpt>
      <trkpt lat="42.7012" lon="1.17261">
        <ele>2510.62</ele>
        <time>2017-02-22T09:10:45Z</time>
      </trkpt>
      <trkpt lat="42.70145" lon="1.17252">
        <ele>2503.89</ele>
        <time>2017-02-22T09:10:56Z</time>
      </trkpt>
      <trkpt lat="42.70133" lon="1.17238">
        <ele>2500.05</ele>
        <time>2017-02-22T09:11:10Z</time>
      </trkpt>
      <trkpt lat="42.70148" lon="1.17222">
        <ele>2493.32</ele>
        <time>2017-02-22T09:11:15Z</time>
      </trkpt>
      <trkpt lat="42.70166" lon="1.17196">
        <ele>2490.91</ele>
        <time>2017-02-22T09:11:20Z</time>
      </trkpt>
      <trkpt lat="42.70182" lon="1.17139">
        <ele>2488.51</ele>
        <time>2017-02-22T09:11:58Z</time>
      </trkpt>
      <trkpt lat="42.70187" lon="1.17133">
        <ele>2486.59</ele>
        <time>2017-02-22T09:12:06Z</time>
      </trkpt>
      <trkpt lat="42.70218" lon="1.17068">
        <ele>2482.26</ele>
        <time>2017-02-22T09:12:23Z</time>
      </trkpt>
      <trkpt lat="42.70204" lon="1.17039">
        <ele>2486.59</ele>
        <time>2017-02-22T09:19:44Z</time>
      </trkpt>
      <trkpt lat="42.70205" lon="1.17036">
        <ele>2486.11</ele>
        <time>2017-02-22T09:20:00Z</time>
      </trkpt>
      <trkpt lat="42.70224" lon="1.17038">
        <ele>2493.32</ele>
        <time>2017-02-22T09:21:28Z</time>
      </trkpt>
      <trkpt lat="42.70227" lon="1.17026">
        <ele>2497.16</ele>
        <time>2017-02-22T09:22:24Z</time>
      </trkpt>
      <trkpt lat="42.70247" lon="1.16977">
        <ele>2505.81</ele>
        <time>2017-02-22T09:24:04Z</time>
      </trkpt>
      <trkpt lat="42.70321" lon="1.16906">
        <ele>2511.58</ele>
        <time>2017-02-22T09:26:36Z</time>
      </trkpt>
      <trkpt lat="42.70359" lon="1.16828">
        <ele>2525.52</ele>
        <time>2017-02-22T09:30:20Z</time>
      </trkpt>
      <trkpt lat="42.70359" lon="1.16828">
        <ele>2522.16</ele>
        <time>2017-02-22T09:31:06Z</time>
      </trkpt>
      <trkpt lat="42.70405" lon="1.16808">
        <ele>2529.85</ele>
        <time>2017-02-22T09:33:55Z</time>
      </trkpt>
      <trkpt lat="42.70417" lon="1.16774">
        <ele>2551</ele>
        <time>2017-02-22T09:35:22Z</time>
      </trkpt>
      <trkpt lat="42.70425" lon="1.16696">
        <ele>2543.31</ele>
        <time>2017-02-22T09:37:58Z</time>
      </trkpt>
      <trkpt lat="42.70447" lon="1.16708">
        <ele>2547.15</ele>
        <time>2017-02-22T09:38:47Z</time>
      </trkpt>
      <trkpt lat="42.70437" lon="1.16652">
        <ele>2559.17</ele>
        <time>2017-02-22T09:40:36Z</time>
      </trkpt>
      <trkpt lat="42.70463" lon="1.16663">
        <ele>2567.34</ele>
        <time>2017-02-22T09:42:47Z</time>
      </trkpt>
      <trkpt lat="42.70483" lon="1.16672">
        <ele>2569.74</ele>
        <time>2017-02-22T09:43:22Z</time>
      </trkpt>
      <trkpt lat="42.70493" lon="1.16657">
        <ele>2570.22</ele>
        <time>2017-02-22T09:44:36Z</time>
      </trkpt>
      <trkpt lat="42.70501" lon="1.16662">
        <ele>2567.34</ele>
        <time>2017-02-22T09:46:00Z</time>
      </trkpt>
      <trkpt lat="42.7051" lon="1.1666">
        <ele>2563.49</ele>
        <time>2017-02-22T09:47:41Z</time>
      </trkpt>
      <trkpt lat="42.70519" lon="1.16653">
        <ele>2558.21</ele>
        <time>2017-02-22T09:48:14Z</time>
      </trkpt>
      <trkpt lat="42.70518" lon="1.16643">
        <ele>2555.8</ele>
        <time>2017-02-22T09:48:28Z</time>
      </trkpt>
      <trkpt lat="42.7053" lon="1.16641">
        <ele>2551.48</ele>
        <time>2017-02-22T09:48:52Z</time>
      </trkpt>
      <trkpt lat="42.70526" lon="1.1662">
        <ele>2545.71</ele>
        <time>2017-02-22T09:49:42Z</time>
      </trkpt>
      <trkpt lat="42.70546" lon="1.16596">
        <ele>2532.73</ele>
        <time>2017-02-22T09:51:32Z</time>
      </trkpt>
      <trkpt lat="42.7055" lon="1.16575">
        <ele>2526</ele>
        <time>2017-02-22T09:52:26Z</time>
      </trkpt>
      <trkpt lat="42.70559" lon="1.1655">
        <ele>2522.16</ele>
        <time>2017-02-22T09:52:46Z</time>
      </trkpt>
      <trkpt lat="42.70561" lon="1.16549">
        <ele>2519.75</ele>
        <time>2017-02-22T09:57:32Z</time>
      </trkpt>
      <trkpt lat="42.70559" lon="1.16549">
        <ele>2519.27</ele>
        <time>2017-02-22T10:01:52Z</time>
      </trkpt>
      <trkpt lat="42.70573" lon="1.1655">
        <ele>2515.91</ele>
        <time>2017-02-22T10:57:26Z</time>
      </trkpt>
      <trkpt lat="42.70631" lon="1.16528">
        <ele>2508.7</ele>
        <time>2017-02-22T10:58:41Z</time>
      </trkpt>
      <trkpt lat="42.70633" lon="1.16519">
        <ele>2503.89</ele>
        <time>2017-02-22T10:59:34Z</time>
      </trkpt>
      <trkpt lat="42.70645" lon="1.16538">
        <ele>2499.08</ele>
        <time>2017-02-22T11:00:14Z</time>
      </trkpt>
      <trkpt lat="42.70652" lon="1.16552">
        <ele>2494.28</ele>
        <time>2017-02-22T11:00:18Z</time>
      </trkpt>
      <trkpt lat="42.70685" lon="1.16565">
        <ele>2490.43</ele>
        <time>2017-02-22T11:00:33Z</time>
      </trkpt>
      <trkpt lat="42.70678" lon="1.16559">
        <ele>2516.39</ele>
        <time>2017-02-22T11:06:52Z</time>
      </trkpt>
      <trkpt lat="42.70671" lon="1.16551">
        <ele>2488.99</ele>
        <time>2017-02-22T11:09:21Z</time>
      </trkpt>
      <trkpt lat="42.70664" lon="1.16533">
        <ele>2486.59</ele>
        <time>2017-02-22T11:09:47Z</time>
      </trkpt>
      <trkpt lat="42.70673" lon="1.16523">
        <ele>2483.7</ele>
        <time>2017-02-22T11:10:11Z</time>
      </trkpt>
      <trkpt lat="42.70687" lon="1.16523">
        <ele>2481.3</ele>
        <time>2017-02-22T11:10:22Z</time>
      </trkpt>
      <trkpt lat="42.70678" lon="1.16509">
        <ele>2477.45</ele>
        <time>2017-02-22T11:10:44Z</time>
      </trkpt>
      <trkpt lat="42.70704" lon="1.16482">
        <ele>2465.92</ele>
        <time>2017-02-22T11:11:06Z</time>
      </trkpt>
      <trkpt lat="42.70718" lon="1.16461">
        <ele>2457.27</ele>
        <time>2017-02-22T11:11:16Z</time>
      </trkpt>
      <trkpt lat="42.70724" lon="1.16448">
        <ele>2450.54</ele>
        <time>2017-02-22T11:11:22Z</time>
      </trkpt>
      <trkpt lat="42.70721" lon="1.1645">
        <ele>2449.1</ele>
        <time>2017-02-22T11:11:39Z</time>
      </trkpt>
      <trkpt lat="42.70707" lon="1.16437">
        <ele>2441.89</ele>
        <time>2017-02-22T11:11:45Z</time>
      </trkpt>
      <trkpt lat="42.70712" lon="1.16426">
        <ele>2434.68</ele>
        <time>2017-02-22T11:11:48Z</time>
      </trkpt>
      <trkpt lat="42.70699" lon="1.16399">
        <ele>2418.81</ele>
        <time>2017-02-22T11:11:55Z</time>
      </trkpt>
      <trkpt lat="42.707" lon="1.16377">
        <ele>2406.8</ele>
        <time>2017-02-22T11:11:59Z</time>
      </trkpt>
      <trkpt lat="42.70688" lon="1.16368">
        <ele>2400.07</ele>
        <time>2017-02-22T11:12:04Z</time>
      </trkpt>
      <trkpt lat="42.70698" lon="1.16355">
        <ele>2394.3</ele>
        <time>2017-02-22T11:12:28Z</time>
      </trkpt>
      <trkpt lat="42.70721" lon="1.16331">
        <ele>2389.97</ele>
        <time>2017-02-22T11:12:42Z</time>
      </trkpt>
      <trkpt lat="42.70717" lon="1.16316">
        <ele>2385.17</ele>
        <time>2017-02-22T11:12:46Z</time>
      </trkpt>
      <trkpt lat="42.70708" lon="1.1629">
        <ele>2374.11</ele>
        <time>2017-02-22T11:12:50Z</time>
      </trkpt>
      <trkpt lat="42.70701" lon="1.16227">
        <ele>2359.21</ele>
        <time>2017-02-22T11:14:45Z</time>
      </trkpt>
      <trkpt lat="42.70739" lon="1.16196">
        <ele>2335.66</ele>
        <time>2017-02-22T11:25:12Z</time>
      </trkpt>
      <trkpt lat="42.70774" lon="1.16154">
        <ele>2334.7</ele>
        <time>2017-02-22T11:27:00Z</time>
      </trkpt>
      <trkpt lat="42.70773" lon="1.16112">
        <ele>2322.68</ele>
        <time>2017-02-22T11:27:18Z</time>
      </trkpt>
      <trkpt lat="42.70791" lon="1.16091">
        <ele>2319.32</ele>
        <time>2017-02-22T11:27:24Z</time>
      </trkpt>
      <trkpt lat="42.70838" lon="1.16043">
        <ele>2329.41</ele>
        <time>2017-02-22T11:28:02Z</time>
      </trkpt>
      <trkpt lat="42.70845" lon="1.16033">
        <ele>2307.3</ele>
        <time>2017-02-22T11:28:18Z</time>
      </trkpt>
      <trkpt lat="42.70844" lon="1.15998">
        <ele>2299.13</ele>
        <time>2017-02-22T11:28:24Z</time>
      </trkpt>
      <trkpt lat="42.70839" lon="1.1594">
        <ele>2280.38</ele>
        <time>2017-02-22T11:28:33Z</time>
      </trkpt>
      <trkpt lat="42.70831" lon="1.1591">
        <ele>2271.25</ele>
        <time>2017-02-22T11:28:38Z</time>
      </trkpt>
      <trkpt lat="42.70832" lon="1.15888">
        <ele>2262.6</ele>
        <time>2017-02-22T11:28:41Z</time>
      </trkpt>
      <trkpt lat="42.70803" lon="1.15882">
        <ele>2255.87</ele>
        <time>2017-02-22T11:29:27Z</time>
      </trkpt>
      <trkpt lat="42.70797" lon="1.15871">
        <ele>2251.54</ele>
        <time>2017-02-22T11:29:30Z</time>
      </trkpt>
      <trkpt lat="42.70801" lon="1.15862">
        <ele>2250.58</ele>
        <time>2017-02-22T11:29:32Z</time>
      </trkpt>
      <trkpt lat="42.70793" lon="1.15856">
        <ele>2247.22</ele>
        <time>2017-02-22T11:29:35Z</time>
      </trkpt>
      <trkpt lat="42.70783" lon="1.15844">
        <ele>2244.33</ele>
        <time>2017-02-22T11:29:39Z</time>
      </trkpt>
      <trkpt lat="42.70757" lon="1.15808">
        <ele>2232.8</ele>
        <time>2017-02-22T11:29:54Z</time>
      </trkpt>
      <trkpt lat="42.70738" lon="1.15813">
        <ele>2227.03</ele>
        <time>2017-02-22T11:30:01Z</time>
      </trkpt>
      <trkpt lat="42.70734" lon="1.1575">
        <ele>2218.86</ele>
        <time>2017-02-22T11:30:16Z</time>
      </trkpt>
      <trkpt lat="42.70724" lon="1.15746">
        <ele>2215.5</ele>
        <time>2017-02-22T11:30:20Z</time>
      </trkpt>
      <trkpt lat="42.70716" lon="1.157">
        <ele>2203.48</ele>
        <time>2017-02-22T11:30:31Z</time>
      </trkpt>
      <trkpt lat="42.70718" lon="1.15675">
        <ele>2201.08</ele>
        <time>2017-02-22T11:30:35Z</time>
      </trkpt>
      <trkpt lat="42.70722" lon="1.15625">
        <ele>2193.39</ele>
        <time>2017-02-22T11:30:41Z</time>
      </trkpt>
      <trkpt lat="42.70723" lon="1.15591">
        <ele>2192.42</ele>
        <time>2017-02-22T11:30:46Z</time>
      </trkpt>
      <trkpt lat="42.70691" lon="1.15579">
        <ele>2177.04</ele>
        <time>2017-02-22T11:30:53Z</time>
      </trkpt>
      <trkpt lat="42.70668" lon="1.15576">
        <ele>2163.1</ele>
        <time>2017-02-22T11:30:58Z</time>
      </trkpt>
      <trkpt lat="42.70672" lon="1.15505">
        <ele>2161.18</ele>
        <time>2017-02-22T11:31:15Z</time>
      </trkpt>
      <trkpt lat="42.70663" lon="1.15513">
        <ele>2156.37</ele>
        <time>2017-02-22T11:31:25Z</time>
      </trkpt>
      <trkpt lat="42.70654" lon="1.1548">
        <ele>2147.24</ele>
        <time>2017-02-22T11:31:34Z</time>
      </trkpt>
      <trkpt lat="42.70671" lon="1.15389">
        <ele>2127.53</ele>
        <time>2017-02-22T11:32:14Z</time>
      </trkpt>
      <trkpt lat="42.70655" lon="1.15363">
        <ele>2109.27</ele>
        <time>2017-02-22T11:32:23Z</time>
      </trkpt>
      <trkpt lat="42.7066" lon="1.15262">
        <ele>2102.54</ele>
        <time>2017-02-22T11:32:43Z</time>
      </trkpt>
      <trkpt lat="42.70661" lon="1.15241">
        <ele>2099.18</ele>
        <time>2017-02-22T11:32:52Z</time>
      </trkpt>
      <trkpt lat="42.70658" lon="1.15205">
        <ele>2087.64</ele>
        <time>2017-02-22T11:33:18Z</time>
      </trkpt>
      <trkpt lat="42.70646" lon="1.15183">
        <ele>2077.55</ele>
        <time>2017-02-22T11:33:37Z</time>
      </trkpt>
      <trkpt lat="42.70667" lon="1.15161">
        <ele>2068.41</ele>
        <time>2017-02-22T11:33:56Z</time>
      </trkpt>
      <trkpt lat="42.7065" lon="1.15149">
        <ele>2063.61</ele>
        <time>2017-02-22T11:34:09Z</time>
      </trkpt>
      <trkpt lat="42.70681" lon="1.15117">
        <ele>2050.15</ele>
        <time>2017-02-22T11:34:29Z</time>
      </trkpt>
      <trkpt lat="42.70667" lon="1.15101">
        <ele>2044.86</ele>
        <time>2017-02-22T11:34:42Z</time>
      </trkpt>
      <trkpt lat="42.70664" lon="1.1507">
        <ele>2033.81</ele>
        <time>2017-02-22T11:34:51Z</time>
      </trkpt>
      <trkpt lat="42.70673" lon="1.15043">
        <ele>2023.71</ele>
        <time>2017-02-22T11:35:03Z</time>
      </trkpt>
      <trkpt lat="42.70658" lon="1.15028">
        <ele>2016.98</ele>
        <time>2017-02-22T11:35:11Z</time>
      </trkpt>
      <trkpt lat="42.70655" lon="1.14999">
        <ele>2004.49</ele>
        <time>2017-02-22T11:35:28Z</time>
      </trkpt>
      <trkpt lat="42.70657" lon="1.14948">
        <ele>1991.03</ele>
        <time>2017-02-22T11:35:53Z</time>
      </trkpt>
      <trkpt lat="42.70643" lon="1.14943">
        <ele>1987.66</ele>
        <time>2017-02-22T11:36:07Z</time>
      </trkpt>
      <trkpt lat="42.70662" lon="1.14898">
        <ele>1984.78</ele>
        <time>2017-02-22T11:36:35Z</time>
      </trkpt>
      <trkpt lat="42.70663" lon="1.14896">
        <ele>1981.41</ele>
        <time>2017-02-22T11:38:08Z</time>
      </trkpt>
      <trkpt lat="42.707" lon="1.14902">
        <ele>1969.4</ele>
        <time>2017-02-22T11:39:50Z</time>
      </trkpt>
      <trkpt lat="42.70713" lon="1.14837">
        <ele>1960.27</ele>
        <time>2017-02-22T11:40:06Z</time>
      </trkpt>
      <trkpt lat="42.70697" lon="1.14786">
        <ele>1951.13</ele>
        <time>2017-02-22T11:40:16Z</time>
      </trkpt>
      <trkpt lat="42.70732" lon="1.14668">
        <ele>1928.54</ele>
        <time>2017-02-22T11:40:40Z</time>
      </trkpt>
      <trkpt lat="42.70728" lon="1.14658">
        <ele>1924.7</ele>
        <time>2017-02-22T11:40:42Z</time>
      </trkpt>
      <trkpt lat="42.70718" lon="1.14625">
        <ele>1919.89</ele>
        <time>2017-02-22T11:40:46Z</time>
      </trkpt>
      <trkpt lat="42.70727" lon="1.14606">
        <ele>1915.08</ele>
        <time>2017-02-22T11:40:50Z</time>
      </trkpt>
      <trkpt lat="42.70772" lon="1.14594">
        <ele>1912.68</ele>
        <time>2017-02-22T11:41:01Z</time>
      </trkpt>
      <trkpt lat="42.70794" lon="1.1459">
        <ele>1909.32</ele>
        <time>2017-02-22T11:41:05Z</time>
      </trkpt>
      <trkpt lat="42.70815" lon="1.14579">
        <ele>1906.43</ele>
        <time>2017-02-22T11:41:08Z</time>
      </trkpt>
      <trkpt lat="42.70831" lon="1.14556">
        <ele>1907.87</ele>
        <time>2017-02-22T11:41:12Z</time>
      </trkpt>
      <trkpt lat="42.70842" lon="1.14485">
        <ele>1906.91</ele>
        <time>2017-02-22T11:41:30Z</time>
      </trkpt>
      <trkpt lat="42.70867" lon="1.14445">
        <ele>1920.37</ele>
        <time>2017-02-22T11:42:02Z</time>
      </trkpt>
      <trkpt lat="42.70916" lon="1.14381">
        <ele>1899.22</ele>
        <time>2017-02-22T11:42:35Z</time>
      </trkpt>
      <trkpt lat="42.70976" lon="1.14258">
        <ele>1882.88</ele>
        <time>2017-02-22T11:42:59Z</time>
      </trkpt>
      <trkpt lat="42.71008" lon="1.1424">
        <ele>1877.11</ele>
        <time>2017-02-22T11:43:05Z</time>
      </trkpt>
      <trkpt lat="42.71012" lon="1.14204">
        <ele>1874.71</ele>
        <time>2017-02-22T11:43:10Z</time>
      </trkpt>
      <trkpt lat="42.71033" lon="1.1419">
        <ele>1867.5</ele>
        <time>2017-02-22T11:44:00Z</time>
      </trkpt>
      <trkpt lat="42.71043" lon="1.14156">
        <ele>1860.29</ele>
        <time>2017-02-22T11:44:08Z</time>
      </trkpt>
      <trkpt lat="42.71048" lon="1.14136">
        <ele>1856.44</ele>
        <time>2017-02-22T11:44:12Z</time>
      </trkpt>
      <trkpt lat="42.71063" lon="1.14122">
        <ele>1850.19</ele>
        <time>2017-02-22T11:44:19Z</time>
      </trkpt>
      <trkpt lat="42.7107" lon="1.14061">
        <ele>1832.41</ele>
        <time>2017-02-22T11:44:34Z</time>
      </trkpt>
      <trkpt lat="42.71059" lon="1.14009">
        <ele>1828.56</ele>
        <time>2017-02-22T11:44:41Z</time>
      </trkpt>
      <trkpt lat="42.71084" lon="1.13991">
        <ele>1824.24</ele>
        <time>2017-02-22T11:45:20Z</time>
      </trkpt>
      <trkpt lat="42.71088" lon="1.13961">
        <ele>1812.22</ele>
        <time>2017-02-22T11:46:00Z</time>
      </trkpt>
      <trkpt lat="42.71108" lon="1.13953">
        <ele>1806.45</ele>
        <time>2017-02-22T11:46:04Z</time>
      </trkpt>
      <trkpt lat="42.71148" lon="1.13929">
        <ele>1800.69</ele>
        <time>2017-02-22T11:46:10Z</time>
      </trkpt>
      <trkpt lat="42.71189" lon="1.13878">
        <ele>1795.4</ele>
        <time>2017-02-22T11:46:24Z</time>
      </trkpt>
      <trkpt lat="42.71188" lon="1.13857">
        <ele>1785.79</ele>
        <time>2017-02-22T11:46:30Z</time>
      </trkpt>
      <trkpt lat="42.71211" lon="1.13799">
        <ele>1780.5</ele>
        <time>2017-02-22T11:46:39Z</time>
      </trkpt>
      <trkpt lat="42.71209" lon="1.13741">
        <ele>1779.54</ele>
        <time>2017-02-22T11:46:53Z</time>
      </trkpt>
      <trkpt lat="42.71207" lon="1.13674">
        <ele>1775.69</ele>
        <time>2017-02-22T11:47:09Z</time>
      </trkpt>
      <trkpt lat="42.71214" lon="1.1362">
        <ele>1770.89</ele>
        <time>2017-02-22T11:47:19Z</time>
      </trkpt>
      <trkpt lat="42.71248" lon="1.136">
        <ele>1784.82</ele>
        <time>2017-02-22T11:51:22Z</time>
      </trkpt>
      <trkpt lat="42.71305" lon="1.13474">
        <ele>1755.5</ele>
        <time>2017-02-22T11:53:07Z</time>
      </trkpt>
      <trkpt lat="42.71333" lon="1.1342">
        <ele>1740.12</ele>
        <time>2017-02-22T11:53:24Z</time>
      </trkpt>
      <trkpt lat="42.71369" lon="1.13386">
        <ele>1736.76</ele>
        <time>2017-02-22T11:53:32Z</time>
      </trkpt>
      <trkpt lat="42.71361" lon="1.13369">
        <ele>1732.43</ele>
        <time>2017-02-22T11:53:37Z</time>
      </trkpt>
      <trkpt lat="42.71379" lon="1.13338">
        <ele>1722.82</ele>
        <time>2017-02-22T11:53:55Z</time>
      </trkpt>
      <trkpt lat="42.71362" lon="1.13311">
        <ele>1714.17</ele>
        <time>2017-02-22T11:54:04Z</time>
      </trkpt>
      <trkpt lat="42.71368" lon="1.13273">
        <ele>1705.04</ele>
        <time>2017-02-22T11:54:12Z</time>
      </trkpt>
      <trkpt lat="42.71412" lon="1.13234">
        <ele>1699.27</ele>
        <time>2017-02-22T11:55:19Z</time>
      </trkpt>
      <trkpt lat="42.71415" lon="1.13231">
        <ele>1696.86</ele>
        <time>2017-02-22T11:55:25Z</time>
      </trkpt>
      <trkpt lat="42.71388" lon="1.13202">
        <ele>1693.98</ele>
        <time>2017-02-22T11:57:06Z</time>
      </trkpt>
      <trkpt lat="42.71393" lon="1.1319">
        <ele>1680.04</ele>
        <time>2017-02-22T11:58:20Z</time>
      </trkpt>
      <trkpt lat="42.71397" lon="1.13169">
        <ele>1677.64</ele>
        <time>2017-02-22T11:58:36Z</time>
      </trkpt>
      <trkpt lat="42.71396" lon="1.13168">
        <ele>1676.2</ele>
        <time>2017-02-22T11:58:37Z</time>
      </trkpt>
      <trkpt lat="42.71413" lon="1.13134">
        <ele>1678.12</ele>
        <time>2017-02-22T11:59:47Z</time>
      </trkpt>
      <trkpt lat="42.7143" lon="1.13126">
        <ele>1691.58</ele>
        <time>2017-02-22T12:00:35Z</time>
      </trkpt>
      <trkpt lat="42.7143" lon="1.13126">
        <ele>1696.86</ele>
        <time>2017-02-22T12:00:39Z</time>
      </trkpt>
      <trkpt lat="42.71468" lon="1.13069">
        <ele>1676.68</ele>
        <time>2017-02-22T12:06:58Z</time>
      </trkpt>
      <trkpt lat="42.71465" lon="1.13062">
        <ele>1674.27</ele>
        <time>2017-02-22T12:07:06Z</time>
      </trkpt>
      <trkpt lat="42.71466" lon="1.13043">
        <ele>1668.99</ele>
        <time>2017-02-22T12:07:13Z</time>
      </trkpt>
      <trkpt lat="42.71483" lon="1.12999">
        <ele>1662.26</ele>
        <time>2017-02-22T12:07:30Z</time>
      </trkpt>
      <trkpt lat="42.71493" lon="1.12988">
        <ele>1659.85</ele>
        <time>2017-02-22T12:07:36Z</time>
      </trkpt>
      <trkpt lat="42.71511" lon="1.12977">
        <ele>1658.41</ele>
        <time>2017-02-22T12:08:01Z</time>
      </trkpt>
      <trkpt lat="42.71472" lon="1.12892">
        <ele>1643.51</ele>
        <time>2017-02-22T12:17:22Z</time>
      </trkpt>
      <trkpt lat="42.71489" lon="1.12839">
        <ele>1620.44</ele>
        <time>2017-02-22T12:19:30Z</time>
      </trkpt>
      <trkpt lat="42.7149" lon="1.12799">
        <ele>1617.07</ele>
        <time>2017-02-22T12:19:44Z</time>
      </trkpt>
      <trkpt lat="42.71489" lon="1.12764">
        <ele>1614.67</ele>
        <time>2017-02-22T12:20:03Z</time>
      </trkpt>
      <trkpt lat="42.71517" lon="1.12646">
        <ele>1583.43</ele>
        <time>2017-02-22T12:29:14Z</time>
      </trkpt>
      <trkpt lat="42.71516" lon="1.12634">
        <ele>1580.06</ele>
        <time>2017-02-22T12:29:48Z</time>
      </trkpt>
      <trkpt lat="42.71512" lon="1.12607">
        <ele>1575.26</ele>
        <time>2017-02-22T12:30:24Z</time>
      </trkpt>
      <trkpt lat="42.71507" lon="1.12597">
        <ele>1574.3</ele>
        <time>2017-02-22T12:30:31Z</time>
      </trkpt>
      <trkpt lat="42.71491" lon="1.12563">
        <ele>1580.06</ele>
        <time>2017-02-22T12:31:12Z</time>
      </trkpt>
      <trkpt lat="42.71512" lon="1.12455">
        <ele>1561.32</ele>
        <time>2017-02-22T12:34:42Z</time>
      </trkpt>
      <trkpt lat="42.71515" lon="1.12444">
        <ele>1552.19</ele>
        <time>2017-02-22T12:35:05Z</time>
      </trkpt>
      <trkpt lat="42.7152" lon="1.12434">
        <ele>1557.95</ele>
        <time>2017-02-22T12:37:09Z</time>
      </trkpt>
      <trkpt lat="42.71518" lon="1.12435">
        <ele>1549.78</ele>
        <time>2017-02-22T12:46:25Z</time>
      </trkpt>
      <trkpt lat="42.71525" lon="1.12424">
        <ele>1548.82</ele>
        <time>2017-02-22T12:46:57Z</time>
      </trkpt>
      <trkpt lat="42.71541" lon="1.12371">
        <ele>1540.65</ele>
        <time>2017-02-22T12:48:16Z</time>
      </trkpt>
      <trkpt lat="42.71556" lon="1.12331">
        <ele>1535.36</ele>
        <time>2017-02-22T12:49:13Z</time>
      </trkpt>
      <trkpt lat="42.7157" lon="1.12311">
        <ele>1530.08</ele>
        <time>2017-02-22T12:50:03Z</time>
      </trkpt>
      <trkpt lat="42.71581" lon="1.12273">
        <ele>1524.79</ele>
        <time>2017-02-22T12:50:42Z</time>
      </trkpt>
      <trkpt lat="42.71594" lon="1.12228">
        <ele>1519.5</ele>
        <time>2017-02-22T12:51:25Z</time>
      </trkpt>
      <trkpt lat="42.71601" lon="1.12209">
        <ele>1517.58</ele>
        <time>2017-02-22T12:51:40Z</time>
      </trkpt>
      <trkpt lat="42.71607" lon="1.12168">
        <ele>1516.14</ele>
        <time>2017-02-22T12:52:14Z</time>
      </trkpt>
      <trkpt lat="42.71634" lon="1.12065">
        <ele>1494.03</ele>
        <time>2017-02-22T12:54:26Z</time>
      </trkpt>
      <trkpt lat="42.71596" lon="1.1207">
        <ele>1481.53</ele>
        <time>2017-02-22T12:55:23Z</time>
      </trkpt>
      <trkpt lat="42.71584" lon="1.12045">
        <ele>1478.16</ele>
        <time>2017-02-22T12:55:55Z</time>
      </trkpt>
      <trkpt lat="42.71578" lon="1.12044">
        <ele>1470.95</ele>
        <time>2017-02-22T12:56:13Z</time>
      </trkpt>
      <trkpt lat="42.71562" lon="1.11968">
        <ele>1460.86</ele>
        <time>2017-02-22T12:57:22Z</time>
      </trkpt>
      <trkpt lat="42.71556" lon="1.1194">
        <ele>1453.17</ele>
        <time>2017-02-22T12:57:53Z</time>
      </trkpt>
      <trkpt lat="42.71529" lon="1.11879">
        <ele>1436.83</ele>
        <time>2017-02-22T12:58:57Z</time>
      </trkpt>
      <trkpt lat="42.71531" lon="1.11833">
        <ele>1422.89</ele>
        <time>2017-02-22T12:59:46Z</time>
      </trkpt>
      <trkpt lat="42.71517" lon="1.11821">
        <ele>1419.52</ele>
        <time>2017-02-22T13:00:30Z</time>
      </trkpt>
      <trkpt lat="42.71517" lon="1.11821">
        <ele>1418.08</ele>
        <time>2017-02-22T13:01:15Z</time>
      </trkpt>
      <trkpt lat="42.71526" lon="1.1182">
        <ele>1412.79</ele>
        <time>2017-02-22T13:28:49Z</time>
      </trkpt>
      <trkpt lat="42.71483" lon="1.11836">
        <ele>1404.62</ele>
        <time>2017-02-22T13:30:15Z</time>
      </trkpt>
      <trkpt lat="42.71463" lon="1.11833">
        <ele>1398.86</ele>
        <time>2017-02-22T13:30:50Z</time>
      </trkpt>
      <trkpt lat="42.71485" lon="1.11795">
        <ele>1392.13</ele>
        <time>2017-02-22T13:31:26Z</time>
      </trkpt>
      <trkpt lat="42.71474" lon="1.11799">
        <ele>1390.2</ele>
        <time>2017-02-22T13:31:44Z</time>
      </trkpt>
      <trkpt lat="42.71457" lon="1.11802">
        <ele>1387.32</ele>
        <time>2017-02-22T13:32:03Z</time>
      </trkpt>
      <trkpt lat="42.71477" lon="1.11776">
        <ele>1382.03</ele>
        <time>2017-02-22T13:32:34Z</time>
      </trkpt>
      <trkpt lat="42.71542" lon="1.1174">
        <ele>1369.05</ele>
        <time>2017-02-22T13:33:51Z</time>
      </trkpt>
      <trkpt lat="42.71604" lon="1.11718">
        <ele>1358.96</ele>
        <time>2017-02-22T13:34:59Z</time>
      </trkpt>
      <trkpt lat="42.71602" lon="1.11709">
        <ele>1357.04</ele>
        <time>2017-02-22T13:35:14Z</time>
      </trkpt>
      <trkpt lat="42.71571" lon="1.11706">
        <ele>1351.27</ele>
        <time>2017-02-22T13:35:44Z</time>
      </trkpt>
      <trkpt lat="42.71546" lon="1.11676">
        <ele>1345.5</ele>
        <time>2017-02-22T13:36:17Z</time>
      </trkpt>
      <trkpt lat="42.71495" lon="1.11633">
        <ele>1331.56</ele>
        <time>2017-02-22T13:37:23Z</time>
      </trkpt>
      <trkpt lat="42.71453" lon="1.11619">
        <ele>1324.35</ele>
        <time>2017-02-22T13:38:06Z</time>
      </trkpt>
      <trkpt lat="42.71396" lon="1.11571">
        <ele>1329.16</ele>
        <time>2017-02-22T13:40:09Z</time>
      </trkpt>
      <trkpt lat="42.71404" lon="1.11566">
        <ele>1337.33</ele>
        <time>2017-02-22T13:43:50Z</time>
      </trkpt>
      <trkpt lat="42.71386" lon="1.1156">
        <ele>1331.08</ele>
        <time>2017-02-22T13:45:05Z</time>
      </trkpt>
      <trkpt lat="42.71316" lon="1.11505">
        <ele>1336.37</ele>
        <time>2017-02-22T13:46:26Z</time>
      </trkpt>
      <trkpt lat="42.71294" lon="1.11454">
        <ele>1340.22</ele>
        <time>2017-02-22T13:47:12Z</time>
      </trkpt>
      <trkpt lat="42.71287" lon="1.11403">
        <ele>1338.77</ele>
        <time>2017-02-22T13:47:45Z</time>
      </trkpt>
      <trkpt lat="42.71278" lon="1.11375">
        <ele>1338.29</ele>
        <time>2017-02-22T13:48:04Z</time>
      </trkpt>
      <trkpt lat="42.71242" lon="1.11286">
        <ele>1337.81</ele>
        <time>2017-02-22T13:49:17Z</time>
      </trkpt>
      <trkpt lat="42.71211" lon="1.11165">
        <ele>1328.2</ele>
        <time>2017-02-22T13:50:43Z</time>
      </trkpt>
      <trkpt lat="42.71152" lon="1.11059">
        <ele>1318.1</ele>
        <time>2017-02-22T13:52:03Z</time>
      </trkpt>
      <trkpt lat="42.71094" lon="1.11019">
        <ele>1312.82</ele>
        <time>2017-02-22T13:53:08Z</time>
      </trkpt>
      <trkpt lat="42.71081" lon="1.11008">
        <ele>1310.9</ele>
        <time>2017-02-22T13:53:27Z</time>
      </trkpt>
      <trkpt lat="42.70987" lon="1.10861">
        <ele>1302.72</ele>
        <time>2017-02-22T13:55:23Z</time>
      </trkpt>
      <trkpt lat="42.70937" lon="1.10826">
        <ele>1299.36</ele>
        <time>2017-02-22T13:56:23Z</time>
      </trkpt>
      <trkpt lat="42.70926" lon="1.10828">
        <ele>1297.44</ele>
        <time>2017-02-22T13:57:44Z</time>
      </trkpt>
      <trkpt lat="42.70865" lon="1.10791">
        <ele>1291.67</ele>
        <time>2017-02-22T13:57:58Z</time>
      </trkpt>
      <trkpt lat="42.70767" lon="1.10708">
        <ele>1289.27</ele>
        <time>2017-02-22T13:58:14Z</time>
      </trkpt>
      <trkpt lat="42.70733" lon="1.10569">
        <ele>1286.38</ele>
        <time>2017-02-22T13:58:29Z</time>
      </trkpt>
      <trkpt lat="42.70715" lon="1.10433">
        <ele>1283.98</ele>
        <time>2017-02-22T13:58:42Z</time>
      </trkpt>
      <trkpt lat="42.70641" lon="1.10318">
        <ele>1287.82</ele>
        <time>2017-02-22T13:58:57Z</time>
      </trkpt>
      <trkpt lat="42.70628" lon="1.10257">
        <ele>1290.23</ele>
        <time>2017-02-22T13:59:04Z</time>
      </trkpt>
      <trkpt lat="42.70619" lon="1.10207">
        <ele>1289.75</ele>
        <time>2017-02-22T13:59:09Z</time>
      </trkpt>
      <trkpt lat="42.70579" lon="1.10155">
        <ele>1286.38</ele>
        <time>2017-02-22T13:59:16Z</time>
      </trkpt>
      <trkpt lat="42.70463" lon="1.10108">
        <ele>1282.54</ele>
        <time>2017-02-22T13:59:29Z</time>
      </trkpt>
      <trkpt lat="42.70376" lon="1.10063">
        <ele>1276.29</ele>
        <time>2017-02-22T13:59:38Z</time>
      </trkpt>
      <trkpt lat="42.70249" lon="1.10123">
        <ele>1275.81</ele>
        <time>2017-02-22T13:59:53Z</time>
      </trkpt>
      <trkpt lat="42.70218" lon="1.10142">
        <ele>1277.25</ele>
        <time>2017-02-22T13:59:57Z</time>
      </trkpt>
      <trkpt lat="42.7017" lon="1.10136">
        <ele>1276.29</ele>
        <time>2017-02-22T14:00:02Z</time>
      </trkpt>
      <trkpt lat="42.70098" lon="1.10099">
        <ele>1274.36</ele>
        <time>2017-02-22T14:00:09Z</time>
      </trkpt>
      <trkpt lat="42.70045" lon="1.10031">
        <ele>1272.92</ele>
        <time>2017-02-22T14:00:16Z</time>
      </trkpt>
      <trkpt lat="42.70011" lon="1.09874">
        <ele>1275.81</ele>
        <time>2017-02-22T14:00:30Z</time>
      </trkpt>
      <trkpt lat="42.69931" lon="1.09792">
        <ele>1271.96</ele>
        <time>2017-02-22T14:00:42Z</time>
      </trkpt>
      <trkpt lat="42.69908" lon="1.09766">
        <ele>1276.29</ele>
        <time>2017-02-22T14:00:48Z</time>
      </trkpt>
      <trkpt lat="42.69898" lon="1.09744">
        <ele>1280.13</ele>
        <time>2017-02-22T14:00:53Z</time>
      </trkpt>
      <trkpt lat="42.69907" lon="1.09722">
        <ele>1284.46</ele>
        <time>2017-02-22T14:00:59Z</time>
      </trkpt>
      <trkpt lat="42.69979" lon="1.09785">
        <ele>1288.3</ele>
        <time>2017-02-22T14:01:05Z</time>
      </trkpt>
      <trkpt lat="42.69985" lon="1.098">
        <ele>1289.75</ele>
        <time>2017-02-22T14:01:07Z</time>
      </trkpt>
      <trkpt lat="42.70012" lon="1.09807">
        <ele>1289.75</ele>
        <time>2017-02-22T14:01:22Z</time>
      </trkpt>
      <trkpt lat="42.69992" lon="1.09787">
        <ele>1290.71</ele>
        <time>2017-02-22T14:04:48Z</time>
      </trkpt>
      <trkpt lat="42.69994" lon="1.09777">
        <ele>1292.15</ele>
        <time>2017-02-22T14:05:57Z</time>
      </trkpt>
      <trkpt lat="42.69994" lon="1.09777">
        <ele>1291.19</ele>
        <time>2017-02-22T14:06:03Z</time>
      </trkpt>
    </trkseg>
  </trk>
  <trk>
    <name><![CDATA[TPS3_J4 23 FEV 2017 08:29]]></name>
    <trkseg>
      <trkpt lat="42.69963" lon="1.09778">
        <ele>1263.79</ele>
        <time>2017-02-23T07:29:31Z</time>
      </trkpt>
      <trkpt lat="42.69992" lon="1.09782">
        <ele>1300.8</ele>
        <time>2017-02-23T07:35:35Z</time>
      </trkpt>
      <trkpt lat="42.7" lon="1.09775">
        <ele>1287.34</ele>
        <time>2017-02-23T07:38:37Z</time>
      </trkpt>
      <trkpt lat="42.69998" lon="1.09781">
        <ele>1285.42</ele>
        <time>2017-02-23T07:38:44Z</time>
      </trkpt>
      <trkpt lat="42.70007" lon="1.09784">
        <ele>1286.38</ele>
        <time>2017-02-23T07:39:06Z</time>
      </trkpt>
      <trkpt lat="42.70019" lon="1.09766">
        <ele>1291.19</ele>
        <time>2017-02-23T07:39:38Z</time>
      </trkpt>
      <trkpt lat="42.70026" lon="1.09733">
        <ele>1295.51</ele>
        <time>2017-02-23T07:40:20Z</time>
      </trkpt>
      <trkpt lat="42.70054" lon="1.09691">
        <ele>1304.65</ele>
        <time>2017-02-23T07:42:36Z</time>
      </trkpt>
      <trkpt lat="42.70078" lon="1.09667">
        <ele>1308.97</ele>
        <time>2017-02-23T07:44:14Z</time>
      </trkpt>
      <trkpt lat="42.70075" lon="1.09695">
        <ele>1305.61</ele>
        <time>2017-02-23T07:45:17Z</time>
      </trkpt>
      <trkpt lat="42.7008" lon="1.0961">
        <ele>1317.62</ele>
        <time>2017-02-23T07:49:00Z</time>
      </trkpt>
      <trkpt lat="42.7011" lon="1.09553">
        <ele>1330.12</ele>
        <time>2017-02-23T07:51:03Z</time>
      </trkpt>
      <trkpt lat="42.70107" lon="1.09527">
        <ele>1335.89</ele>
        <time>2017-02-23T07:52:19Z</time>
      </trkpt>
      <trkpt lat="42.70107" lon="1.09504">
        <ele>1336.85</ele>
        <time>2017-02-23T07:52:40Z</time>
      </trkpt>
      <trkpt lat="42.70104" lon="1.09465">
        <ele>1334.93</ele>
        <time>2017-02-23T07:53:07Z</time>
      </trkpt>
      <trkpt lat="42.70151" lon="1.09375">
        <ele>1353.67</ele>
        <time>2017-02-23T07:56:52Z</time>
      </trkpt>
      <trkpt lat="42.70161" lon="1.0935">
        <ele>1356.08</ele>
        <time>2017-02-23T07:57:31Z</time>
      </trkpt>
      <trkpt lat="42.70195" lon="1.09317">
        <ele>1368.57</ele>
        <time>2017-02-23T07:59:55Z</time>
      </trkpt>
      <trkpt lat="42.7025" lon="1.09287">
        <ele>1379.63</ele>
        <time>2017-02-23T08:01:56Z</time>
      </trkpt>
      <trkpt lat="42.70275" lon="1.09291">
        <ele>1392.61</ele>
        <time>2017-02-23T08:04:13Z</time>
      </trkpt>
      <trkpt lat="42.70249" lon="1.0933">
        <ele>1399.82</ele>
        <time>2017-02-23T08:05:40Z</time>
      </trkpt>
      <trkpt lat="42.70234" lon="1.09355">
        <ele>1402.22</ele>
        <time>2017-02-23T08:06:06Z</time>
      </trkpt>
      <trkpt lat="42.70238" lon="1.09356">
        <ele>1404.62</ele>
        <time>2017-02-23T08:06:23Z</time>
      </trkpt>
      <trkpt lat="42.703" lon="1.0935">
        <ele>1428.66</ele>
        <time>2017-02-23T08:10:04Z</time>
      </trkpt>
      <trkpt lat="42.70352" lon="1.09325">
        <ele>1440.67</ele>
        <time>2017-02-23T08:12:21Z</time>
      </trkpt>
      <trkpt lat="42.7039" lon="1.09287">
        <ele>1441.63</ele>
        <time>2017-02-23T08:13:12Z</time>
      </trkpt>
      <trkpt lat="42.70437" lon="1.0914">
        <ele>1457.02</ele>
        <time>2017-02-23T08:17:43Z</time>
      </trkpt>
      <trkpt lat="42.70439" lon="1.09054">
        <ele>1474.32</ele>
        <time>2017-02-23T08:20:49Z</time>
      </trkpt>
      <trkpt lat="42.70456" lon="1.09047">
        <ele>1482.49</ele>
        <time>2017-02-23T08:21:58Z</time>
      </trkpt>
      <trkpt lat="42.70456" lon="1.09">
        <ele>1493.55</ele>
        <time>2017-02-23T08:23:41Z</time>
      </trkpt>
      <trkpt lat="42.70465" lon="1.0895">
        <ele>1496.91</ele>
        <time>2017-02-23T08:25:04Z</time>
      </trkpt>
      <trkpt lat="42.70463" lon="1.08931">
        <ele>1496.43</ele>
        <time>2017-02-23T08:25:33Z</time>
      </trkpt>
      <trkpt lat="42.70454" lon="1.08872">
        <ele>1495.47</ele>
        <time>2017-02-23T08:26:41Z</time>
      </trkpt>
      <trkpt lat="42.70483" lon="1.08818">
        <ele>1506.52</ele>
        <time>2017-02-23T08:28:42Z</time>
      </trkpt>
      <trkpt lat="42.7049" lon="1.08818">
        <ele>1509.41</ele>
        <time>2017-02-23T08:29:14Z</time>
      </trkpt>
      <trkpt lat="42.70499" lon="1.08803">
        <ele>1512.29</ele>
        <time>2017-02-23T08:29:48Z</time>
      </trkpt>
      <trkpt lat="42.70498" lon="1.08795">
        <ele>1508.93</ele>
        <time>2017-02-23T08:29:58Z</time>
      </trkpt>
      <trkpt lat="42.70498" lon="1.08793">
        <ele>1514.69</ele>
        <time>2017-02-23T08:29:59Z</time>
      </trkpt>
      <trkpt lat="42.70498" lon="1.08789">
        <ele>1513.73</ele>
        <time>2017-02-23T08:30:19Z</time>
      </trkpt>
      <trkpt lat="42.70494" lon="1.08783">
        <ele>1516.14</ele>
        <time>2017-02-23T08:30:41Z</time>
      </trkpt>
      <trkpt lat="42.70495" lon="1.08776">
        <ele>1518.06</ele>
        <time>2017-02-23T08:30:58Z</time>
      </trkpt>
      <trkpt lat="42.7049" lon="1.08766">
        <ele>1521.42</ele>
        <time>2017-02-23T08:31:29Z</time>
      </trkpt>
      <trkpt lat="42.70492" lon="1.08755">
        <ele>1527.19</ele>
        <time>2017-02-23T08:32:20Z</time>
      </trkpt>
      <trkpt lat="42.70489" lon="1.08744">
        <ele>1529.11</ele>
        <time>2017-02-23T08:32:39Z</time>
      </trkpt>
      <trkpt lat="42.70483" lon="1.08721">
        <ele>1533.92</ele>
        <time>2017-02-23T08:33:24Z</time>
      </trkpt>
      <trkpt lat="42.70489" lon="1.08702">
        <ele>1540.17</ele>
        <time>2017-02-23T08:34:18Z</time>
      </trkpt>
      <trkpt lat="42.7049" lon="1.0869">
        <ele>1541.13</ele>
        <time>2017-02-23T08:34:34Z</time>
      </trkpt>
      <trkpt lat="42.70467" lon="1.08637">
        <ele>1552.67</ele>
        <time>2017-02-23T08:36:40Z</time>
      </trkpt>
      <trkpt lat="42.70466" lon="1.08621">
        <ele>1556.99</ele>
        <time>2017-02-23T08:37:31Z</time>
      </trkpt>
      <trkpt lat="42.70462" lon="1.08611">
        <ele>1558.43</ele>
        <time>2017-02-23T08:37:46Z</time>
      </trkpt>
      <trkpt lat="42.70445" lon="1.08573">
        <ele>1564.68</ele>
        <time>2017-02-23T08:39:03Z</time>
      </trkpt>
      <trkpt lat="42.70399" lon="1.08503">
        <ele>1576.7</ele>
        <time>2017-02-23T08:41:25Z</time>
      </trkpt>
      <trkpt lat="42.70396" lon="1.08476">
        <ele>1592.56</ele>
        <time>2017-02-23T08:44:05Z</time>
      </trkpt>
      <trkpt lat="42.7034" lon="1.08331">
        <ele>1616.59</ele>
        <time>2017-02-23T08:58:59Z</time>
      </trkpt>
      <trkpt lat="42.70348" lon="1.08227">
        <ele>1638.22</ele>
        <time>2017-02-23T09:02:48Z</time>
      </trkpt>
      <trkpt lat="42.70347" lon="1.08175">
        <ele>1644.47</ele>
        <time>2017-02-23T09:04:00Z</time>
      </trkpt>
      <trkpt lat="42.7036" lon="1.08155">
        <ele>1652.16</ele>
        <time>2017-02-23T09:05:03Z</time>
      </trkpt>
      <trkpt lat="42.70363" lon="1.08159">
        <ele>1654.09</ele>
        <time>2017-02-23T09:05:22Z</time>
      </trkpt>
      <trkpt lat="42.70392" lon="1.08157">
        <ele>1665.14</ele>
        <time>2017-02-23T09:08:03Z</time>
      </trkpt>
      <trkpt lat="42.70411" lon="1.0809">
        <ele>1692.54</ele>
        <time>2017-02-23T09:12:18Z</time>
      </trkpt>
      <trkpt lat="42.70451" lon="1.07951">
        <ele>1701.19</ele>
        <time>2017-02-23T09:17:18Z</time>
      </trkpt>
      <trkpt lat="42.7043" lon="1.0793">
        <ele>1699.27</ele>
        <time>2017-02-23T09:18:07Z</time>
      </trkpt>
      <trkpt lat="42.70425" lon="1.07904">
        <ele>1708.4</ele>
        <time>2017-02-23T09:18:35Z</time>
      </trkpt>
      <trkpt lat="42.7042" lon="1.07836">
        <ele>1706.48</ele>
        <time>2017-02-23T09:20:13Z</time>
      </trkpt>
      <trkpt lat="42.70423" lon="1.0782">
        <ele>1709.84</ele>
        <time>2017-02-23T09:21:09Z</time>
      </trkpt>
      <trkpt lat="42.70426" lon="1.07816">
        <ele>1711.28</ele>
        <time>2017-02-23T09:22:09Z</time>
      </trkpt>
      <trkpt lat="42.7041" lon="1.07794">
        <ele>1716.57</ele>
        <time>2017-02-23T09:23:00Z</time>
      </trkpt>
      <trkpt lat="42.70419" lon="1.07763">
        <ele>1725.22</ele>
        <time>2017-02-23T09:24:30Z</time>
      </trkpt>
      <trkpt lat="42.70418" lon="1.07709">
        <ele>1733.39</ele>
        <time>2017-02-23T09:26:02Z</time>
      </trkpt>
      <trkpt lat="42.70429" lon="1.07702">
        <ele>1736.28</ele>
        <time>2017-02-23T09:26:39Z</time>
      </trkpt>
      <trkpt lat="42.70428" lon="1.07698">
        <ele>1737.24</ele>
        <time>2017-02-23T09:27:05Z</time>
      </trkpt>
      <trkpt lat="42.70413" lon="1.07605">
        <ele>1762.71</ele>
        <time>2017-02-23T09:31:29Z</time>
      </trkpt>
      <trkpt lat="42.70414" lon="1.07578">
        <ele>1767.52</ele>
        <time>2017-02-23T09:32:20Z</time>
      </trkpt>
      <trkpt lat="42.70406" lon="1.07567">
        <ele>1770.89</ele>
        <time>2017-02-23T09:32:56Z</time>
      </trkpt>
      <trkpt lat="42.70427" lon="1.07552">
        <ele>1776.17</ele>
        <time>2017-02-23T09:33:50Z</time>
      </trkpt>
      <trkpt lat="42.70421" lon="1.07526">
        <ele>1781.46</ele>
        <time>2017-02-23T09:34:39Z</time>
      </trkpt>
      <trkpt lat="42.70427" lon="1.07522">
        <ele>1782.9</ele>
        <time>2017-02-23T09:34:54Z</time>
      </trkpt>
      <trkpt lat="42.70434" lon="1.07505">
        <ele>1788.67</ele>
        <time>2017-02-23T09:35:45Z</time>
      </trkpt>
      <trkpt lat="42.70444" lon="1.07482">
        <ele>1794.92</ele>
        <time>2017-02-23T09:36:40Z</time>
      </trkpt>
      <trkpt lat="42.70438" lon="1.07469">
        <ele>1798.76</ele>
        <time>2017-02-23T09:37:14Z</time>
      </trkpt>
      <trkpt lat="42.70435" lon="1.07446">
        <ele>1800.69</ele>
        <time>2017-02-23T09:37:47Z</time>
      </trkpt>
      <trkpt lat="42.70414" lon="1.07434">
        <ele>1806.45</ele>
        <time>2017-02-23T09:38:44Z</time>
      </trkpt>
      <trkpt lat="42.70403" lon="1.07386">
        <ele>1809.82</ele>
        <time>2017-02-23T09:39:36Z</time>
      </trkpt>
      <trkpt lat="42.70375" lon="1.07343">
        <ele>1815.59</ele>
        <time>2017-02-23T09:40:53Z</time>
      </trkpt>
      <trkpt lat="42.70355" lon="1.07336">
        <ele>1830.49</ele>
        <time>2017-02-23T09:42:11Z</time>
      </trkpt>
      <trkpt lat="42.70355" lon="1.07336">
        <ele>1839.62</ele>
        <time>2017-02-23T09:42:16Z</time>
      </trkpt>
      <trkpt lat="42.70354" lon="1.07335">
        <ele>1824.24</ele>
        <time>2017-02-23T09:43:19Z</time>
      </trkpt>
      <trkpt lat="42.70375" lon="1.0726">
        <ele>1855</ele>
        <time>2017-02-23T09:45:51Z</time>
      </trkpt>
      <trkpt lat="42.70396" lon="1.07226">
        <ele>1839.62</ele>
        <time>2017-02-23T09:46:59Z</time>
      </trkpt>
      <trkpt lat="42.70477" lon="1.07198">
        <ele>1862.69</ele>
        <time>2017-02-23T09:49:58Z</time>
      </trkpt>
      <trkpt lat="42.70482" lon="1.07199">
        <ele>1852.6</ele>
        <time>2017-02-23T09:50:23Z</time>
      </trkpt>
      <trkpt lat="42.70481" lon="1.07182">
        <ele>1860.29</ele>
        <time>2017-02-23T09:51:39Z</time>
      </trkpt>
      <trkpt lat="42.70512" lon="1.07111">
        <ele>1887.21</ele>
        <time>2017-02-23T09:55:05Z</time>
      </trkpt>
      <trkpt lat="42.70529" lon="1.07096">
        <ele>1890.57</ele>
        <time>2017-02-23T09:56:18Z</time>
      </trkpt>
      <trkpt lat="42.70565" lon="1.07014">
        <ele>1909.32</ele>
        <time>2017-02-23T09:59:02Z</time>
      </trkpt>
      <trkpt lat="42.70583" lon="1.06926">
        <ele>1924.22</ele>
        <time>2017-02-23T10:01:45Z</time>
      </trkpt>
      <trkpt lat="42.70576" lon="1.06875">
        <ele>1932.39</ele>
        <time>2017-02-23T10:03:17Z</time>
      </trkpt>
      <trkpt lat="42.70592" lon="1.06831">
        <ele>1943.44</ele>
        <time>2017-02-23T10:04:51Z</time>
      </trkpt>
      <trkpt lat="42.70584" lon="1.06796">
        <ele>1950.17</ele>
        <time>2017-02-23T10:05:50Z</time>
      </trkpt>
      <trkpt lat="42.70584" lon="1.06795">
        <ele>1943.44</ele>
        <time>2017-02-23T10:05:53Z</time>
      </trkpt>
      <trkpt lat="42.70584" lon="1.06795">
        <ele>1965.07</ele>
        <time>2017-02-23T10:06:04Z</time>
      </trkpt>
      <trkpt lat="42.70583" lon="1.06789">
        <ele>1951.61</ele>
        <time>2017-02-23T10:06:26Z</time>
      </trkpt>
      <trkpt lat="42.70605" lon="1.06775">
        <ele>1957.38</ele>
        <time>2017-02-23T10:07:27Z</time>
      </trkpt>
      <trkpt lat="42.70628" lon="1.06739">
        <ele>1969.88</ele>
        <time>2017-02-23T10:09:18Z</time>
      </trkpt>
      <trkpt lat="42.70638" lon="1.06746">
        <ele>1973.24</ele>
        <time>2017-02-23T10:09:52Z</time>
      </trkpt>
      <trkpt lat="42.70641" lon="1.06745">
        <ele>1974.2</ele>
        <time>2017-02-23T10:10:09Z</time>
      </trkpt>
      <trkpt lat="42.70642" lon="1.0673">
        <ele>1978.53</ele>
        <time>2017-02-23T10:10:44Z</time>
      </trkpt>
      <trkpt lat="42.70651" lon="1.06718">
        <ele>1984.3</ele>
        <time>2017-02-23T10:11:33Z</time>
      </trkpt>
      <trkpt lat="42.70671" lon="1.06647">
        <ele>2000.16</ele>
        <time>2017-02-23T10:14:20Z</time>
      </trkpt>
      <trkpt lat="42.7069" lon="1.06674">
        <ele>2008.33</ele>
        <time>2017-02-23T10:15:41Z</time>
      </trkpt>
      <trkpt lat="42.70693" lon="1.06667">
        <ele>2010.25</ele>
        <time>2017-02-23T10:15:58Z</time>
      </trkpt>
      <trkpt lat="42.70691" lon="1.06539">
        <ele>2036.69</ele>
        <time>2017-02-23T10:20:04Z</time>
      </trkpt>
      <trkpt lat="42.70709" lon="1.06543">
        <ele>2041.98</ele>
        <time>2017-02-23T10:20:48Z</time>
      </trkpt>
      <trkpt lat="42.70694" lon="1.06493">
        <ele>2055.92</ele>
        <time>2017-02-23T10:22:48Z</time>
      </trkpt>
      <trkpt lat="42.70694" lon="1.06361">
        <ele>2083.79</ele>
        <time>2017-02-23T10:27:24Z</time>
      </trkpt>
      <trkpt lat="42.70691" lon="1.06323">
        <ele>2089.08</ele>
        <time>2017-02-23T10:28:26Z</time>
      </trkpt>
      <trkpt lat="42.70679" lon="1.06196">
        <ele>2113.6</ele>
        <time>2017-02-23T10:38:15Z</time>
      </trkpt>
      <trkpt lat="42.70697" lon="1.0618">
        <ele>2118.4</ele>
        <time>2017-02-23T10:39:00Z</time>
      </trkpt>
      <trkpt lat="42.70692" lon="1.06147">
        <ele>2130.9</ele>
        <time>2017-02-23T10:40:42Z</time>
      </trkpt>
      <trkpt lat="42.70704" lon="1.06143">
        <ele>2135.23</ele>
        <time>2017-02-23T10:41:21Z</time>
      </trkpt>
      <trkpt lat="42.70699" lon="1.06131">
        <ele>2139.55</ele>
        <time>2017-02-23T10:42:16Z</time>
      </trkpt>
      <trkpt lat="42.70695" lon="1.06122">
        <ele>2140.99</ele>
        <time>2017-02-23T10:42:32Z</time>
      </trkpt>
      <trkpt lat="42.70718" lon="1.06071">
        <ele>2153.97</ele>
        <time>2017-02-23T10:44:31Z</time>
      </trkpt>
      <trkpt lat="42.70717" lon="1.06018">
        <ele>2167.91</ele>
        <time>2017-02-23T10:46:30Z</time>
      </trkpt>
      <trkpt lat="42.7073" lon="1.05969">
        <ele>2180.41</ele>
        <time>2017-02-23T10:48:21Z</time>
      </trkpt>
      <trkpt lat="42.70715" lon="1.05956">
        <ele>2186.18</ele>
        <time>2017-02-23T10:49:14Z</time>
      </trkpt>
      <trkpt lat="42.7071" lon="1.05912">
        <ele>2208.29</ele>
        <time>2017-02-23T10:57:55Z</time>
      </trkpt>
      <trkpt lat="42.70695" lon="1.05784">
        <ele>2208.29</ele>
        <time>2017-02-23T11:02:31Z</time>
      </trkpt>
      <trkpt lat="42.70652" lon="1.05696">
        <ele>2214.53</ele>
        <time>2017-02-23T11:04:16Z</time>
      </trkpt>
      <trkpt lat="42.70649" lon="1.05655">
        <ele>2227.03</ele>
        <time>2017-02-23T11:05:35Z</time>
      </trkpt>
      <trkpt lat="42.70649" lon="1.05478">
        <ele>2218.38</ele>
        <time>2017-02-23T11:08:32Z</time>
      </trkpt>
      <trkpt lat="42.7065" lon="1.05466">
        <ele>2214.05</ele>
        <time>2017-02-23T11:08:50Z</time>
      </trkpt>
      <trkpt lat="42.70635" lon="1.05375">
        <ele>2210.69</ele>
        <time>2017-02-23T11:09:59Z</time>
      </trkpt>
      <trkpt lat="42.70648" lon="1.05274">
        <ele>2218.86</ele>
        <time>2017-02-23T11:11:52Z</time>
      </trkpt>
      <trkpt lat="42.70677" lon="1.05163">
        <ele>2218.38</ele>
        <time>2017-02-23T11:13:55Z</time>
      </trkpt>
      <trkpt lat="42.70671" lon="1.05147">
        <ele>2219.34</ele>
        <time>2017-02-23T11:14:46Z</time>
      </trkpt>
      <trkpt lat="42.70649" lon="1.0507">
        <ele>2242.41</ele>
        <time>2017-02-23T11:23:15Z</time>
      </trkpt>
      <trkpt lat="42.70667" lon="1.05066">
        <ele>2248.66</ele>
        <time>2017-02-23T11:25:01Z</time>
      </trkpt>
      <trkpt lat="42.70665" lon="1.05063">
        <ele>2251.54</ele>
        <time>2017-02-23T11:25:22Z</time>
      </trkpt>
      <trkpt lat="42.70661" lon="1.05056">
        <ele>2251.06</ele>
        <time>2017-02-23T11:26:40Z</time>
      </trkpt>
      <trkpt lat="42.70654" lon="1.05051">
        <ele>2252.99</ele>
        <time>2017-02-23T11:33:12Z</time>
      </trkpt>
      <trkpt lat="42.70643" lon="1.05035">
        <ele>2254.43</ele>
        <time>2017-02-23T11:33:34Z</time>
      </trkpt>
      <trkpt lat="42.70634" lon="1.05003">
        <ele>2260.2</ele>
        <time>2017-02-23T11:34:44Z</time>
      </trkpt>
      <trkpt lat="42.70612" lon="1.05003">
        <ele>2271.73</ele>
        <time>2017-02-23T11:36:23Z</time>
      </trkpt>
      <trkpt lat="42.70572" lon="1.04996">
        <ele>2279.42</ele>
        <time>2017-02-23T11:37:54Z</time>
      </trkpt>
      <trkpt lat="42.70554" lon="1.04962">
        <ele>2288.56</ele>
        <time>2017-02-23T11:39:29Z</time>
      </trkpt>
      <trkpt lat="42.70554" lon="1.04961">
        <ele>2288.56</ele>
        <time>2017-02-23T11:40:19Z</time>
      </trkpt>
      <trkpt lat="42.70535" lon="1.04966">
        <ele>2295.28</ele>
        <time>2017-02-23T11:43:16Z</time>
      </trkpt>
      <trkpt lat="42.70516" lon="1.04976">
        <ele>2296.73</ele>
        <time>2017-02-23T11:43:37Z</time>
      </trkpt>
      <trkpt lat="42.70506" lon="1.04993">
        <ele>2300.09</ele>
        <time>2017-02-23T11:44:09Z</time>
      </trkpt>
      <trkpt lat="42.70484" lon="1.04959">
        <ele>2305.38</ele>
        <time>2017-02-23T11:45:09Z</time>
      </trkpt>
      <trkpt lat="42.70491" lon="1.04946">
        <ele>2308.74</ele>
        <time>2017-02-23T11:45:44Z</time>
      </trkpt>
      <trkpt lat="42.70492" lon="1.04945">
        <ele>2308.26</ele>
        <time>2017-02-23T11:46:04Z</time>
      </trkpt>
      <trkpt lat="42.70489" lon="1.04942">
        <ele>2311.15</ele>
        <time>2017-02-23T11:46:44Z</time>
      </trkpt>
      <trkpt lat="42.70444" lon="1.04964">
        <ele>2322.68</ele>
        <time>2017-02-23T11:48:56Z</time>
      </trkpt>
      <trkpt lat="42.70454" lon="1.04897">
        <ele>2334.7</ele>
        <time>2017-02-23T11:52:04Z</time>
      </trkpt>
      <trkpt lat="42.70426" lon="1.049">
        <ele>2344.79</ele>
        <time>2017-02-23T12:00:06Z</time>
      </trkpt>
      <trkpt lat="42.70424" lon="1.04898">
        <ele>2345.27</ele>
        <time>2017-02-23T12:01:41Z</time>
      </trkpt>
      <trkpt lat="42.70446" lon="1.04736">
        <ele>2375.55</ele>
        <time>2017-02-23T12:06:55Z</time>
      </trkpt>
      <trkpt lat="42.70445" lon="1.04711">
        <ele>2379.88</ele>
        <time>2017-02-23T12:07:28Z</time>
      </trkpt>
      <trkpt lat="42.70502" lon="1.0462">
        <ele>2411.12</ele>
        <time>2017-02-23T12:12:52Z</time>
      </trkpt>
      <trkpt lat="42.70512" lon="1.04611">
        <ele>2414.49</ele>
        <time>2017-02-23T12:13:22Z</time>
      </trkpt>
      <trkpt lat="42.70512" lon="1.04604">
        <ele>2417.85</ele>
        <time>2017-02-23T12:13:56Z</time>
      </trkpt>
      <trkpt lat="42.70522" lon="1.04583">
        <ele>2422.66</ele>
        <time>2017-02-23T12:14:50Z</time>
      </trkpt>
      <trkpt lat="42.70503" lon="1.0458">
        <ele>2434.2</ele>
        <time>2017-02-23T12:39:58Z</time>
      </trkpt>
      <trkpt lat="42.70503" lon="1.0458">
        <ele>2430.35</ele>
        <time>2017-02-23T12:40:35Z</time>
      </trkpt>
      <trkpt lat="42.70498" lon="1.04551">
        <ele>2442.37</ele>
        <time>2017-02-23T12:41:32Z</time>
      </trkpt>
      <trkpt lat="42.70499" lon="1.04553">
        <ele>2424.58</ele>
        <time>2017-02-23T12:42:10Z</time>
      </trkpt>
      <trkpt lat="42.70491" lon="1.04538">
        <ele>2416.89</ele>
        <time>2017-02-23T12:42:15Z</time>
      </trkpt>
      <trkpt lat="42.70484" lon="1.04522">
        <ele>2409.2</ele>
        <time>2017-02-23T12:42:18Z</time>
      </trkpt>
      <trkpt lat="42.70467" lon="1.04513">
        <ele>2403.91</ele>
        <time>2017-02-23T12:42:21Z</time>
      </trkpt>
      <trkpt lat="42.70464" lon="1.04509">
        <ele>2400.07</ele>
        <time>2017-02-23T12:42:22Z</time>
      </trkpt>
      <trkpt lat="42.70447" lon="1.04483">
        <ele>2390.94</ele>
        <time>2017-02-23T12:42:33Z</time>
      </trkpt>
      <trkpt lat="42.70415" lon="1.04499">
        <ele>2383.73</ele>
        <time>2017-02-23T12:42:42Z</time>
      </trkpt>
      <trkpt lat="42.70381" lon="1.04441">
        <ele>2369.31</ele>
        <time>2017-02-23T12:43:05Z</time>
      </trkpt>
      <trkpt lat="42.70381" lon="1.04441">
        <ele>2363.54</ele>
        <time>2017-02-23T12:43:16Z</time>
      </trkpt>
      <trkpt lat="42.7034" lon="1.04443">
        <ele>2347.68</ele>
        <time>2017-02-23T12:43:28Z</time>
      </trkpt>
      <trkpt lat="42.70333" lon="1.04418">
        <ele>2339.02</ele>
        <time>2017-02-23T12:43:33Z</time>
      </trkpt>
      <trkpt lat="42.70319" lon="1.04414">
        <ele>2336.14</ele>
        <time>2017-02-23T12:43:54Z</time>
      </trkpt>
      <trkpt lat="42.70331" lon="1.04382">
        <ele>2328.93</ele>
        <time>2017-02-23T12:44:03Z</time>
      </trkpt>
      <trkpt lat="42.70302" lon="1.04388">
        <ele>2321.72</ele>
        <time>2017-02-23T12:44:11Z</time>
      </trkpt>
      <trkpt lat="42.70298" lon="1.04361">
        <ele>2309.7</ele>
        <time>2017-02-23T12:44:20Z</time>
      </trkpt>
      <trkpt lat="42.7024" lon="1.04364">
        <ele>2300.09</ele>
        <time>2017-02-23T12:44:33Z</time>
      </trkpt>
      <trkpt lat="42.70211" lon="1.04355">
        <ele>2291.44</ele>
        <time>2017-02-23T12:44:39Z</time>
      </trkpt>
      <trkpt lat="42.70139" lon="1.04295">
        <ele>2282.79</ele>
        <time>2017-02-23T12:45:12Z</time>
      </trkpt>
      <trkpt lat="42.70118" lon="1.04284">
        <ele>2275.1</ele>
        <time>2017-02-23T12:45:46Z</time>
      </trkpt>
      <trkpt lat="42.70078" lon="1.04269">
        <ele>2270.29</ele>
        <time>2017-02-23T12:45:56Z</time>
      </trkpt>
      <trkpt lat="42.69963" lon="1.04276">
        <ele>2272.21</ele>
        <time>2017-02-23T12:47:38Z</time>
      </trkpt>
      <trkpt lat="42.69865" lon="1.04269">
        <ele>2240.49</ele>
        <time>2017-02-23T12:48:36Z</time>
      </trkpt>
      <trkpt lat="42.69831" lon="1.04294">
        <ele>2233.28</ele>
        <time>2017-02-23T12:49:19Z</time>
      </trkpt>
      <trkpt lat="42.69826" lon="1.04285">
        <ele>2227.99</ele>
        <time>2017-02-23T12:49:22Z</time>
      </trkpt>
      <trkpt lat="42.69769" lon="1.0427">
        <ele>2210.21</ele>
        <time>2017-02-23T12:49:38Z</time>
      </trkpt>
      <trkpt lat="42.6975" lon="1.04274">
        <ele>2208.77</ele>
        <time>2017-02-23T12:49:43Z</time>
      </trkpt>
      <trkpt lat="42.69711" lon="1.04256">
        <ele>2193.87</ele>
        <time>2017-02-23T12:50:15Z</time>
      </trkpt>
      <trkpt lat="42.6966" lon="1.04217">
        <ele>2213.09</ele>
        <time>2017-02-23T12:55:28Z</time>
      </trkpt>
      <trkpt lat="42.6966" lon="1.04217">
        <ele>2192.42</ele>
        <time>2017-02-23T12:56:06Z</time>
      </trkpt>
    </trkseg>
  </trk>
  <trk>
    <name><![CDATA[TPS3_J5 24 FEV 2017 08:21]]></name>
    <trkseg>
      <trkpt lat="42.69664" lon="1.04208">
        <ele>2208.77</ele>
        <time>2017-02-24T07:21:04Z</time>
      </trkpt>
      <trkpt lat="42.69659" lon="1.04215">
        <ele>2218.86</ele>
        <time>2017-02-24T07:24:06Z</time>
      </trkpt>
      <trkpt lat="42.69654" lon="1.04214">
        <ele>2198.67</ele>
        <time>2017-02-24T07:28:32Z</time>
      </trkpt>
      <trkpt lat="42.69652" lon="1.04195">
        <ele>2197.23</ele>
        <time>2017-02-24T07:28:42Z</time>
      </trkpt>
      <trkpt lat="42.69648" lon="1.04158">
        <ele>2192.9</ele>
        <time>2017-02-24T07:28:53Z</time>
      </trkpt>
      <trkpt lat="42.69647" lon="1.04144">
        <ele>2189.06</ele>
        <time>2017-02-24T07:28:58Z</time>
      </trkpt>
      <trkpt lat="42.69636" lon="1.04142">
        <ele>2189.54</ele>
        <time>2017-02-24T07:29:08Z</time>
      </trkpt>
      <trkpt lat="42.69597" lon="1.04144">
        <ele>2183.77</ele>
        <time>2017-02-24T07:29:19Z</time>
      </trkpt>
      <trkpt lat="42.6956" lon="1.04119">
        <ele>2178.48</ele>
        <time>2017-02-24T07:29:35Z</time>
      </trkpt>
      <trkpt lat="42.69537" lon="1.04127">
        <ele>2171.76</ele>
        <time>2017-02-24T07:29:42Z</time>
      </trkpt>
      <trkpt lat="42.69524" lon="1.04129">
        <ele>2169.83</ele>
        <time>2017-02-24T07:29:45Z</time>
      </trkpt>
      <trkpt lat="42.6948" lon="1.04077">
        <ele>2157.34</ele>
        <time>2017-02-24T07:30:02Z</time>
      </trkpt>
      <trkpt lat="42.69481" lon="1.04001">
        <ele>2162.62</ele>
        <time>2017-02-24T07:30:55Z</time>
      </trkpt>
      <trkpt lat="42.69464" lon="1.03973">
        <ele>2157.34</ele>
        <time>2017-02-24T07:37:49Z</time>
      </trkpt>
      <trkpt lat="42.6949" lon="1.03915">
        <ele>2159.74</ele>
        <time>2017-02-24T07:41:17Z</time>
      </trkpt>
      <trkpt lat="42.69595" lon="1.03759">
        <ele>2179.93</ele>
        <time>2017-02-24T07:45:35Z</time>
      </trkpt>
      <trkpt lat="42.69628" lon="1.0374">
        <ele>2190.5</ele>
        <time>2017-02-24T07:47:11Z</time>
      </trkpt>
      <trkpt lat="42.69607" lon="1.03709">
        <ele>2200.59</ele>
        <time>2017-02-24T07:48:51Z</time>
      </trkpt>
      <trkpt lat="42.69619" lon="1.03696">
        <ele>2207.32</ele>
        <time>2017-02-24T07:49:49Z</time>
      </trkpt>
      <trkpt lat="42.69617" lon="1.03688">
        <ele>2211.17</ele>
        <time>2017-02-24T07:50:22Z</time>
      </trkpt>
      <trkpt lat="42.69622" lon="1.03673">
        <ele>2214.05</ele>
        <time>2017-02-24T07:50:54Z</time>
      </trkpt>
      <trkpt lat="42.69661" lon="1.03659">
        <ele>2226.07</ele>
        <time>2017-02-24T07:52:45Z</time>
      </trkpt>
      <trkpt lat="42.69656" lon="1.03628">
        <ele>2234.24</ele>
        <time>2017-02-24T07:54:20Z</time>
      </trkpt>
      <trkpt lat="42.69662" lon="1.03628">
        <ele>2233.76</ele>
        <time>2017-02-24T07:54:33Z</time>
      </trkpt>
      <trkpt lat="42.697" lon="1.03596">
        <ele>2250.1</ele>
        <time>2017-02-24T07:56:33Z</time>
      </trkpt>
      <trkpt lat="42.6971" lon="1.03588">
        <ele>2251.06</ele>
        <time>2017-02-24T07:56:53Z</time>
      </trkpt>
      <trkpt lat="42.69673" lon="1.03556">
        <ele>2264.04</ele>
        <time>2017-02-24T07:58:48Z</time>
      </trkpt>
      <trkpt lat="42.69683" lon="1.0352">
        <ele>2276.06</ele>
        <time>2017-02-24T08:00:32Z</time>
      </trkpt>
      <trkpt lat="42.69697" lon="1.0352">
        <ele>2279.9</ele>
        <time>2017-02-24T08:01:11Z</time>
      </trkpt>
      <trkpt lat="42.6967" lon="1.03426">
        <ele>2302.98</ele>
        <time>2017-02-24T08:04:13Z</time>
      </trkpt>
      <trkpt lat="42.6972" lon="1.03418">
        <ele>2314.99</ele>
        <time>2017-02-24T08:06:15Z</time>
      </trkpt>
      <trkpt lat="42.69727" lon="1.03394">
        <ele>2325.09</ele>
        <time>2017-02-24T08:07:42Z</time>
      </trkpt>
      <trkpt lat="42.69728" lon="1.03394">
        <ele>2321.72</ele>
        <time>2017-02-24T08:07:43Z</time>
      </trkpt>
      <trkpt lat="42.69731" lon="1.03394">
        <ele>2328.45</ele>
        <time>2017-02-24T08:07:55Z</time>
      </trkpt>
      <trkpt lat="42.69743" lon="1.03341">
        <ele>2345.27</ele>
        <time>2017-02-24T08:09:50Z</time>
      </trkpt>
      <trkpt lat="42.69746" lon="1.03262">
        <ele>2349.6</ele>
        <time>2017-02-24T08:12:31Z</time>
      </trkpt>
      <trkpt lat="42.69731" lon="1.03236">
        <ele>2356.33</ele>
        <time>2017-02-24T08:13:32Z</time>
      </trkpt>
      <trkpt lat="42.69698" lon="1.03212">
        <ele>2365.94</ele>
        <time>2017-02-24T08:14:57Z</time>
      </trkpt>
      <trkpt lat="42.69705" lon="1.03202">
        <ele>2365.94</ele>
        <time>2017-02-24T08:15:17Z</time>
      </trkpt>
      <trkpt lat="42.69705" lon="1.03203">
        <ele>2367.38</ele>
        <time>2017-02-24T08:15:30Z</time>
      </trkpt>
      <trkpt lat="42.69707" lon="1.03201">
        <ele>2364.5</ele>
        <time>2017-02-24T08:15:49Z</time>
      </trkpt>
      <trkpt lat="42.6972" lon="1.0319">
        <ele>2370.75</ele>
        <time>2017-02-24T08:22:13Z</time>
      </trkpt>
      <trkpt lat="42.69824" lon="1.03097">
        <ele>2338.54</ele>
        <time>2017-02-24T08:23:04Z</time>
      </trkpt>
      <trkpt lat="42.6983" lon="1.03094">
        <ele>2335.18</ele>
        <time>2017-02-24T08:23:06Z</time>
      </trkpt>
      <trkpt lat="42.69836" lon="1.03084">
        <ele>2336.62</ele>
        <time>2017-02-24T08:23:20Z</time>
      </trkpt>
      <trkpt lat="42.69838" lon="1.03081">
        <ele>2334.22</ele>
        <time>2017-02-24T08:23:29Z</time>
      </trkpt>
      <trkpt lat="42.69846" lon="1.03059">
        <ele>2329.89</ele>
        <time>2017-02-24T08:23:37Z</time>
      </trkpt>
      <trkpt lat="42.69855" lon="1.03054">
        <ele>2325.57</ele>
        <time>2017-02-24T08:23:40Z</time>
      </trkpt>
      <trkpt lat="42.69861" lon="1.03041">
        <ele>2325.57</ele>
        <time>2017-02-24T08:23:43Z</time>
      </trkpt>
      <trkpt lat="42.69868" lon="1.03023">
        <ele>2321.24</ele>
        <time>2017-02-24T08:23:47Z</time>
      </trkpt>
      <trkpt lat="42.69922" lon="1.02969">
        <ele>2317.4</ele>
        <time>2017-02-24T08:24:06Z</time>
      </trkpt>
      <trkpt lat="42.69943" lon="1.02951">
        <ele>2314.03</ele>
        <time>2017-02-24T08:24:13Z</time>
      </trkpt>
      <trkpt lat="42.69952" lon="1.02926">
        <ele>2318.36</ele>
        <time>2017-02-24T08:24:24Z</time>
      </trkpt>
      <trkpt lat="42.69965" lon="1.02927">
        <ele>2314.51</ele>
        <time>2017-02-24T08:24:31Z</time>
      </trkpt>
      <trkpt lat="42.69986" lon="1.02914">
        <ele>2312.11</ele>
        <time>2017-02-24T08:24:37Z</time>
      </trkpt>
      <trkpt lat="42.69983" lon="1.02723">
        <ele>2301.53</ele>
        <time>2017-02-24T08:25:28Z</time>
      </trkpt>
      <trkpt lat="42.69917" lon="1.02504">
        <ele>2307.3</ele>
        <time>2017-02-24T08:34:13Z</time>
      </trkpt>
      <trkpt lat="42.69917" lon="1.02498">
        <ele>2320.76</ele>
        <time>2017-02-24T08:34:38Z</time>
      </trkpt>
      <trkpt lat="42.69917" lon="1.02485">
        <ele>2308.26</ele>
        <time>2017-02-24T08:35:04Z</time>
      </trkpt>
      <trkpt lat="42.69917" lon="1.02467">
        <ele>2310.19</ele>
        <time>2017-02-24T08:35:22Z</time>
      </trkpt>
      <trkpt lat="42.69927" lon="1.02398">
        <ele>2316.43</ele>
        <time>2017-02-24T08:36:41Z</time>
      </trkpt>
      <trkpt lat="42.69939" lon="1.02369">
        <ele>2319.8</ele>
        <time>2017-02-24T08:37:25Z</time>
      </trkpt>
      <trkpt lat="42.69946" lon="1.02357">
        <ele>2315.95</ele>
        <time>2017-02-24T08:37:42Z</time>
      </trkpt>
      <trkpt lat="42.69947" lon="1.02356">
        <ele>2320.76</ele>
        <time>2017-02-24T08:37:43Z</time>
      </trkpt>
      <trkpt lat="42.69955" lon="1.02344">
        <ele>2332.3</ele>
        <time>2017-02-24T08:37:59Z</time>
      </trkpt>
      <trkpt lat="42.6998" lon="1.02295">
        <ele>2325.57</ele>
        <time>2017-02-24T08:39:23Z</time>
      </trkpt>
      <trkpt lat="42.69982" lon="1.02292">
        <ele>2319.8</ele>
        <time>2017-02-24T08:39:39Z</time>
      </trkpt>
      <trkpt lat="42.69983" lon="1.02288">
        <ele>2322.2</ele>
        <time>2017-02-24T08:39:43Z</time>
      </trkpt>
      <trkpt lat="42.69984" lon="1.02271">
        <ele>2323.16</ele>
        <time>2017-02-24T08:39:58Z</time>
      </trkpt>
      <trkpt lat="42.69988" lon="1.02254">
        <ele>2322.68</ele>
        <time>2017-02-24T08:40:15Z</time>
      </trkpt>
      <trkpt lat="42.69992" lon="1.02232">
        <ele>2322.68</ele>
        <time>2017-02-24T08:40:39Z</time>
      </trkpt>
      <trkpt lat="42.70001" lon="1.02203">
        <ele>2324.12</ele>
        <time>2017-02-24T08:41:16Z</time>
      </trkpt>
      <trkpt lat="42.70003" lon="1.02189">
        <ele>2329.89</ele>
        <time>2017-02-24T08:42:58Z</time>
      </trkpt>
      <trkpt lat="42.69884" lon="1.02192">
        <ele>2304.9</ele>
        <time>2017-02-24T08:45:17Z</time>
      </trkpt>
      <trkpt lat="42.69916" lon="1.02082">
        <ele>2298.17</ele>
        <time>2017-02-24T08:46:41Z</time>
      </trkpt>
      <trkpt lat="42.69919" lon="1.02075">
        <ele>2295.28</ele>
        <time>2017-02-24T08:46:48Z</time>
      </trkpt>
      <trkpt lat="42.69922" lon="1.02042">
        <ele>2290</ele>
        <time>2017-02-24T08:47:04Z</time>
      </trkpt>
      <trkpt lat="42.69882" lon="1.0194">
        <ele>2285.19</ele>
        <time>2017-02-24T08:48:20Z</time>
      </trkpt>
      <trkpt lat="42.69883" lon="1.01901">
        <ele>2289.04</ele>
        <time>2017-02-24T08:49:06Z</time>
      </trkpt>
      <trkpt lat="42.69884" lon="1.01863">
        <ele>2284.71</ele>
        <time>2017-02-24T08:49:47Z</time>
      </trkpt>
      <trkpt lat="42.6988" lon="1.01843">
        <ele>2277.98</ele>
        <time>2017-02-24T08:49:52Z</time>
      </trkpt>
      <trkpt lat="42.69878" lon="1.01833">
        <ele>2277.02</ele>
        <time>2017-02-24T08:49:54Z</time>
      </trkpt>
      <trkpt lat="42.69841" lon="1.01783">
        <ele>2276.54</ele>
        <time>2017-02-24T08:50:19Z</time>
      </trkpt>
      <trkpt lat="42.69836" lon="1.01772">
        <ele>2271.25</ele>
        <time>2017-02-24T08:50:24Z</time>
      </trkpt>
      <trkpt lat="42.69836" lon="1.01706">
        <ele>2265.48</ele>
        <time>2017-02-24T08:50:54Z</time>
      </trkpt>
      <trkpt lat="42.69815" lon="1.01624">
        <ele>2276.54</ele>
        <time>2017-02-24T08:53:33Z</time>
      </trkpt>
      <trkpt lat="42.69815" lon="1.01624">
        <ele>2273.66</ele>
        <time>2017-02-24T08:54:11Z</time>
      </trkpt>
      <trkpt lat="42.69752" lon="1.01571">
        <ele>2288.08</ele>
        <time>2017-02-24T08:57:06Z</time>
      </trkpt>
      <trkpt lat="42.69756" lon="1.01553">
        <ele>2294.32</ele>
        <time>2017-02-24T08:57:44Z</time>
      </trkpt>
      <trkpt lat="42.69757" lon="1.0153">
        <ele>2297.21</ele>
        <time>2017-02-24T08:58:25Z</time>
      </trkpt>
      <trkpt lat="42.69766" lon="1.01511">
        <ele>2302.49</ele>
        <time>2017-02-24T08:58:58Z</time>
      </trkpt>
      <trkpt lat="42.69754" lon="1.0147">
        <ele>2313.07</ele>
        <time>2017-02-24T09:00:31Z</time>
      </trkpt>
      <trkpt lat="42.69755" lon="1.01456">
        <ele>2316.43</ele>
        <time>2017-02-24T09:00:57Z</time>
      </trkpt>
      <trkpt lat="42.69752" lon="1.01435">
        <ele>2317.88</ele>
        <time>2017-02-24T09:01:24Z</time>
      </trkpt>
      <trkpt lat="42.6978" lon="1.01378">
        <ele>2339.02</ele>
        <time>2017-02-24T09:04:25Z</time>
      </trkpt>
      <trkpt lat="42.69798" lon="1.01372">
        <ele>2340.47</ele>
        <time>2017-02-24T09:04:56Z</time>
      </trkpt>
      <trkpt lat="42.69811" lon="1.01353">
        <ele>2349.12</ele>
        <time>2017-02-24T09:06:13Z</time>
      </trkpt>
      <trkpt lat="42.69811" lon="1.01353">
        <ele>2346.23</ele>
        <time>2017-02-24T09:06:26Z</time>
      </trkpt>
      <trkpt lat="42.69837" lon="1.01325">
        <ele>2351.52</ele>
        <time>2017-02-24T09:07:16Z</time>
      </trkpt>
      <trkpt lat="42.69825" lon="1.01237">
        <ele>2368.35</ele>
        <time>2017-02-24T09:11:12Z</time>
      </trkpt>
      <trkpt lat="42.69826" lon="1.01219">
        <ele>2369.79</ele>
        <time>2017-02-24T09:11:32Z</time>
      </trkpt>
      <trkpt lat="42.69852" lon="1.0119">
        <ele>2379.4</ele>
        <time>2017-02-24T09:13:03Z</time>
      </trkpt>
      <trkpt lat="42.6984" lon="1.01169">
        <ele>2386.61</ele>
        <time>2017-02-24T09:14:19Z</time>
      </trkpt>
      <trkpt lat="42.69848" lon="1.01112">
        <ele>2399.11</ele>
        <time>2017-02-24T09:17:41Z</time>
      </trkpt>
      <trkpt lat="42.69853" lon="1.01094">
        <ele>2404.39</ele>
        <time>2017-02-24T09:18:30Z</time>
      </trkpt>
      <trkpt lat="42.69854" lon="1.01075">
        <ele>2407.28</ele>
        <time>2017-02-24T09:19:04Z</time>
      </trkpt>
      <trkpt lat="42.69865" lon="1.01065">
        <ele>2414.01</ele>
        <time>2017-02-24T09:19:50Z</time>
      </trkpt>
      <trkpt lat="42.69851" lon="1.01031">
        <ele>2418.33</ele>
        <time>2017-02-24T09:21:13Z</time>
      </trkpt>
      <trkpt lat="42.69857" lon="1.00996">
        <ele>2428.91</ele>
        <time>2017-02-24T09:23:05Z</time>
      </trkpt>
      <trkpt lat="42.69856" lon="1.00989">
        <ele>2429.87</ele>
        <time>2017-02-24T09:23:25Z</time>
      </trkpt>
      <trkpt lat="42.69884" lon="1.00972">
        <ele>2439.48</ele>
        <time>2017-02-24T09:24:51Z</time>
      </trkpt>
      <trkpt lat="42.69913" lon="1.00989">
        <ele>2452.94</ele>
        <time>2017-02-24T09:28:17Z</time>
      </trkpt>
      <trkpt lat="42.699" lon="1.00931">
        <ele>2464.96</ele>
        <time>2017-02-24T09:31:21Z</time>
      </trkpt>
      <trkpt lat="42.69892" lon="1.00921">
        <ele>2466.88</ele>
        <time>2017-02-24T09:31:38Z</time>
      </trkpt>
      <trkpt lat="42.69892" lon="1.00921">
        <ele>2469.28</ele>
        <time>2017-02-24T09:32:39Z</time>
      </trkpt>
      <trkpt lat="42.69895" lon="1.00918">
        <ele>2468.32</ele>
        <time>2017-02-24T09:33:18Z</time>
      </trkpt>
      <trkpt lat="42.699" lon="1.00919">
        <ele>2466.4</ele>
        <time>2017-02-24T09:37:55Z</time>
      </trkpt>
      <trkpt lat="42.69904" lon="1.00929">
        <ele>2465.44</ele>
        <time>2017-02-24T09:38:41Z</time>
      </trkpt>
      <trkpt lat="42.69908" lon="1.00935">
        <ele>2464.96</ele>
        <time>2017-02-24T09:39:00Z</time>
      </trkpt>
      <trkpt lat="42.69914" lon="1.00946">
        <ele>2463.52</ele>
        <time>2017-02-24T09:51:30Z</time>
      </trkpt>
      <trkpt lat="42.69903" lon="1.00887">
        <ele>2497.16</ele>
        <time>2017-02-24T10:03:02Z</time>
      </trkpt>
      <trkpt lat="42.699" lon="1.0087">
        <ele>2502.93</ele>
        <time>2017-02-24T10:30:34Z</time>
      </trkpt>
      <trkpt lat="42.69899" lon="1.00835">
        <ele>2490.91</ele>
        <time>2017-02-24T10:31:00Z</time>
      </trkpt>
      <trkpt lat="42.69908" lon="1.00843">
        <ele>2497.64</ele>
        <time>2017-02-24T10:31:23Z</time>
      </trkpt>
      <trkpt lat="42.69925" lon="1.00845">
        <ele>2490.91</ele>
        <time>2017-02-24T10:31:56Z</time>
      </trkpt>
      <trkpt lat="42.6993" lon="1.0084">
        <ele>2483.22</ele>
        <time>2017-02-24T10:31:58Z</time>
      </trkpt>
      <trkpt lat="42.69917" lon="1.0081">
        <ele>2482.74</ele>
        <time>2017-02-24T10:32:10Z</time>
      </trkpt>
      <trkpt lat="42.69917" lon="1.0081">
        <ele>2479.86</ele>
        <time>2017-02-24T10:32:17Z</time>
      </trkpt>
      <trkpt lat="42.69913" lon="1.00794">
        <ele>2477.94</ele>
        <time>2017-02-24T10:32:45Z</time>
      </trkpt>
      <trkpt lat="42.69913" lon="1.00794">
        <ele>2472.65</ele>
        <time>2017-02-24T10:32:52Z</time>
      </trkpt>
      <trkpt lat="42.69923" lon="1.00796">
        <ele>2474.57</ele>
        <time>2017-02-24T10:32:57Z</time>
      </trkpt>
      <trkpt lat="42.69946" lon="1.00807">
        <ele>2466.88</ele>
        <time>2017-02-24T10:33:05Z</time>
      </trkpt>
      <trkpt lat="42.69952" lon="1.00802">
        <ele>2456.79</ele>
        <time>2017-02-24T10:33:07Z</time>
      </trkpt>
      <trkpt lat="42.69938" lon="1.0075">
        <ele>2456.79</ele>
        <time>2017-02-24T10:33:52Z</time>
      </trkpt>
      <trkpt lat="42.69937" lon="1.00749">
        <ele>2451.5</ele>
        <time>2017-02-24T10:34:06Z</time>
      </trkpt>
      <trkpt lat="42.69937" lon="1.00749">
        <ele>2454.86</ele>
        <time>2017-02-24T10:34:28Z</time>
      </trkpt>
      <trkpt lat="42.69938" lon="1.00749">
        <ele>2449.58</ele>
        <time>2017-02-24T10:34:30Z</time>
      </trkpt>
      <trkpt lat="42.69938" lon="1.00748">
        <ele>2451.02</ele>
        <time>2017-02-24T10:35:12Z</time>
      </trkpt>
      <trkpt lat="42.69936" lon="1.00733">
        <ele>2446.21</ele>
        <time>2017-02-24T10:35:19Z</time>
      </trkpt>
      <trkpt lat="42.6994" lon="1.00727">
        <ele>2452.94</ele>
        <time>2017-02-24T10:35:21Z</time>
      </trkpt>
      <trkpt lat="42.69946" lon="1.00728">
        <ele>2449.58</ele>
        <time>2017-02-24T10:35:23Z</time>
      </trkpt>
      <trkpt lat="42.69949" lon="1.00727">
        <ele>2444.77</ele>
        <time>2017-02-24T10:35:24Z</time>
      </trkpt>
      <trkpt lat="42.6995" lon="1.00723">
        <ele>2438.52</ele>
        <time>2017-02-24T10:35:25Z</time>
      </trkpt>
      <trkpt lat="42.69949" lon="1.00719">
        <ele>2440.44</ele>
        <time>2017-02-24T10:35:26Z</time>
      </trkpt>
      <trkpt lat="42.69943" lon="1.00703">
        <ele>2437.56</ele>
        <time>2017-02-24T10:35:32Z</time>
      </trkpt>
      <trkpt lat="42.6994" lon="1.00693">
        <ele>2432.75</ele>
        <time>2017-02-24T10:35:35Z</time>
      </trkpt>
      <trkpt lat="42.69942" lon="1.00689">
        <ele>2437.08</ele>
        <time>2017-02-24T10:35:37Z</time>
      </trkpt>
      <trkpt lat="42.69949" lon="1.00691">
        <ele>2433.23</ele>
        <time>2017-02-24T10:35:39Z</time>
      </trkpt>
      <trkpt lat="42.69955" lon="1.00685">
        <ele>2425.06</ele>
        <time>2017-02-24T10:35:42Z</time>
      </trkpt>
      <trkpt lat="42.69944" lon="1.00635">
        <ele>2416.89</ele>
        <time>2017-02-24T10:35:57Z</time>
      </trkpt>
      <trkpt lat="42.69947" lon="1.00635">
        <ele>2416.41</ele>
        <time>2017-02-24T10:35:58Z</time>
      </trkpt>
      <trkpt lat="42.6996" lon="1.0064">
        <ele>2409.2</ele>
        <time>2017-02-24T10:36:02Z</time>
      </trkpt>
      <trkpt lat="42.69964" lon="1.00632">
        <ele>2402.47</ele>
        <time>2017-02-24T10:36:05Z</time>
      </trkpt>
      <trkpt lat="42.69957" lon="1.00604">
        <ele>2394.78</ele>
        <time>2017-02-24T10:36:12Z</time>
      </trkpt>
      <trkpt lat="42.69946" lon="1.00556">
        <ele>2386.61</ele>
        <time>2017-02-24T10:36:21Z</time>
      </trkpt>
      <trkpt lat="42.69937" lon="1.00525">
        <ele>2387.09</ele>
        <time>2017-02-24T10:36:29Z</time>
      </trkpt>
      <trkpt lat="42.69935" lon="1.0052">
        <ele>2383.25</ele>
        <time>2017-02-24T10:36:37Z</time>
      </trkpt>
      <trkpt lat="42.69934" lon="1.00511">
        <ele>2381.32</ele>
        <time>2017-02-24T10:36:42Z</time>
      </trkpt>
      <trkpt lat="42.69949" lon="1.0048">
        <ele>2377.48</ele>
        <time>2017-02-24T10:36:54Z</time>
      </trkpt>
      <trkpt lat="42.69957" lon="1.00474">
        <ele>2368.35</ele>
        <time>2017-02-24T10:36:57Z</time>
      </trkpt>
      <trkpt lat="42.69952" lon="1.0046">
        <ele>2370.27</ele>
        <time>2017-02-24T10:37:00Z</time>
      </trkpt>
      <trkpt lat="42.69932" lon="1.0044">
        <ele>2365.46</ele>
        <time>2017-02-24T10:37:07Z</time>
      </trkpt>
      <trkpt lat="42.69917" lon="1.00419">
        <ele>2360.65</ele>
        <time>2017-02-24T10:37:12Z</time>
      </trkpt>
      <trkpt lat="42.69911" lon="1.00335">
        <ele>2352.96</ele>
        <time>2017-02-24T10:37:30Z</time>
      </trkpt>
      <trkpt lat="42.6992" lon="1.00311">
        <ele>2349.12</ele>
        <time>2017-02-24T10:37:36Z</time>
      </trkpt>
      <trkpt lat="42.69909" lon="1.00283">
        <ele>2348.64</ele>
        <time>2017-02-24T10:37:42Z</time>
      </trkpt>
      <trkpt lat="42.69896" lon="1.00199">
        <ele>2331.33</ele>
        <time>2017-02-24T10:37:58Z</time>
      </trkpt>
      <trkpt lat="42.69885" lon="1.00117">
        <ele>2337.58</ele>
        <time>2017-02-24T10:38:36Z</time>
      </trkpt>
      <trkpt lat="42.6989" lon="1.00062">
        <ele>2321.24</ele>
        <time>2017-02-24T10:39:08Z</time>
      </trkpt>
      <trkpt lat="42.6989" lon="1.00048">
        <ele>2314.99</ele>
        <time>2017-02-24T10:39:20Z</time>
      </trkpt>
      <trkpt lat="42.69884" lon="1.00006">
        <ele>2316.43</ele>
        <time>2017-02-24T10:39:27Z</time>
      </trkpt>
      <trkpt lat="42.69853" lon="0.99939">
        <ele>2317.4</ele>
        <time>2017-02-24T10:40:03Z</time>
      </trkpt>
      <trkpt lat="42.69846" lon="0.99923">
        <ele>2313.55</ele>
        <time>2017-02-24T10:40:13Z</time>
      </trkpt>
      <trkpt lat="42.69846" lon="0.99923">
        <ele>2315.47</ele>
        <time>2017-02-24T10:40:16Z</time>
      </trkpt>
      <trkpt lat="42.69844" lon="0.99914">
        <ele>2314.03</ele>
        <time>2017-02-24T10:40:21Z</time>
      </trkpt>
      <trkpt lat="42.69841" lon="0.99896">
        <ele>2312.59</ele>
        <time>2017-02-24T10:40:30Z</time>
      </trkpt>
      <trkpt lat="42.69839" lon="0.9987">
        <ele>2311.15</ele>
        <time>2017-02-24T10:40:38Z</time>
      </trkpt>
      <trkpt lat="42.69836" lon="0.99849">
        <ele>2306.34</ele>
        <time>2017-02-24T10:40:41Z</time>
      </trkpt>
      <trkpt lat="42.69828" lon="0.99822">
        <ele>2310.67</ele>
        <time>2017-02-24T10:40:45Z</time>
      </trkpt>
      <trkpt lat="42.69811" lon="0.99784">
        <ele>2309.22</ele>
        <time>2017-02-24T10:40:54Z</time>
      </trkpt>
      <trkpt lat="42.69802" lon="0.99776">
        <ele>2310.19</ele>
        <time>2017-02-24T10:41:00Z</time>
      </trkpt>
      <trkpt lat="42.69789" lon="0.9976">
        <ele>2306.82</ele>
        <time>2017-02-24T10:41:11Z</time>
      </trkpt>
      <trkpt lat="42.69767" lon="0.99667">
        <ele>2301.53</ele>
        <time>2017-02-24T10:41:34Z</time>
      </trkpt>
      <trkpt lat="42.69728" lon="0.99616">
        <ele>2298.17</ele>
        <time>2017-02-24T10:41:57Z</time>
      </trkpt>
      <trkpt lat="42.69711" lon="0.99538">
        <ele>2301.05</ele>
        <time>2017-02-24T10:43:06Z</time>
      </trkpt>
      <trkpt lat="42.69697" lon="0.99377">
        <ele>2285.67</ele>
        <time>2017-02-24T10:43:39Z</time>
      </trkpt>
      <trkpt lat="42.69674" lon="0.9926">
        <ele>2277.98</ele>
        <time>2017-02-24T10:44:11Z</time>
      </trkpt>
      <trkpt lat="42.69681" lon="0.99149">
        <ele>2281.35</ele>
        <time>2017-02-24T10:44:47Z</time>
      </trkpt>
      <trkpt lat="42.69673" lon="0.99041">
        <ele>2246.74</ele>
        <time>2017-02-24T10:45:45Z</time>
      </trkpt>
      <trkpt lat="42.69666" lon="0.9904">
        <ele>2243.85</ele>
        <time>2017-02-24T10:45:47Z</time>
      </trkpt>
      <trkpt lat="42.69656" lon="0.99034">
        <ele>2234.72</ele>
        <time>2017-02-24T10:45:50Z</time>
      </trkpt>
      <trkpt lat="42.69661" lon="0.99004">
        <ele>2230.4</ele>
        <time>2017-02-24T10:45:55Z</time>
      </trkpt>
      <trkpt lat="42.69631" lon="0.9895">
        <ele>2230.88</ele>
        <time>2017-02-24T10:46:12Z</time>
      </trkpt>
      <trkpt lat="42.69626" lon="0.9894">
        <ele>2223.19</ele>
        <time>2017-02-24T10:46:16Z</time>
      </trkpt>
      <trkpt lat="42.69629" lon="0.98934">
        <ele>2229.43</ele>
        <time>2017-02-24T10:46:37Z</time>
      </trkpt>
      <trkpt lat="42.69635" lon="0.98929">
        <ele>2223.67</ele>
        <time>2017-02-24T10:46:54Z</time>
      </trkpt>
      <trkpt lat="42.69662" lon="0.98912">
        <ele>2217.42</ele>
        <time>2017-02-24T10:47:04Z</time>
      </trkpt>
      <trkpt lat="42.69676" lon="0.98875">
        <ele>2213.57</ele>
        <time>2017-02-24T10:47:12Z</time>
      </trkpt>
      <trkpt lat="42.69679" lon="0.98854">
        <ele>2208.29</ele>
        <time>2017-02-24T10:47:16Z</time>
      </trkpt>
      <trkpt lat="42.69716" lon="0.98809">
        <ele>2202.52</ele>
        <time>2017-02-24T10:47:28Z</time>
      </trkpt>
      <trkpt lat="42.69745" lon="0.98729">
        <ele>2203</ele>
        <time>2017-02-24T10:47:53Z</time>
      </trkpt>
      <trkpt lat="42.69755" lon="0.98728">
        <ele>2197.23</ele>
        <time>2017-02-24T10:48:07Z</time>
      </trkpt>
      <trkpt lat="42.6976" lon="0.9872">
        <ele>2190.98</ele>
        <time>2017-02-24T10:48:10Z</time>
      </trkpt>
      <trkpt lat="42.69766" lon="0.98702">
        <ele>2188.1</ele>
        <time>2017-02-24T10:48:15Z</time>
      </trkpt>
      <trkpt lat="42.69764" lon="0.98665">
        <ele>2176.08</ele>
        <time>2017-02-24T10:48:24Z</time>
      </trkpt>
      <trkpt lat="42.69745" lon="0.98654">
        <ele>2172.72</ele>
        <time>2017-02-24T10:48:29Z</time>
      </trkpt>
      <trkpt lat="42.6976" lon="0.98629">
        <ele>2170.31</ele>
        <time>2017-02-24T10:48:37Z</time>
      </trkpt>
      <trkpt lat="42.6976" lon="0.98615">
        <ele>2165.51</ele>
        <time>2017-02-24T10:48:41Z</time>
      </trkpt>
      <trkpt lat="42.69755" lon="0.98568">
        <ele>2165.03</ele>
        <time>2017-02-24T10:49:25Z</time>
      </trkpt>
      <trkpt lat="42.69777" lon="0.98556">
        <ele>2160.7</ele>
        <time>2017-02-24T10:49:36Z</time>
      </trkpt>
      <trkpt lat="42.69784" lon="0.98533">
        <ele>2154.45</ele>
        <time>2017-02-24T10:49:42Z</time>
      </trkpt>
      <trkpt lat="42.698" lon="0.98454">
        <ele>2145.32</ele>
        <time>2017-02-24T10:50:01Z</time>
      </trkpt>
      <trkpt lat="42.69801" lon="0.98391">
        <ele>2139.07</ele>
        <time>2017-02-24T10:50:18Z</time>
      </trkpt>
      <trkpt lat="42.69809" lon="0.98385">
        <ele>2134.26</ele>
        <time>2017-02-24T10:50:21Z</time>
      </trkpt>
      <trkpt lat="42.69843" lon="0.9831">
        <ele>2126.57</ele>
        <time>2017-02-24T10:51:21Z</time>
      </trkpt>
      <trkpt lat="42.69856" lon="0.98207">
        <ele>2123.21</ele>
        <time>2017-02-24T10:51:56Z</time>
      </trkpt>
      <trkpt lat="42.69856" lon="0.98207">
        <ele>2137.15</ele>
        <time>2017-02-24T10:52:26Z</time>
      </trkpt>
      <trkpt lat="42.69856" lon="0.98206">
        <ele>2123.21</ele>
        <time>2017-02-24T10:52:36Z</time>
      </trkpt>
      <trkpt lat="42.6986" lon="0.982">
        <ele>2122.73</ele>
        <time>2017-02-24T10:52:41Z</time>
      </trkpt>
      <trkpt lat="42.69869" lon="0.98186">
        <ele>2119.84</ele>
        <time>2017-02-24T10:52:49Z</time>
      </trkpt>
      <trkpt lat="42.69878" lon="0.98171">
        <ele>2119.84</ele>
        <time>2017-02-24T10:52:57Z</time>
      </trkpt>
      <trkpt lat="42.69885" lon="0.98164">
        <ele>2120.32</ele>
        <time>2017-02-24T10:53:01Z</time>
      </trkpt>
      <trkpt lat="42.69933" lon="0.98118">
        <ele>2120.32</ele>
        <time>2017-02-24T10:53:47Z</time>
      </trkpt>
      <trkpt lat="42.69944" lon="0.98108">
        <ele>2117.44</ele>
        <time>2017-02-24T10:53:52Z</time>
      </trkpt>
      <trkpt lat="42.69992" lon="0.98099">
        <ele>2117.44</ele>
        <time>2017-02-24T10:54:11Z</time>
      </trkpt>
      <trkpt lat="42.70004" lon="0.98092">
        <ele>2115.04</ele>
        <time>2017-02-24T10:54:16Z</time>
      </trkpt>
      <trkpt lat="42.70009" lon="0.98085">
        <ele>2113.12</ele>
        <time>2017-02-24T10:54:18Z</time>
      </trkpt>
      <trkpt lat="42.70014" lon="0.98077">
        <ele>2107.83</ele>
        <time>2017-02-24T10:54:20Z</time>
      </trkpt>
      <trkpt lat="42.70016" lon="0.98073">
        <ele>2113.12</ele>
        <time>2017-02-24T10:54:21Z</time>
      </trkpt>
      <trkpt lat="42.70026" lon="0.98056">
        <ele>2110.23</ele>
        <time>2017-02-24T10:54:25Z</time>
      </trkpt>
      <trkpt lat="42.70051" lon="0.98007">
        <ele>2111.19</ele>
        <time>2017-02-24T10:54:44Z</time>
      </trkpt>
      <trkpt lat="42.70093" lon="0.97944">
        <ele>2112.63</ele>
        <time>2017-02-24T10:55:33Z</time>
      </trkpt>
      <trkpt lat="42.70117" lon="0.97853">
        <ele>2118.88</ele>
        <time>2017-02-24T10:56:58Z</time>
      </trkpt>
      <trkpt lat="42.70126" lon="0.97832">
        <ele>2111.19</ele>
        <time>2017-02-24T10:57:32Z</time>
      </trkpt>
      <trkpt lat="42.70169" lon="0.97784">
        <ele>2108.79</ele>
        <time>2017-02-24T10:59:31Z</time>
      </trkpt>
      <trkpt lat="42.70161" lon="0.97712">
        <ele>2093.89</ele>
        <time>2017-02-24T10:59:48Z</time>
      </trkpt>
      <trkpt lat="42.70145" lon="0.97702">
        <ele>2087.64</ele>
        <time>2017-02-24T10:59:53Z</time>
      </trkpt>
      <trkpt lat="42.70134" lon="0.97697">
        <ele>2083.79</ele>
        <time>2017-02-24T10:59:56Z</time>
      </trkpt>
      <trkpt lat="42.70124" lon="0.97701">
        <ele>2082.35</ele>
        <time>2017-02-24T10:59:58Z</time>
      </trkpt>
      <trkpt lat="42.70114" lon="0.97691">
        <ele>2077.07</ele>
        <time>2017-02-24T11:00:01Z</time>
      </trkpt>
      <trkpt lat="42.7009" lon="0.97677">
        <ele>2071.78</ele>
        <time>2017-02-24T11:00:05Z</time>
      </trkpt>
      <trkpt lat="42.70078" lon="0.9765">
        <ele>2070.82</ele>
        <time>2017-02-24T11:00:10Z</time>
      </trkpt>
      <trkpt lat="42.70078" lon="0.9763">
        <ele>2067.45</ele>
        <time>2017-02-24T11:00:14Z</time>
      </trkpt>
      <trkpt lat="42.70104" lon="0.97592">
        <ele>2059.76</ele>
        <time>2017-02-24T11:00:24Z</time>
      </trkpt>
      <trkpt lat="42.70118" lon="0.97576">
        <ele>2051.59</ele>
        <time>2017-02-24T11:00:28Z</time>
      </trkpt>
      <trkpt lat="42.70133" lon="0.97576">
        <ele>2051.59</ele>
        <time>2017-02-24T11:00:37Z</time>
      </trkpt>
      <trkpt lat="42.70174" lon="0.97431">
        <ele>2013.62</ele>
        <time>2017-02-24T11:01:02Z</time>
      </trkpt>
      <trkpt lat="42.70125" lon="0.97308">
        <ele>2003.04</ele>
        <time>2017-02-24T11:01:23Z</time>
      </trkpt>
      <trkpt lat="42.70119" lon="0.97263">
        <ele>1995.83</ele>
        <time>2017-02-24T11:01:38Z</time>
      </trkpt>
      <trkpt lat="42.70119" lon="0.97263">
        <ele>2001.12</ele>
        <time>2017-02-24T11:01:39Z</time>
      </trkpt>
      <trkpt lat="42.70124" lon="0.97243">
        <ele>1998.24</ele>
        <time>2017-02-24T11:01:55Z</time>
      </trkpt>
      <trkpt lat="42.70137" lon="0.97221">
        <ele>1994.39</ele>
        <time>2017-02-24T11:01:59Z</time>
      </trkpt>
      <trkpt lat="42.70164" lon="0.97168">
        <ele>1988.62</ele>
        <time>2017-02-24T11:02:07Z</time>
      </trkpt>
      <trkpt lat="42.70173" lon="0.9714">
        <ele>1985.74</ele>
        <time>2017-02-24T11:02:10Z</time>
      </trkpt>
      <trkpt lat="42.70178" lon="0.97119">
        <ele>1980.93</ele>
        <time>2017-02-24T11:02:12Z</time>
      </trkpt>
      <trkpt lat="42.70181" lon="0.97096">
        <ele>1978.05</ele>
        <time>2017-02-24T11:02:14Z</time>
      </trkpt>
      <trkpt lat="42.70188" lon="0.97054">
        <ele>1965.55</ele>
        <time>2017-02-24T11:02:18Z</time>
      </trkpt>
      <trkpt lat="42.70198" lon="0.9704">
        <ele>1963.15</ele>
        <time>2017-02-24T11:02:20Z</time>
      </trkpt>
      <trkpt lat="42.70236" lon="0.96996">
        <ele>1956.9</ele>
        <time>2017-02-24T11:02:27Z</time>
      </trkpt>
      <trkpt lat="42.70251" lon="0.96975">
        <ele>1954.02</ele>
        <time>2017-02-24T11:02:31Z</time>
      </trkpt>
      <trkpt lat="42.70269" lon="0.96962">
        <ele>1947.29</ele>
        <time>2017-02-24T11:02:34Z</time>
      </trkpt>
      <trkpt lat="42.7029" lon="0.9694">
        <ele>1928.06</ele>
        <time>2017-02-24T11:02:37Z</time>
      </trkpt>
      <trkpt lat="42.70324" lon="0.96857">
        <ele>1921.81</ele>
        <time>2017-02-24T11:02:46Z</time>
      </trkpt>
      <trkpt lat="42.70316" lon="0.96843">
        <ele>1920.85</ele>
        <time>2017-02-24T11:02:48Z</time>
      </trkpt>
      <trkpt lat="42.70295" lon="0.96785">
        <ele>1903.07</ele>
        <time>2017-02-24T11:02:54Z</time>
      </trkpt>
      <trkpt lat="42.70271" lon="0.96594">
        <ele>1903.55</ele>
        <time>2017-02-24T11:03:26Z</time>
      </trkpt>
      <trkpt lat="42.7028" lon="0.96576">
        <ele>1904.99</ele>
        <time>2017-02-24T11:04:25Z</time>
      </trkpt>
      <trkpt lat="42.70299" lon="0.96542">
        <ele>1904.51</ele>
        <time>2017-02-24T11:04:40Z</time>
      </trkpt>
      <trkpt lat="42.70306" lon="0.96511">
        <ele>1905.95</ele>
        <time>2017-02-24T11:04:54Z</time>
      </trkpt>
      <trkpt lat="42.70296" lon="0.96476">
        <ele>1910.28</ele>
        <time>2017-02-24T11:05:47Z</time>
      </trkpt>
      <trkpt lat="42.70285" lon="0.96454">
        <ele>1909.32</ele>
        <time>2017-02-24T11:06:22Z</time>
      </trkpt>
      <trkpt lat="42.70267" lon="0.96433">
        <ele>1906.91</ele>
        <time>2017-02-24T11:06:34Z</time>
      </trkpt>
      <trkpt lat="42.70264" lon="0.96417">
        <ele>1903.07</ele>
        <time>2017-02-24T11:06:37Z</time>
      </trkpt>
      <trkpt lat="42.70328" lon="0.96143">
        <ele>1887.69</ele>
        <time>2017-02-24T11:07:22Z</time>
      </trkpt>
      <trkpt lat="42.70342" lon="0.96095">
        <ele>1880</ele>
        <time>2017-02-24T11:07:28Z</time>
      </trkpt>
      <trkpt lat="42.70362" lon="0.96025">
        <ele>1872.79</ele>
        <time>2017-02-24T11:07:35Z</time>
      </trkpt>
      <trkpt lat="42.70413" lon="0.95854">
        <ele>1859.81</ele>
        <time>2017-02-24T11:08:18Z</time>
      </trkpt>
      <trkpt lat="42.70435" lon="0.95833">
        <ele>1853.08</ele>
        <time>2017-02-24T11:08:38Z</time>
      </trkpt>
      <trkpt lat="42.70442" lon="0.958">
        <ele>1849.71</ele>
        <time>2017-02-24T11:09:07Z</time>
      </trkpt>
      <trkpt lat="42.70443" lon="0.95794">
        <ele>1848.75</ele>
        <time>2017-02-24T11:09:08Z</time>
      </trkpt>
      <trkpt lat="42.70462" lon="0.95532">
        <ele>1832.41</ele>
        <time>2017-02-24T11:09:44Z</time>
      </trkpt>
      <trkpt lat="42.70482" lon="0.9548">
        <ele>1830.49</ele>
        <time>2017-02-24T11:09:56Z</time>
      </trkpt>
      <trkpt lat="42.70483" lon="0.95463">
        <ele>1829.53</ele>
        <time>2017-02-24T11:10:00Z</time>
      </trkpt>
      <trkpt lat="42.70456" lon="0.95251">
        <ele>1822.32</ele>
        <time>2017-02-24T11:10:53Z</time>
      </trkpt>
      <trkpt lat="42.7044" lon="0.95164">
        <ele>1817.03</ele>
        <time>2017-02-24T11:11:18Z</time>
      </trkpt>
      <trkpt lat="42.70424" lon="0.95112">
        <ele>1810.3</ele>
        <time>2017-02-24T11:11:26Z</time>
      </trkpt>
      <trkpt lat="42.70418" lon="0.95071">
        <ele>1802.13</ele>
        <time>2017-02-24T11:11:31Z</time>
      </trkpt>
      <trkpt lat="42.70401" lon="0.95">
        <ele>1786.27</ele>
        <time>2017-02-24T11:11:37Z</time>
      </trkpt>
      <trkpt lat="42.70387" lon="0.94979">
        <ele>1782.42</ele>
        <time>2017-02-24T11:11:39Z</time>
      </trkpt>
      <trkpt lat="42.70384" lon="0.94967">
        <ele>1778.1</ele>
        <time>2017-02-24T11:11:40Z</time>
      </trkpt>
      <trkpt lat="42.70378" lon="0.94905">
        <ele>1766.56</ele>
        <time>2017-02-24T11:11:45Z</time>
      </trkpt>
      <trkpt lat="42.70358" lon="0.94834">
        <ele>1747.33</ele>
        <time>2017-02-24T11:11:50Z</time>
      </trkpt>
      <trkpt lat="42.70354" lon="0.9478">
        <ele>1746.37</ele>
        <time>2017-02-24T11:11:54Z</time>
      </trkpt>
      <trkpt lat="42.70301" lon="0.94611">
        <ele>1741.08</ele>
        <time>2017-02-24T11:12:12Z</time>
      </trkpt>
      <trkpt lat="42.70313" lon="0.94527">
        <ele>1730.03</ele>
        <time>2017-02-24T11:13:29Z</time>
      </trkpt>
      <trkpt lat="42.70305" lon="0.94468">
        <ele>1726.18</ele>
        <time>2017-02-24T11:13:35Z</time>
      </trkpt>
      <trkpt lat="42.70301" lon="0.94447">
        <ele>1722.82</ele>
        <time>2017-02-24T11:13:37Z</time>
      </trkpt>
      <trkpt lat="42.70298" lon="0.94395">
        <ele>1718.97</ele>
        <time>2017-02-24T11:13:42Z</time>
      </trkpt>
      <trkpt lat="42.70288" lon="0.94353">
        <ele>1714.65</ele>
        <time>2017-02-24T11:13:47Z</time>
      </trkpt>
      <trkpt lat="42.70273" lon="0.9419">
        <ele>1687.73</ele>
        <time>2017-02-24T11:14:06Z</time>
      </trkpt>
      <trkpt lat="42.70274" lon="0.94182">
        <ele>1684.85</ele>
        <time>2017-02-24T11:14:07Z</time>
      </trkpt>
      <trkpt lat="42.70222" lon="0.94087">
        <ele>1668.51</ele>
        <time>2017-02-24T11:14:23Z</time>
      </trkpt>
      <trkpt lat="42.70204" lon="0.94062">
        <ele>1658.41</ele>
        <time>2017-02-24T11:15:35Z</time>
      </trkpt>
      <trkpt lat="42.70171" lon="0.94021">
        <ele>1649.76</ele>
        <time>2017-02-24T11:15:42Z</time>
      </trkpt>
      <trkpt lat="42.70157" lon="0.94011">
        <ele>1647.84</ele>
        <time>2017-02-24T11:15:44Z</time>
      </trkpt>
      <trkpt lat="42.70145" lon="0.93997">
        <ele>1639.67</ele>
        <time>2017-02-24T11:15:46Z</time>
      </trkpt>
      <trkpt lat="42.70138" lon="0.93991">
        <ele>1642.07</ele>
        <time>2017-02-24T11:15:47Z</time>
      </trkpt>
      <trkpt lat="42.70114" lon="0.93967">
        <ele>1634.38</ele>
        <time>2017-02-24T11:15:51Z</time>
      </trkpt>
      <trkpt lat="42.7007" lon="0.93933">
        <ele>1627.65</ele>
        <time>2017-02-24T11:15:58Z</time>
      </trkpt>
      <trkpt lat="42.70001" lon="0.93863">
        <ele>1611.79</ele>
        <time>2017-02-24T11:16:11Z</time>
      </trkpt>
      <trkpt lat="42.69949" lon="0.93831">
        <ele>1610.83</ele>
        <time>2017-02-24T11:17:30Z</time>
      </trkpt>
      <trkpt lat="42.69964" lon="0.93796">
        <ele>1601.69</ele>
        <time>2017-02-24T11:17:53Z</time>
      </trkpt>
      <trkpt lat="42.69966" lon="0.9379">
        <ele>1595.93</ele>
        <time>2017-02-24T11:17:54Z</time>
      </trkpt>
      <trkpt lat="42.69971" lon="0.93757">
        <ele>1587.75</ele>
        <time>2017-02-24T11:17:59Z</time>
      </trkpt>
      <trkpt lat="42.69972" lon="0.93751">
        <ele>1582.47</ele>
        <time>2017-02-24T11:18:00Z</time>
      </trkpt>
      <trkpt lat="42.69975" lon="0.9372">
        <ele>1570.93</ele>
        <time>2017-02-24T11:18:04Z</time>
      </trkpt>
      <trkpt lat="42.69986" lon="0.93674">
        <ele>1558.43</ele>
        <time>2017-02-24T11:18:11Z</time>
      </trkpt>
      <trkpt lat="42.69981" lon="0.93588">
        <ele>1530.56</ele>
        <time>2017-02-24T11:18:26Z</time>
      </trkpt>
      <trkpt lat="42.69983" lon="0.93571">
        <ele>1526.71</ele>
        <time>2017-02-24T11:18:28Z</time>
      </trkpt>
      <trkpt lat="42.69985" lon="0.93554">
        <ele>1521.42</ele>
        <time>2017-02-24T11:18:30Z</time>
      </trkpt>
      <trkpt lat="42.69968" lon="0.93515">
        <ele>1510.85</ele>
        <time>2017-02-24T11:18:40Z</time>
      </trkpt>
      <trkpt lat="42.69955" lon="0.93511">
        <ele>1507.97</ele>
        <time>2017-02-24T11:18:44Z</time>
      </trkpt>
      <trkpt lat="42.69935" lon="0.935">
        <ele>1508.45</ele>
        <time>2017-02-24T11:19:14Z</time>
      </trkpt>
      <trkpt lat="42.69933" lon="0.93477">
        <ele>1502.68</ele>
        <time>2017-02-24T11:19:20Z</time>
      </trkpt>
      <trkpt lat="42.69902" lon="0.93457">
        <ele>1495.95</ele>
        <time>2017-02-24T11:19:29Z</time>
      </trkpt>
      <trkpt lat="42.69904" lon="0.9344">
        <ele>1510.85</ele>
        <time>2017-02-24T11:21:53Z</time>
      </trkpt>
      <trkpt lat="42.69904" lon="0.9344">
        <ele>1494.99</ele>
        <time>2017-02-24T11:22:26Z</time>
      </trkpt>
    </trkseg>
  </trk>
</gpx>